Provisional Data: Meshoppen Creek near Kaiserville, PA


Please select a monitoring station.
Please select start date.
Please select start date.

Toggle Unit: C/F Toggle Unit: C/F
Sample Time Temperature (C) Temperature (F) Specific Conductivity (mS/cm) pH   Turbidity (NTU+) DO (mg/L)
1/12/2021 12:00:00 AM -1.53 29.246 0 7.11 494.74 14.33
1/12/2021 12:15:00 AM -1.51 29.282 0 7.12 499.25 14.32
1/12/2021 12:30:00 AM -1.46 29.372 0 7.14 503.86 14.32
1/12/2021 12:45:00 AM -1.44 29.408 0 7.14 507.96 14.31
1/12/2021 1:00:00 AM -1.45 29.39 0 7.14 511.59 14.31
1/12/2021 1:15:00 AM -1.47 29.354 0 7.13 515.57 14.31
1/12/2021 1:30:00 AM -1.53 29.246 0 7.11 519.87 14.32
1/12/2021 1:45:00 AM -1.57 29.174 0 7.1 523.88 14.32
1/12/2021 2:00:00 AM -1.67 28.994 0 7.08 527.53 14.33
1/12/2021 2:15:00 AM -1.81 28.742 0 7.05 531.23 14.36
1/12/2021 2:30:00 AM -1.92 28.544 0 7.04 535.69 14.36
1/12/2021 2:45:00 AM -2.07 28.274 0 7.02 539.5 14.39
1/12/2021 3:00:00 AM -2.25 27.95 0 7 543.7 14.41
1/12/2021 3:15:00 AM -2.34 27.788 0 6.99 548.33 14.42
1/12/2021 3:30:00 AM -2.41 27.662 0 6.99 552.32 14.43
1/12/2021 3:45:00 AM -2.36 27.752 0 7.02 557.88 14.43
1/12/2021 4:00:00 AM -2.3 27.86 0 7.03 563.79 14.42
1/12/2021 4:15:00 AM -2.24 27.968 0 7.04 570.15 14.41
1/12/2021 4:30:00 AM -2.16 28.112 0 7.06 579.95 14.39
1/12/2021 4:45:00 AM -2.13 28.166 0 7.06 594.34 14.38
1/12/2021 5:00:00 AM -2.11 28.202 0 7.06 613.87 14.37
1/12/2021 5:15:00 AM -2.19 28.058 0 7.04 643.51 14.38
1/12/2021 5:30:00 AM -2.32 27.824 0 7.03 683.27 14.36
1/12/2021 5:45:00 AM -2.49 27.518 0 7.01 730.1 14.4
1/12/2021 6:00:00 AM -2.65 27.23 0 6.99 780.58 14.41
1/12/2021 6:15:00 AM -2.79 26.978 0 6.98 831.18 14.44
1/12/2021 6:30:00 AM -2.9 26.78 0 6.97 884.82 14.46
1/12/2021 6:45:00 AM -2.93 26.726 0 6.98 930.19 14.45
1/12/2021 7:00:00 AM -2.91 26.762 0 6.99 947.13 14.45
1/12/2021 7:15:00 AM -2.89 26.798 0 6.99 960.51 14.44
1/12/2021 7:30:00 AM -2.89 26.798 0 6.99 976.65 14.45
1/12/2021 7:45:00 AM -2.91 26.762 0 6.99 994.29 14.44
1/12/2021 8:00:00 AM -2.9 26.78 0 6.99 1014.87 14.45
1/12/2021 8:15:00 AM -2.82 26.924 0 7.01 1033.67 14.42
1/12/2021 8:30:00 AM -2.71 27.122 0 7.03 1037.71 14.42
1/12/2021 8:45:00 AM -2.56 27.392 0 7.06 1042.33 14.39
1/12/2021 9:00:00 AM -2.39 27.698 0 7.11 1043.8 14.36
1/12/2021 9:15:00 AM -2.2 28.04 0 7.19 1046.74 14.35
1/12/2021 9:30:00 AM -1.95 28.49 0 7.27 1054.64 14.32
1/12/2021 9:45:00 AM -1.63 29.066 0 7.32 1072.23 14.28
1/12/2021 10:00:00 AM -1.33 29.606 0 7.32 1096.69 14.22
1/12/2021 10:15:00 AM -1.05 30.11 0 7.31 1117.36 14.17
1/12/2021 10:30:00 AM -0.78 30.596 0 7.32 1136.36 14.14
1/12/2021 10:45:00 AM -0.51 31.082 0 7.35 1129.12 14.1
1/12/2021 11:00:00 AM -0.35 31.37 0 7.41 1109.53 14.08
1/12/2021 11:15:00 AM -0.25 31.55 0 7.52 1046.07 14.06
1/12/2021 11:30:00 AM -0.18 31.676 0 7.63 995.59 14.05
1/12/2021 11:45:00 AM -0.14 31.748 0 7.74 941.81 14.04
1/12/2021 12:00:00 PM -0.12 31.784 0 7.87 903.93 14.01
1/12/2021 12:15:00 PM -0.12 31.784 0 7.9 860.36 14.05
1/12/2021 12:30:00 PM -0.11 31.802 0 7.93 830.68 13.82
1/12/2021 12:45:00 PM -0.1 31.82 0 7.96 832.39 13.62
1/12/2021 1:00:00 PM -0.09 31.838 0 7.85 837.14 13.7
1/12/2021 1:15:00 PM -0.08 31.856 0 7.93 903.71 13.39
1/12/2021 1:30:00 PM -0.06 31.892 0 7.82 829.24 13.34
1/12/2021 1:45:00 PM -0.05 31.91 0 7.98 9.64 13
1/12/2021 2:00:00 PM -0.05 31.91 0.001 7.47 181.06 12.75
1/12/2021 2:15:00 PM -0.05 31.91 0.001 7.46 793.85 12.73
1/12/2021 2:30:00 PM -0.05 31.91 0 7.55 216.26 12.71
1/12/2021 2:45:00 PM -0.04 31.928 0 7.43 424.38 12.72
1/12/2021 3:00:00 PM -0.04 31.928 0 7.51 445.76 12.58
1/12/2021 3:15:00 PM -0.04 31.928 0 7.51 415.7 12.64
1/12/2021 3:30:00 PM -0.04 31.928 0 7.45 409.98 12.79
1/12/2021 3:45:00 PM -0.04 31.928 0 7.39 407.31 12.88
1/12/2021 4:00:00 PM -0.04 31.928 0 7.31 386.95 12.93
1/12/2021 4:15:00 PM -0.04 31.928 0 7.23 406.22 12.98
1/12/2021 4:30:00 PM -0.04 31.928 0 7.18 436.75 13.07
1/12/2021 4:45:00 PM -0.04 31.928 0 7.16 456.31 13.27
1/12/2021 5:00:00 PM -0.04 31.928 0 7.13 461.66 13.49
1/12/2021 5:15:00 PM -0.04 31.928 0 7.12 451.2 13.68
1/12/2021 5:30:00 PM -0.04 31.928 0 7.11 451.9 13.77
1/12/2021 5:45:00 PM -0.04 31.928 0 7.09 431.71 13.78
1/12/2021 6:00:00 PM -0.04 31.928 0 7.07 420.84 13.81
1/12/2021 6:15:00 PM -0.04 31.928 0 7.07 412.93 13.84
1/12/2021 6:30:00 PM -0.04 31.928 0 7.1 399.28 13.86
1/12/2021 6:45:00 PM -0.04 31.928 0 7.16 390.94 13.9
1/12/2021 7:00:00 PM -0.04 31.928 0 7.21 388.62 13.99
1/12/2021 7:15:00 PM -0.04 31.928 0 7.23 391.26 14.07
1/12/2021 7:30:00 PM -0.04 31.928 0 7.22 398 14.17
1/12/2021 7:45:00 PM -0.04 31.928 0 7.2 403.58 14.31
1/12/2021 8:00:00 PM -0.04 31.928 0 7.18 409.01 14.47
1/12/2021 8:15:00 PM -0.04 31.928 0 7.16 415.04 14.61
1/12/2021 8:30:00 PM -0.04 31.928 0 7.14 429.45 14.9
1/12/2021 8:45:00 PM -0.04 31.928 0 7.13 443.76 15.27
1/12/2021 9:00:00 PM -0.04 31.928 0 7.11 458.99 15.58
1/12/2021 9:15:00 PM -0.04 31.928 0 7.1 479.54 16.53
1/12/2021 9:30:00 PM -0.04 31.928 0 7.09 497.24 16.73
1/12/2021 9:45:00 PM -0.05 31.91 0 7.07 519.36 16.82
1/12/2021 10:00:00 PM -0.05 31.91 0 7.04 543.71 16.88
1/12/2021 10:15:00 PM -0.05 31.91 0 6.99 561.52 16.88
1/12/2021 10:30:00 PM -0.05 31.91 0 6.95 560.08 16.62
1/12/2021 10:45:00 PM -0.05 31.91 0 6.91 545.78 16.35
1/12/2021 11:00:00 PM -0.06 31.892 0 6.87 518.54 16.21
1/12/2021 11:15:00 PM -0.07 31.874 0 6.86 496.95 16.15
1/12/2021 11:30:00 PM -0.1 31.82 0 6.86 490.74 16.16
1/12/2021 11:45:00 PM -0.11 31.802 0 6.85 492.8 16.03
1/13/2021 12:00:00 AM -0.12 31.784 0 6.85 489.86 15.88
1/13/2021 12:15:00 AM -0.14 31.748 0 6.85 488.52 15.78
1/13/2021 12:30:00 AM -0.15 31.73 0 6.86 489.17 15.69
1/13/2021 12:45:00 AM -0.16 31.712 0 6.87 491.17 15.62
1/13/2021 1:00:00 AM -0.18 31.676 0 6.86 491.23 15.58
1/13/2021 1:15:00 AM -0.19 31.658 0 6.87 491.87 15.51
1/13/2021 1:30:00 AM -0.21 31.622 0 6.87 492.24 15.47
1/13/2021 1:45:00 AM -0.23 31.586 0 6.87 493.82 15.42
1/13/2021 2:00:00 AM -0.25 31.55 0 6.86 494.05 15.38
1/13/2021 2:15:00 AM -0.27 31.514 0 6.87 493.62 15.34
1/13/2021 2:30:00 AM -0.28 31.496 0 6.88 494.81 15.29
1/13/2021 2:45:00 AM -0.3 31.46 0 6.88 495.76 15.25
1/13/2021 3:00:00 AM -0.31 31.442 0 6.89 496.4 15.22
1/13/2021 3:15:00 AM -0.33 31.406 0 6.9 496.31 15.19
1/13/2021 3:30:00 AM -0.35 31.37 0 6.9 496.52 15.16
1/13/2021 3:45:00 AM -0.37 31.334 0 6.9 497.81 15.14
1/13/2021 4:00:00 AM -0.38 31.316 0 6.92 497.45 15.11
1/13/2021 4:15:00 AM -0.38 31.316 0 6.94 497.3 15.09
1/13/2021 4:30:00 AM -0.39 31.298 0 6.95 497.81 15.07
1/13/2021 4:45:00 AM -0.4 31.28 0 6.95 498.57 15.05
1/13/2021 5:00:00 AM -0.42 31.244 0 6.95 499.41 15.03
1/13/2021 5:15:00 AM -0.43 31.226 0 6.95 500.63 15.01
1/13/2021 5:30:00 AM -0.43 31.226 0 6.97 502.05 14.99
1/13/2021 5:45:00 AM -0.44 31.208 0 6.97 503.76 14.98
1/13/2021 6:00:00 AM -0.45 31.19 0 6.97 505.54 14.96
1/13/2021 6:15:00 AM -0.47 31.154 0 6.97 507.37 14.93
1/13/2021 6:30:00 AM -0.49 31.118 0 6.96 509.3 14.93
1/13/2021 6:45:00 AM -0.49 31.118 0 6.97 511.28 14.91
1/13/2021 7:00:00 AM -0.5 31.1 0 6.97 513.14 14.89
1/13/2021 7:15:00 AM -0.51 31.082 0 6.98 515.26 14.88
1/13/2021 7:30:00 AM -0.52 31.064 0 6.98 517.19 14.86
1/13/2021 7:45:00 AM -0.52 31.064 0 6.99 519.84 14.84
1/13/2021 8:00:00 AM -0.52 31.064 0 6.99 521.63 14.83
1/13/2021 8:15:00 AM -0.5 31.1 0 7.01 523.82 14.82
1/13/2021 8:30:00 AM -0.48 31.136 0 7.02 525.42 14.79
1/13/2021 8:45:00 AM -0.46 31.172 0 7.03 525.25 14.78
1/13/2021 9:00:00 AM -0.41 31.262 0 7.06 527.9 14.76
1/13/2021 9:15:00 AM -0.35 31.37 0 7.09 531.21 14.75
1/13/2021 9:30:00 AM -0.28 31.496 0 7.12 535.45 14.73
1/13/2021 9:45:00 AM -0.25 31.55 0 7.11 540.05 14.69
1/13/2021 10:00:00 AM -0.18 31.676 0 7.16 553.82 14.61
1/13/2021 10:15:00 AM -0.15 31.73 0 7.18 564.05 14.53
1/13/2021 10:30:00 AM -0.12 31.784 0 7.23 535.42 14.26
1/13/2021 10:45:00 AM -0.1 31.82 0 7.25 510.24 14.58
1/13/2021 11:00:00 AM -0.09 31.838 0 7.19 497.53 14.63
1/13/2021 11:15:00 AM -0.08 31.856 0 7.22 486.42 14.62
1/13/2021 11:30:00 AM -0.07 31.874 0 7.28 488.42 14.54
1/13/2021 11:45:00 AM -0.07 31.874 0 7.24 491.53 14.59
1/13/2021 12:00:00 PM -0.07 31.874 0 7.27 480.46 14.58
1/13/2021 12:15:00 PM -0.06 31.892 0 7.25 468.92 14.43
1/13/2021 12:30:00 PM -0.06 31.892 0 7.24 468.77 14.37
1/13/2021 12:45:00 PM -0.06 31.892 0 7.25 471.85 14.25
1/13/2021 1:00:00 PM -0.06 31.892 0 7.25 477.76 14.15
1/13/2021 1:15:00 PM -0.05 31.91 0 7.25 566.42 14.07
1/13/2021 1:30:00 PM -0.05 31.91 0 7.13 569.34 14.08
1/13/2021 1:45:00 PM -0.05 31.91 0 7.06 574.18 14.08
1/13/2021 2:00:00 PM -0.05 31.91 0 6.97 577.83 14.06
1/13/2021 2:15:00 PM -0.05 31.91 0 6.91 591.23 14.03
1/13/2021 2:30:00 PM -0.05 31.91 0 6.94 593.09 13.88
1/13/2021 2:45:00 PM -0.05 31.91 0 6.9 589.52 13.77
1/13/2021 3:00:00 PM -0.05 31.91 0 6.89 586.52 13.8
1/13/2021 3:15:00 PM -0.05 31.91 0 6.85 579.47 13.77
1/13/2021 3:30:00 PM -0.04 31.928 0 6.85 569.71 13.66
1/13/2021 3:45:00 PM -0.04 31.928 0 6.73 543 13.6
1/13/2021 4:00:00 PM -0.04 31.928 0 6.69 506.7 13.55
1/13/2021 4:15:00 PM -0.04 31.928 0 6.71 443.47 13.6
1/13/2021 4:30:00 PM -0.04 31.928 0 6.7 390.54 14.16
1/13/2021 4:45:00 PM -0.04 31.928 0 6.67 358.47 14.57
1/13/2021 5:00:00 PM -0.04 31.928 0 6.63 331.73 14.59
1/13/2021 5:15:00 PM -0.04 31.928 0 6.63 302.53 14.58
1/13/2021 5:30:00 PM -0.04 31.928 0 6.6 275.59 14.56
1/13/2021 5:45:00 PM -0.04 31.928 0 6.57 262.42 14.55
1/13/2021 6:00:00 PM -0.04 31.928 0 6.55 261.83 14.54
1/13/2021 6:15:00 PM -0.04 31.928 0 6.59 266.38 14.53
1/13/2021 6:30:00 PM -0.05 31.91 0 6.7 271.77 14.52
1/13/2021 6:45:00 PM -0.05 31.91 0 6.72 275.58 14.51
1/13/2021 7:00:00 PM -0.05 31.91 0 6.72 278.03 14.52
1/13/2021 7:15:00 PM -0.05 31.91 0 6.71 286.59 14.51
1/13/2021 7:30:00 PM -0.05 31.91 0 6.74 295.14 14.5
1/13/2021 7:45:00 PM -0.05 31.91 0 6.75 285.09 14.51
1/13/2021 8:00:00 PM -0.06 31.892 0 6.75 263.8 14.5
1/13/2021 8:15:00 PM -0.07 31.874 0 6.67 271.69 14.5
1/13/2021 8:30:00 PM -0.09 31.838 0 6.58 268.75 14.53
1/13/2021 8:45:00 PM -0.16 31.712 0 6.49 286.45 14.56
1/13/2021 9:00:00 PM -0.2 31.64 0 6.42 304.47 14.59
1/13/2021 9:15:00 PM -0.23 31.586 0 6.44 294.19 14.6
1/13/2021 9:30:00 PM -0.28 31.496 0 6.44 455.5 14.63
1/13/2021 9:45:00 PM -0.32 31.424 0 6.47 440.84 14.66
1/13/2021 10:00:00 PM -0.36 31.352 0 6.46 438.71 14.67
1/13/2021 10:15:00 PM -0.39 31.298 0 6.48 432.7 14.7
1/13/2021 10:30:00 PM -0.42 31.244 0 6.5 435.73 14.71
1/13/2021 10:45:00 PM -0.45 31.19 0 6.5 436.01 14.73
1/13/2021 11:00:00 PM -0.47 31.154 0 6.52 433.96 14.73
1/13/2021 11:15:00 PM -0.5 31.1 0 6.53 429.97 14.74
1/13/2021 11:30:00 PM -0.52 31.064 0 6.54 424.64 14.75
1/13/2021 11:45:00 PM -0.53 31.046 0 6.54 422.5 14.75
1/14/2021 12:00:00 AM -0.55 31.01 0 6.53 421.1 14.76
1/14/2021 12:15:00 AM -0.59 30.938 0 6.54 418.76 14.77
1/14/2021 12:30:00 AM -0.64 30.848 0 6.53 414.82 14.78
1/14/2021 12:45:00 AM -0.67 30.794 0 6.54 411.04 14.8
1/14/2021 1:00:00 AM -0.68 30.776 0 6.54 409.18 14.8
1/14/2021 1:15:00 AM -0.68 30.776 0 6.56 408.26 14.8
1/14/2021 1:30:00 AM -0.68 30.776 0 6.57 407.15 14.8
1/14/2021 1:45:00 AM -0.65 30.83 0 6.59 406.47 14.79
1/14/2021 2:00:00 AM -0.62 30.884 0 6.6 405.36 14.77
1/14/2021 2:15:00 AM -0.57 30.974 0 6.63 404.44 14.75
1/14/2021 2:30:00 AM -0.54 31.028 0 6.64 403.09 14.74
1/14/2021 2:45:00 AM -0.5 31.1 0 6.65 401.37 14.72
1/14/2021 3:00:00 AM -0.48 31.136 0 6.67 399.69 14.71
1/14/2021 3:15:00 AM -0.45 31.19 0 6.68 398.58 14.7
1/14/2021 3:30:00 AM -0.43 31.226 0 6.69 395.95 14.69
1/14/2021 3:45:00 AM -0.42 31.244 0 6.68 393.47 14.69
1/14/2021 4:00:00 AM -0.41 31.262 0 6.69 391.74 14.68
1/14/2021 4:15:00 AM -0.4 31.28 0 6.69 390.66 14.68
1/14/2021 4:30:00 AM -0.38 31.316 0 6.7 390.2 14.67
1/14/2021 4:45:00 AM -0.38 31.316 0 6.71 390.53 14.66
1/14/2021 5:00:00 AM -0.37 31.334 0 6.71 389.82 14.66
1/14/2021 5:15:00 AM -0.35 31.37 0 6.72 388.59 14.66
1/14/2021 5:30:00 AM -0.35 31.37 0 6.72 387.46 14.66
1/14/2021 5:45:00 AM -0.33 31.406 0 6.73 387.66 14.65
1/14/2021 6:00:00 AM -0.31 31.442 0 6.75 385.89 14.64
1/14/2021 6:15:00 AM -0.29 31.478 0 6.76 385.1 14.64
1/14/2021 6:30:00 AM -0.28 31.496 0 6.76 383.83 14.64
1/14/2021 6:45:00 AM -0.26 31.532 0 6.77 382.61 14.63
1/14/2021 7:00:00 AM -0.26 31.532 0 6.78 381.13 14.63
1/14/2021 7:15:00 AM -0.23 31.586 0 6.8 382.66 14.62
1/14/2021 7:30:00 AM -0.21 31.622 0 6.83 381.24 14.61
1/14/2021 7:45:00 AM -0.18 31.676 0 6.86 380.77 14.6
1/14/2021 8:00:00 AM -0.16 31.712 0 6.9 378.59 14.6
1/14/2021 8:15:00 AM -0.14 31.748 0 6.93 376.73 14.59
1/14/2021 8:30:00 AM -0.12 31.784 0 6.97 370.27 14.58
1/14/2021 8:45:00 AM -0.11 31.802 0 7 366.55 14.58
1/14/2021 9:00:00 AM -0.1 31.82 0 7.01 361.43 14.57
1/14/2021 9:15:00 AM -0.09 31.838 0 7.03 367.38 14.57
1/14/2021 9:30:00 AM -0.08 31.856 0 7 371.04 14.57
1/14/2021 9:45:00 AM -0.07 31.874 0 6.99 375.29 14.57
1/14/2021 10:00:00 AM -0.07 31.874 0 7 389.88 14.57
1/14/2021 10:15:00 AM -0.06 31.892 0 6.99 400.91 14.58
1/14/2021 10:30:00 AM -0.06 31.892 0 6.8 435.59 14.59
1/14/2021 10:45:00 AM -0.05 31.91 0 6.86 406.16 14.59
1/14/2021 11:00:00 AM -0.05 31.91 0 6.91 406.4 14.59
1/14/2021 11:15:00 AM -0.05 31.91 0 6.95 368.25 14.59
1/14/2021 11:30:00 AM -0.05 31.91 0 6.95 307.36 14.59
1/14/2021 11:45:00 AM -0.05 31.91 0 6.94 309.39 14.59
1/14/2021 12:00:00 PM -0.04 31.928 0 7.02 285.72 14.58
1/14/2021 12:15:00 PM -0.04 31.928 0 7.01 257.06 14.58
1/14/2021 12:30:00 PM -0.04 31.928 0 6.95 254.95 14.58
1/14/2021 12:45:00 PM -0.04 31.928 0 6.88 247.32 14.58
1/14/2021 1:00:00 PM -0.04 31.928 0 6.8 549.54 14.59
1/14/2021 1:15:00 PM -0.04 31.928 0 6.76 335.99 14.6
1/14/2021 1:30:00 PM -0.04 31.928 0 6.76 368.13 14.61
1/14/2021 1:45:00 PM -0.04 31.928 0 6.67 411.74 14.6
1/14/2021 2:00:00 PM -0.04 31.928 0 6.7 538.04 14.6
1/14/2021 2:15:00 PM -0.04 31.928 0 6.72 575.38 14.6
1/14/2021 2:30:00 PM -0.03 31.946 0 6.69 737.62 14.59
1/14/2021 2:45:00 PM -0.03 31.946 0 6.66 1173.33 14.59
1/14/2021 3:00:00 PM -0.03 31.946 0 6.63 1506.2 14.6
1/14/2021 3:15:00 PM -0.03 31.946 0 6.57 1447.58 14.6
1/14/2021 3:30:00 PM -0.03 31.946 0 6.52 1278.6 14.59
1/14/2021 3:45:00 PM -0.03 31.946 0 6.46 1392.99 14.59
1/14/2021 4:00:00 PM -0.03 31.946 0 6.43 1371.31 14.59
1/14/2021 4:15:00 PM -0.03 31.946 0 6.39 1224.22 14.59
1/14/2021 4:30:00 PM -0.02 31.964 0 6.38 1432.36 14.58
1/14/2021 4:45:00 PM -0.02 31.964 0 6.34 1479.11 14.58
1/14/2021 5:00:00 PM -0.02 31.964 0 6.35 1770.09 14.58
1/14/2021 5:15:00 PM -0.02 31.964 0 6.31 2354.34 14.58
1/14/2021 5:30:00 PM -0.02 31.964 0 6.33 1696.24 14.58
1/14/2021 5:45:00 PM -0.01 31.982 0 6.38 1609.61 14.58
1/14/2021 6:00:00 PM 0 32 0 6.37 1915.6 14.58
1/14/2021 6:15:00 PM 0 32 0 6.46 1969.75 14.58
1/14/2021 6:30:00 PM 0 32 0 6.45 1907.73 14.59
1/14/2021 6:45:00 PM 0 32 0 5.99 1215.18 14.59
1/14/2021 7:00:00 PM 0 32 0 6.05 1687.2 14.59
1/14/2021 7:15:00 PM 0 32 0 6.09 1811.01 14.58
1/14/2021 7:30:00 PM 0 32 0 5.97 1289.48 14.59
1/14/2021 7:45:00 PM 0 32 0 6.19 1851.99 14.58
1/14/2021 8:00:00 PM 0 32 0 6.21 2009.94 14.59
1/14/2021 8:15:00 PM 0 32 0 6.21 2057.2 14.58
1/14/2021 8:30:00 PM 0 32 0 6.11 1254.65 14.58
1/14/2021 8:45:00 PM 0 32 0 6.14 1867.85 14.58
1/14/2021 9:00:00 PM 0.01 32.018 0 6.11 2059.41 14.58
1/14/2021 9:15:00 PM 0.01 32.018 0 6.06 2067.19 14.59
1/14/2021 9:30:00 PM 0.01 32.018 0 6.02 1179.64 14.58
1/14/2021 9:45:00 PM 0.01 32.018 0 5.5 1802.05 14.58
1/14/2021 10:00:00 PM 0.01 32.018 0 5.93 2059.49 14.58
1/14/2021 10:15:00 PM 0.01 32.018 0 5.68 2182.86 14.58
1/14/2021 10:30:00 PM 0.01 32.018 0 5.58 2359.68 14.58
1/14/2021 10:45:00 PM 0.01 32.018 0 5.58 2476.24 14.58
1/14/2021 11:00:00 PM 0.02 32.036 0 5.52 1734.31 14.57
1/14/2021 11:15:00 PM 0.02 32.036 0 4.61 2343.12 14.57
1/14/2021 11:30:00 PM 0.02 32.036 0 4.53 2180.63 14.57
1/14/2021 11:45:00 PM 0.02 32.036 0 4.54 2207.9 14.57
1/15/2021 12:00:00 AM 0.03 32.054 0 4.53 2650.78 14.56
1/15/2021 12:15:00 AM 0.03 32.054 0 4.53 1913.62 14.56
1/15/2021 12:30:00 AM 0.03 32.054 0 4.52 2747.86 14.55
1/15/2021 12:45:00 AM 0.04 32.072 0 4.52 3326.79 14.55
1/15/2021 1:00:00 AM 0.04 32.072 0 4.51 2852.64 14.55
1/15/2021 1:15:00 AM 0.04 32.072 0 4.51 3435.2 14.55
1/15/2021 1:30:00 AM 0.04 32.072 0 4.52 2193.85 14.54
1/15/2021 1:45:00 AM 0.04 32.072 0 4.52 3126.94 14.55
1/15/2021 2:00:00 AM 0.04 32.072 0 4.52 3584.47 14.55
1/15/2021 2:15:00 AM 0.05 32.09 0 4.52 3794.14 14.55
1/15/2021 2:30:00 AM 0.05 32.09 0 4.52 4178.63 14.55
1/15/2021 2:45:00 AM 0.05 32.09 0 4.53 4344.71 14.55
1/15/2021 3:00:00 AM 0.05 32.09 0 4.53 4429.71 14.54
1/15/2021 3:15:00 AM 0.04 32.072 0 4.53 4204.12 14.53
1/15/2021 3:30:00 AM 0.03 32.054 0 4.53 3671.59 14.52
1/15/2021 3:45:00 AM 0.01 32.018 0 4.55 4030.82 14.52
1/15/2021 4:00:00 AM 0 32 0 4.56 3458.81 14.51
1/15/2021 4:15:00 AM -0.02 31.964 0 4.57 3374.65 14.5
1/15/2021 4:30:00 AM -0.03 31.946 0 4.58 3313.2 14.51
1/15/2021 4:45:00 AM -0.04 31.928 0 4.59 3401.13 14.51
1/15/2021 5:00:00 AM -0.05 31.91 0 4.59 3473.05 14.51
1/15/2021 5:15:00 AM -0.05 31.91 0 4.59 3435.35 14.51
1/15/2021 5:30:00 AM -0.06 31.892 0 4.58 3352.73 14.51
1/15/2021 5:45:00 AM -0.08 31.856 0 4.59 3207.68 14.5
1/15/2021 6:00:00 AM -0.08 31.856 0 4.59 2857.26 14.5
1/15/2021 6:15:00 AM -0.08 31.856 0 4.57 2492.54 14.5
1/15/2021 6:30:00 AM -0.08 31.856 0 4.58 2694.41 14.5
1/15/2021 6:45:00 AM -0.09 31.838 0 4.59 2763.27 14.5
1/15/2021 7:00:00 AM -0.13 31.766 0 4.56 2899.37 14.51
1/15/2021 7:15:00 AM -0.17 31.694 0 4.62 2927.32 14.53
1/15/2021 7:30:00 AM -0.19 31.658 0 4.62 2921.55 14.55
1/15/2021 7:45:00 AM -0.22 31.604 0 4.64 2929.1 14.56
1/15/2021 8:00:00 AM -0.23 31.586 0 4.65 2928.81 14.58
1/15/2021 8:15:00 AM -0.22 31.604 0 4.66 2930.14 14.59
1/15/2021 8:30:00 AM -0.19 31.658 0 4.66 2917.62 14.59
1/15/2021 8:45:00 AM -0.15 31.73 0 4.68 2868.02 14.58
1/15/2021 9:00:00 AM -0.13 31.766 0 4.68 2843.92 14.57
1/15/2021 9:15:00 AM -0.09 31.838 0 4.68 2935.59 14.55
1/15/2021 9:30:00 AM -0.07 31.874 0 4.69 3278.98 14.54
1/15/2021 9:45:00 AM -0.06 31.892 0 4.7 4252.97 14.55
1/15/2021 10:00:00 AM -0.05 31.91 0 4.68 5137.85 14.56
1/15/2021 10:15:00 AM -0.03 31.946 0 4.68 5548.01 14.55
1/15/2021 10:30:00 AM -0.02 31.964 0 4.64 5725.66 14.55
1/15/2021 10:45:00 AM 0.03 32.054 0 4.59 5630.51 14.53
1/15/2021 11:00:00 AM 0.12 32.216 0 4.45 4116.4 14.5
1/15/2021 11:15:00 AM 0.12 32.216 0 4.41 3616.68 14.52
1/15/2021 11:30:00 AM 0.15 32.27 0 4.3 1897.21 14.54
1/15/2021 11:45:00 AM 0.16 32.288 0 4.23 1775.66 14.55
1/15/2021 12:00:00 PM 0.27 32.486 0 3.94 922.07 14.48
1/15/2021 12:15:00 PM 0.44 32.792 0 3.94 487.17 14.38
1/15/2021 12:30:00 PM 0.46 32.828 0 4.01 143.21 14.38
1/15/2021 12:45:00 PM 0.83 33.494 0 4.01 5.76 14.17
1/15/2021 1:00:00 PM 1.02 33.836 0 3.89 5.73 14.08
1/15/2021 1:15:00 PM 1 33.8 0 3.81 5.77 14.12
1/15/2021 1:30:00 PM 1.04 33.872 0 3.79 5.78 14.1
1/15/2021 1:45:00 PM 0.98 33.764 0 3.85 5.76 14.13
1/15/2021 2:00:00 PM 1.06 33.908 0 3.7 5.8 14.07
1/15/2021 2:15:00 PM 1.16 34.088 0 3.48 5.79 14.02
1/15/2021 2:30:00 PM 1.2 34.16 0 3.4 5.8 13.99
1/15/2021 2:45:00 PM 1.37 34.466 0 3.4 5.81 13.92
1/15/2021 3:00:00 PM 1.42 34.556 0 3.26 5.8 13.93
1/15/2021 3:15:00 PM 1.38 34.484 0 3.24 5.84 13.94
1/15/2021 3:30:00 PM 1.42 34.556 0 3.26 5.81 13.92
1/15/2021 3:45:00 PM 1.37 34.466 0 3.3 5.82 13.95
1/15/2021 4:00:00 PM 1.42 34.556 0 3.19 5.85 13.92
1/15/2021 4:15:00 PM 1.37 34.466 0 3.22 5.82 13.94
1/15/2021 4:30:00 PM 1.41 34.538 0 3.22 5.85 13.94
1/15/2021 4:45:00 PM 1.48 34.664 0 3.16 5.84 13.88
1/15/2021 5:00:00 PM 1.54 34.772 0 3.18 5.81 13.86
1/15/2021 5:15:00 PM 1.54 34.772 0 3.11 5.79 13.86
1/15/2021 5:30:00 PM 1.51 34.718 0 3.18 5.81 13.88
1/15/2021 5:45:00 PM 1.53 34.754 0 3.15 5.78 13.87
1/15/2021 6:00:00 PM 1.55 34.79 0 3.14 5.77 13.86
1/15/2021 6:15:00 PM 1.6 34.88 0 3.18 5.9 13.86
1/15/2021 6:30:00 PM 1.78 35.204 0 3.05 5.85 13.77
1/15/2021 6:45:00 PM 1.78 35.204 0 3.11 5.82 13.77
1/15/2021 7:00:00 PM 1.96 35.528 0 3.01 5.84 13.73
1/15/2021 7:15:00 PM 2.08 35.744 0 2.94 5.78 13.66
1/15/2021 7:30:00 PM 2.09 35.762 0 2.96 5.73 13.66
1/15/2021 7:45:00 PM 2.06 35.708 0 2.91 5.73 13.69
1/15/2021 8:00:00 PM 2.1 35.78 0 3.01 5.74 13.66
1/15/2021 8:15:00 PM 2.14 35.852 0 2.95 5.77 13.65
1/15/2021 8:30:00 PM 2.3 36.14 0 3.02 5.72 13.6
1/15/2021 8:45:00 PM 2.43 36.374 0 3.02 5.71 13.54
1/15/2021 9:00:00 PM 2.42 36.356 0 3.08 5.69 13.54
1/15/2021 9:15:00 PM 2.47 36.446 0 3.19 5.68 13.5
1/15/2021 9:30:00 PM 2.52 36.536 0 3.3 5.68 13.49
1/15/2021 9:45:00 PM 2.52 36.536 0 3.28 5.69 13.49
1/15/2021 10:00:00 PM 2.52 36.536 0 3.34 5.69 13.5
1/15/2021 10:15:00 PM 2.54 36.572 0 3.41 5.68 13.46
1/15/2021 10:30:00 PM 2.52 36.536 0 3.44 5.69 13.5
1/15/2021 10:45:00 PM 2.5 36.5 0 3.42 5.73 13.5
1/15/2021 11:00:00 PM 2.49 36.482 0 3.49 5.72 13.49
1/15/2021 11:15:00 PM 2.48 36.464 0 3.42 5.69 13.49
1/15/2021 11:30:00 PM 2.45 36.41 0 3.51 5.76 13.5
1/15/2021 11:45:00 PM 2.41 36.338 0 3.57 5.62 13.51
1/16/2021 12:00:00 AM 2.31 36.158 0 3.61 5.67 13.55
1/16/2021 12:15:00 AM 2.21 35.978 0 3.62 5.65 13.59
1/16/2021 12:30:00 AM 2.24 36.032 0 3.71 5.63 13.56
1/16/2021 12:45:00 AM 2.26 36.068 0 3.67 5.63 13.56
1/16/2021 1:00:00 AM 2.28 36.104 0 3.78 5.63 13.55
1/16/2021 1:15:00 AM 2.28 36.104 0 3.67 5.63 13.54
1/16/2021 1:30:00 AM 2.27 36.086 0 3.76 5.63 13.55
1/16/2021 1:45:00 AM 2.28 36.104 0 3.8 6.49 13.53
1/16/2021 2:00:00 AM 2.28 36.104 0 3.78 5.97 13.54
1/16/2021 2:15:00 AM 2.19 35.942 0 3.9 5.67 13.56
1/16/2021 2:30:00 AM 2.07 35.726 0 6.25 3.31 13.63
1/16/2021 2:45:00 AM 1.87 35.366 0.049 7.17 1038.15 13.73
1/16/2021 3:00:00 AM 1.84 35.312 0.136 7.16 7.47 13.71
1/16/2021 3:15:00 AM 1.83 35.294 0.142 7.16 8.52 13.66
1/16/2021 3:30:00 AM 1.82 35.276 0.142 7.19 9.38 13.6
1/16/2021 3:45:00 AM 1.8 35.24 0.143 7.2 10.45 13.6
1/16/2021 4:00:00 AM 1.78 35.204 0.144 7.22 12.26 13.6
1/16/2021 4:15:00 AM 1.74 35.132 0.144 7.24 13.27 13.62
1/16/2021 4:30:00 AM 1.69 35.042 0.144 7.25 14.19 13.63
1/16/2021 4:45:00 AM 1.62 34.916 0.144 7.26 15.18 13.66
1/16/2021 5:00:00 AM 1.59 34.862 0.144 7.26 16.08 13.67
1/16/2021 5:15:00 AM 1.56 34.808 0.143 7.26 14.78 13.68
1/16/2021 5:30:00 AM 1.56 34.808 0.143 7.26 19.78 13.68
1/16/2021 5:45:00 AM 1.56 34.808 0.142 7.26 17.5 13.69
1/16/2021 6:00:00 AM 1.56 34.808 0.142 7.26 18.99 13.7
1/16/2021 6:15:00 AM 1.55 34.79 0.142 7.26 18.77 13.71
1/16/2021 6:30:00 AM 1.53 34.754 0.143 7.26 16.82 13.71
1/16/2021 6:45:00 AM 1.51 34.718 0.144 7.26 17.95 13.71
1/16/2021 7:00:00 AM 1.5 34.7 0.145 7.26 19.95 13.72
1/16/2021 7:15:00 AM 1.49 34.682 0.145 7.26 20.11 13.72
1/16/2021 7:30:00 AM 1.47 34.646 0.145 7.26 16.89 13.73
1/16/2021 7:45:00 AM 1.45 34.61 0.145 7.26 25.46 13.73
1/16/2021 8:00:00 AM 1.44 34.592 0.145 7.25 27.09 13.74
1/16/2021 8:15:00 AM 1.44 34.592 0.144 7.25 28.29 13.74
1/16/2021 8:30:00 AM 1.45 34.61 0.143 7.25 19.82 13.75
1/16/2021 8:45:00 AM 1.46 34.628 0.143 7.26 18.99 13.75
1/16/2021 9:00:00 AM 1.46 34.628 0.142 7.25 19.19 13.75
1/16/2021 9:15:00 AM 1.46 34.628 0.142 7.26 19.97 13.76
1/16/2021 9:30:00 AM 1.47 34.646 0.142 7.26 16.56 13.76
1/16/2021 9:45:00 AM 1.49 34.682 0.142 7.26 17.25 13.76
1/16/2021 10:00:00 AM 1.52 34.736 0.142 7.27 12.44 13.76
1/16/2021 10:15:00 AM 1.54 34.772 0.142 7.27 16.14 13.76
1/16/2021 10:30:00 AM 1.55 34.79 0.144 7.27 15.57 13.75
1/16/2021 10:45:00 AM 1.56 34.808 0.145 7.27 14.53 13.75
1/16/2021 11:00:00 AM 1.57 34.826 0.145 7.28 13.48 13.75
1/16/2021 11:15:00 AM 1.58 34.844 0.146 7.28 14.12 13.74
1/16/2021 11:30:00 AM 1.62 34.916 0.146 7.28 13.77 13.73
1/16/2021 11:45:00 AM 1.65 34.97 0.146 7.29 14.24 13.73
1/16/2021 12:00:00 PM 1.68 35.024 0.146 7.29 14.41 13.72
1/16/2021 12:15:00 PM 1.7 35.06 0.147 7.29 15.03 13.71
1/16/2021 12:30:00 PM 1.72 35.096 0.147 7.29 13.75 13.71
1/16/2021 12:45:00 PM 1.73 35.114 0.147 7.29 14.34 13.7
1/16/2021 1:00:00 PM 1.74 35.132 0.147 7.29 17.09 13.7
1/16/2021 1:15:00 PM 1.78 35.204 0.147 7.29 17.1 13.69
1/16/2021 1:30:00 PM 1.82 35.276 0.147 7.29 17.81 13.67
1/16/2021 1:45:00 PM 1.84 35.312 0.147 7.29 20.57 13.66
1/16/2021 2:00:00 PM 1.85 35.33 0.147 7.29 15.28 13.65
1/16/2021 2:15:00 PM 1.86 35.348 0.147 7.29 19.5 13.65
1/16/2021 2:30:00 PM 1.88 35.384 0.147 7.29 18.62 13.64
1/16/2021 2:45:00 PM 1.9 35.42 0.147 7.29 15.48 13.64
1/16/2021 3:00:00 PM 1.91 35.438 0.146 7.29 13.35 13.63
1/16/2021 3:15:00 PM 1.91 35.438 0.145 7.29 18.87 13.62
1/16/2021 3:30:00 PM 1.92 35.456 0.145 7.28 17.04 13.62
1/16/2021 3:45:00 PM 1.93 35.474 0.144 7.29 17.13 13.61
1/16/2021 4:00:00 PM 1.95 35.51 0.143 7.29 16.43 13.61
1/16/2021 4:15:00 PM 1.96 35.528 0.143 7.29 13.11 13.61
1/16/2021 4:30:00 PM 1.95 35.51 0.142 7.29 14.6 13.6
1/16/2021 4:45:00 PM 1.93 35.474 0.142 7.29 15.14 13.6
1/16/2021 5:00:00 PM 1.92 35.456 0.141 7.28 15.34 13.6
1/16/2021 5:15:00 PM 1.9 35.42 0.141 7.29 15.27 13.59
1/16/2021 5:30:00 PM 1.89 35.402 0.14 7.29 14.36 13.59
1/16/2021 5:45:00 PM 1.89 35.402 0.14 7.28 14.39 13.59
1/16/2021 6:00:00 PM 1.89 35.402 0.14 7.28 13.62 13.58
1/16/2021 6:15:00 PM 1.87 35.366 0.14 7.28 14.64 13.58
1/16/2021 6:30:00 PM 1.86 35.348 0.14 7.28 13.8 13.58
1/16/2021 6:45:00 PM 1.84 35.312 0.14 7.28 14.09 13.58
1/16/2021 7:00:00 PM 1.82 35.276 0.14 7.27 14.39 13.59
1/16/2021 7:15:00 PM 1.8 35.24 0.14 7.27 13.47 13.59
1/16/2021 7:30:00 PM 1.78 35.204 0.14 7.27 13.99 13.6
1/16/2021 7:45:00 PM 1.76 35.168 0.141 7.27 14.13 13.61
1/16/2021 8:00:00 PM 1.74 35.132 0.142 7.27 14.53 13.61
1/16/2021 8:15:00 PM 1.71 35.078 0.142 7.27 13.68 13.62
1/16/2021 8:30:00 PM 1.68 35.024 0.143 7.27 13.87 13.63
1/16/2021 8:45:00 PM 1.66 34.988 0.143 7.27 13.68 13.64
1/16/2021 9:00:00 PM 1.63 34.934 0.144 7.27 13.96 13.65
1/16/2021 9:15:00 PM 1.59 34.862 0.144 7.27 13.44 13.66
1/16/2021 9:30:00 PM 1.56 34.808 0.144 7.27 13.59 13.67
1/16/2021 9:45:00 PM 1.53 34.754 0.144 7.27 13.58 13.68
1/16/2021 10:00:00 PM 1.49 34.682 0.144 7.26 13.11 13.69
1/16/2021 10:15:00 PM 1.46 34.628 0.144 7.26 13.06 13.7
1/16/2021 10:30:00 PM 1.42 34.556 0.143 7.26 12.77 13.71
1/16/2021 10:45:00 PM 1.38 34.484 0.143 7.26 12.63 13.72
1/16/2021 11:00:00 PM 1.35 34.43 0.143 7.26 12.78 13.73
1/16/2021 11:15:00 PM 1.31 34.358 0.143 7.26 12.23 13.74
1/16/2021 11:30:00 PM 1.28 34.304 0.143 7.26 12.28 13.75
1/16/2021 11:45:00 PM 1.25 34.25 0.143 7.26 12.35 13.76
1/17/2021 12:00:00 AM 1.22 34.196 0.143 7.26 11.76 13.77
1/17/2021 12:15:00 AM 1.19 34.142 0.143 7.26 11.94 13.78
1/17/2021 12:30:00 AM 1.16 34.088 0.143 7.26 11.88 13.79
1/17/2021 12:45:00 AM 1.13 34.034 0.143 7.26 11.17 13.81
1/17/2021 1:00:00 AM 1.11 33.998 0.144 7.25 11.32 13.81
1/17/2021 1:15:00 AM 1.1 33.98 0.144 7.26 11.14 13.83
1/17/2021 1:30:00 AM 1.09 33.962 0.145 7.26 11.19 13.84
1/17/2021 1:45:00 AM 1.09 33.962 0.145 7.25 10.75 13.84
1/17/2021 2:00:00 AM 1.08 33.944 0.146 7.26 11.28 13.85
1/17/2021 2:15:00 AM 1.07 33.926 0.147 7.26 11.53 13.85
1/17/2021 2:30:00 AM 1.06 33.908 0.147 7.26 11.72 13.85
1/17/2021 2:45:00 AM 1.06 33.908 0.148 7.26 11.84 13.86
1/17/2021 3:00:00 AM 1.05 33.89 0.148 7.26 11.63 13.87
1/17/2021 3:15:00 AM 1.05 33.89 0.149 7.26 12.1 13.87
1/17/2021 3:30:00 AM 1.04 33.872 0.149 7.25 12.07 13.88
1/17/2021 3:45:00 AM 1.03 33.854 0.149 7.26 12.46 13.88
1/17/2021 4:00:00 AM 1.03 33.854 0.149 7.26 11.54 13.89
1/17/2021 4:15:00 AM 1.02 33.836 0.15 7.25 11.66 13.89
1/17/2021 4:30:00 AM 1 33.8 0.15 7.26 11.35 13.9
1/17/2021 4:45:00 AM 0.97 33.746 0.15 7.26 11.35 13.91
1/17/2021 5:00:00 AM 0.95 33.71 0.149 7.26 10.89 13.91
1/17/2021 5:15:00 AM 0.92 33.656 0.149 7.26 10.62 13.92
1/17/2021 5:30:00 AM 0.9 33.62 0.149 7.26 10.36 13.92
1/17/2021 5:45:00 AM 0.9 33.62 0.148 7.26 10.2 13.93
1/17/2021 6:00:00 AM 0.91 33.638 0.148 7.26 9.92 13.93
1/17/2021 6:15:00 AM 0.91 33.638 0.148 7.26 10.09 13.94
1/17/2021 6:30:00 AM 0.91 33.638 0.147 7.26 9.81 13.94
1/17/2021 6:45:00 AM 0.9 33.62 0.147 7.26 9.58 13.95
1/17/2021 7:00:00 AM 0.9 33.62 0.146 7.26 9.31 13.95
1/17/2021 7:15:00 AM 0.91 33.638 0.146 7.26 9.53 13.95
1/17/2021 7:30:00 AM 0.91 33.638 0.146 7.26 9.3 13.96
1/17/2021 7:45:00 AM 0.92 33.656 0.145 7.26 8.79 13.95
1/17/2021 8:00:00 AM 0.92 33.656 0.145 7.26 9.18 13.95
1/17/2021 8:15:00 AM 0.94 33.692 0.145 7.26 8.97 13.95
1/17/2021 8:30:00 AM 0.95 33.71 0.144 7.26 9.11 13.96
1/17/2021 8:45:00 AM 0.97 33.746 0.144 7.27 8.6 13.96
1/17/2021 9:00:00 AM 0.99 33.782 0.144 7.26 8.8 13.97
1/17/2021 9:15:00 AM 1 33.8 0.143 7.27 8.87 13.97
1/17/2021 9:30:00 AM 1.02 33.836 0.143 7.26 8.86 13.97
1/17/2021 9:45:00 AM 1.03 33.854 0.143 7.27 8.65 13.97
1/17/2021 10:00:00 AM 1.05 33.89 0.143 7.27 8.64 13.97
1/17/2021 10:15:00 AM 1.06 33.908 0.143 7.27 8.79 13.97
1/17/2021 10:30:00 AM 1.08 33.944 0.142 7.27 8.68 13.97
1/17/2021 10:45:00 AM 1.09 33.962 0.142 7.27 8.84 13.98
1/17/2021 11:00:00 AM 1.1 33.98 0.142 7.27 9.43 13.97
1/17/2021 11:15:00 AM 1.13 34.034 0.142 7.27 8.87 13.97
1/17/2021 11:30:00 AM 1.16 34.088 0.142 7.28 8.9 13.96
1/17/2021 11:45:00 AM 1.21 34.178 0.142 7.28 8.52 13.95
1/17/2021 12:00:00 PM 1.25 34.25 0.141 7.28 8.94 13.94
1/17/2021 12:15:00 PM 1.28 34.304 0.141 7.28 8.88 13.94
1/17/2021 12:30:00 PM 1.3 34.34 0.141 7.28 8.51 13.93
1/17/2021 12:45:00 PM 1.33 34.394 0.141 7.28 8.55 13.92
1/17/2021 1:00:00 PM 1.36 34.448 0.141 7.29 8.46 13.92
1/17/2021 1:15:00 PM 1.39 34.502 0.141 7.29 8.56 13.91
1/17/2021 1:30:00 PM 1.42 34.556 0.141 7.28 8.74 13.89
1/17/2021 1:45:00 PM 1.46 34.628 0.141 7.29 8.69 13.88
1/17/2021 2:00:00 PM 1.5 34.7 0.141 7.29 8.37 13.88
1/17/2021 2:15:00 PM 1.53 34.754 0.14 7.29 8.51 13.87
1/17/2021 2:30:00 PM 1.56 34.808 0.14 7.29 8.49 13.86
1/17/2021 2:45:00 PM 1.58 34.844 0.14 7.29 8.32 13.85
1/17/2021 3:00:00 PM 1.6 34.88 0.14 7.29 8.36 13.84
1/17/2021 3:15:00 PM 1.62 34.916 0.14 7.29 8.29 13.83
1/17/2021 3:30:00 PM 1.64 34.952 0.14 7.29 8.21 13.82
1/17/2021 3:45:00 PM 1.65 34.97 0.14 7.29 8.38 13.81
1/17/2021 4:00:00 PM 1.66 34.988 0.14 7.29 8.32 13.8
1/17/2021 4:15:00 PM 1.66 34.988 0.14 7.29 8.44 13.79
1/17/2021 4:30:00 PM 1.66 34.988 0.14 7.28 8.61 13.78
1/17/2021 4:45:00 PM 1.66 34.988 0.14 7.28 8.11 13.78
1/17/2021 5:00:00 PM 1.66 34.988 0.14 7.28 8.37 13.77
1/17/2021 5:15:00 PM 1.66 34.988 0.14 7.28 8.5 13.76
1/17/2021 5:30:00 PM 1.66 34.988 0.14 7.28 8.19 13.76
1/17/2021 5:45:00 PM 1.65 34.97 0.14 7.28 8.17 13.77
1/17/2021 6:00:00 PM 1.65 34.97 0.14 7.28 8.28 13.76
1/17/2021 6:15:00 PM 1.65 34.97 0.14 7.27 8.22 13.76
1/17/2021 6:30:00 PM 1.65 34.97 0.14 7.27 8.39 13.75
1/17/2021 6:45:00 PM 1.65 34.97 0.14 7.27 8.3 13.75
1/17/2021 7:00:00 PM 1.65 34.97 0.14 7.27 8.1 13.75
1/17/2021 7:15:00 PM 1.65 34.97 0.14 7.27 8.1 13.75
1/17/2021 7:30:00 PM 1.65 34.97 0.14 7.27 7.74 13.74
1/17/2021 7:45:00 PM 1.65 34.97 0.14 7.27 8.15 13.74
1/17/2021 8:00:00 PM 1.65 34.97 0.14 7.27 7.79 13.75
1/17/2021 8:15:00 PM 1.65 34.97 0.14 7.27 8.05 13.74
1/17/2021 8:30:00 PM 1.65 34.97 0.14 7.27 8.03 13.74
1/17/2021 8:45:00 PM 1.65 34.97 0.14 7.26 7.68 13.74
1/17/2021 9:00:00 PM 1.65 34.97 0.14 7.26 7.99 13.74
1/17/2021 9:15:00 PM 1.64 34.952 0.14 7.27 8.06 13.74
1/17/2021 9:30:00 PM 1.64 34.952 0.14 7.27 7.86 13.74
1/17/2021 9:45:00 PM 1.64 34.952 0.14 7.26 7.88 13.74
1/17/2021 10:00:00 PM 1.64 34.952 0.14 7.26 7.87 13.74
1/17/2021 10:15:00 PM 1.64 34.952 0.14 7.26 7.91 13.74
1/17/2021 10:30:00 PM 1.63 34.934 0.14 7.27 7.84 13.74
1/17/2021 10:45:00 PM 1.62 34.916 0.14 7.26 7.53 13.75
1/17/2021 11:00:00 PM 1.62 34.916 0.14 7.27 7.75 13.74
1/17/2021 11:15:00 PM 1.61 34.898 0.14 7.26 7.83 13.75
1/17/2021 11:30:00 PM 1.61 34.898 0.14 7.26 7.83 13.74
1/17/2021 11:45:00 PM 1.61 34.898 0.14 7.26 7.96 13.74
1/18/2021 12:00:00 AM 1.6 34.88 0.14 7.26 7.72 13.74
1/18/2021 12:15:00 AM 1.59 34.862 0.14 7.26 7.78 13.75
1/18/2021 12:30:00 AM 1.58 34.844 0.14 7.26 7.37 13.75
1/18/2021 12:45:00 AM 1.57 34.826 0.14 7.26 7.53 13.75
1/18/2021 1:00:00 AM 1.54 34.772 0.141 7.26 7.69 13.75
1/18/2021 1:15:00 AM 1.51 34.718 0.141 7.26 7.41 13.76
1/18/2021 1:30:00 AM 1.48 34.664 0.141 7.26 7.39 13.77
1/18/2021 1:45:00 AM 1.47 34.646 0.141 7.26 7.24 13.77
1/18/2021 2:00:00 AM 1.45 34.61 0.141 7.26 7.56 13.78
1/18/2021 2:15:00 AM 1.44 34.592 0.141 7.26 7.47 13.78
1/18/2021 2:30:00 AM 1.43 34.574 0.141 7.26 7.24 13.79
1/18/2021 2:45:00 AM 1.41 34.538 0.141 7.26 7.5 13.79
1/18/2021 3:00:00 AM 1.38 34.484 0.141 7.26 7.11 13.8
1/18/2021 3:15:00 AM 1.36 34.448 0.141 7.25 7.33 13.8
1/18/2021 3:30:00 AM 1.34 34.412 0.141 7.25 7.14 13.81
1/18/2021 3:45:00 AM 1.33 34.394 0.141 7.25 7.43 13.82
1/18/2021 4:00:00 AM 1.32 34.376 0.141 7.25 7.58 13.83
1/18/2021 4:15:00 AM 1.31 34.358 0.141 7.25 7.3 13.83
1/18/2021 4:30:00 AM 1.3 34.34 0.141 7.25 7.57 13.83
1/18/2021 4:45:00 AM 1.29 34.322 0.141 7.25 7.46 13.83
1/18/2021 5:00:00 AM 1.28 34.304 0.141 7.25 7.29 13.84
1/18/2021 5:15:00 AM 1.26 34.268 0.141 7.25 7.42 13.84
1/18/2021 5:30:00 AM 1.24 34.232 0.141 7.26 7.21 13.85
1/18/2021 5:45:00 AM 1.22 34.196 0.141 7.25 7.05 13.85
1/18/2021 6:00:00 AM 1.21 34.178 0.141 7.25 7.19 13.86
1/18/2021 6:15:00 AM 1.18 34.124 0.141 7.25 7.09 13.87
1/18/2021 6:30:00 AM 1.17 34.106 0.141 7.25 6.95 13.88
1/18/2021 6:45:00 AM 1.16 34.088 0.141 7.25 7.24 13.88
1/18/2021 7:00:00 AM 1.15 34.07 0.141 7.25 6.81 13.89
1/18/2021 7:15:00 AM 1.13 34.034 0.14 7.25 6.87 13.89
1/18/2021 7:30:00 AM 1.12 34.016 0.14 7.25 6.7 13.9
1/18/2021 7:45:00 AM 1.11 33.998 0.14 7.25 6.79 13.9
1/18/2021 8:00:00 AM 1.1 33.98 0.14 7.25 6.72 13.91
1/18/2021 8:15:00 AM 1.1 33.98 0.14 7.25 6.76 13.92
1/18/2021 8:30:00 AM 1.1 33.98 0.14 7.25 6.67 13.93
1/18/2021 8:45:00 AM 1.12 34.016 0.14 7.26 6.86 13.95
1/18/2021 9:00:00 AM 1.14 34.052 0.14 7.26 6.84 13.96
1/18/2021 9:15:00 AM 1.18 34.124 0.14 7.26 6.59 13.96
1/18/2021 9:30:00 AM 1.23 34.214 0.14 7.26 6.45 13.95
1/18/2021 9:45:00 AM 1.27 34.286 0.14 7.27 6.6 13.95
1/18/2021 10:00:00 AM 1.3 34.34 0.14 7.27 6.45 13.95
1/18/2021 10:15:00 AM 1.33 34.394 0.14 7.27 6.55 13.94
1/18/2021 10:30:00 AM 1.37 34.466 0.14 7.28 6.52 13.94
1/18/2021 10:45:00 AM 1.4 34.52 0.14 7.28 6.5 13.94
1/18/2021 11:00:00 AM 1.44 34.592 0.14 7.28 6.55 13.93
1/18/2021 11:15:00 AM 1.48 34.664 0.139 7.28 6.45 13.91
1/18/2021 11:30:00 AM 1.54 34.772 0.139 7.28 6.35 13.89
1/18/2021 11:45:00 AM 1.6 34.88 0.139 7.29 6.34 13.87
1/18/2021 12:00:00 PM 1.63 34.934 0.139 7.29 6.28 13.86
1/18/2021 12:15:00 PM 1.69 35.042 0.139 7.29 6.24 13.84
1/18/2021 12:30:00 PM 1.77 35.186 0.139 7.29 6.42 13.83
1/18/2021 12:45:00 PM 1.88 35.384 0.139 7.29 6.14 13.79
1/18/2021 1:00:00 PM 2.02 35.636 0.139 7.3 6.21 13.75
1/18/2021 1:15:00 PM 2.06 35.708 0.139 7.3 6.15 13.72
1/18/2021 1:30:00 PM 2.06 35.708 0.139 7.3 6.03 13.71
1/18/2021 1:45:00 PM 2.06 35.708 0.139 7.3 6.08 13.71
1/18/2021 2:00:00 PM 2.04 35.672 0.139 7.3 6.24 13.7
1/18/2021 2:15:00 PM 1.97 35.546 0.139 7.3 6.02 13.71
1/18/2021 2:30:00 PM 1.98 35.564 0.139 7.3 6.15 13.71
1/18/2021 2:45:00 PM 1.98 35.564 0.139 7.3 6 13.7
1/18/2021 3:00:00 PM 1.99 35.582 0.139 7.3 6.17 13.7
1/18/2021 3:15:00 PM 2 35.6 0.139 7.3 6.11 13.7
1/18/2021 3:30:00 PM 2 35.6 0.139 7.3 5.99 13.7
1/18/2021 3:45:00 PM 2 35.6 0.139 7.3 5.93 13.7
1/18/2021 4:00:00 PM 1.99 35.582 0.139 7.3 6.16 13.7
1/18/2021 4:15:00 PM 1.98 35.564 0.139 7.3 6.1 13.7
1/18/2021 4:30:00 PM 1.97 35.546 0.139 7.3 5.93 13.7
1/18/2021 4:45:00 PM 1.97 35.546 0.139 7.3 5.94 13.7
1/18/2021 5:00:00 PM 1.96 35.528 0.139 7.3 6.02 13.69
1/18/2021 5:15:00 PM 1.92 35.456 0.139 7.29 5.96 13.69
1/18/2021 5:30:00 PM 1.9 35.42 0.138 7.29 6.08 13.69
1/18/2021 5:45:00 PM 1.86 35.348 0.138 7.29 6.01 13.71
1/18/2021 6:00:00 PM 1.84 35.312 0.138 7.28 5.95 13.71
1/18/2021 6:15:00 PM 1.82 35.276 0.138 7.28 6.08 13.72
1/18/2021 6:30:00 PM 1.81 35.258 0.138 7.28 5.95 13.72
1/18/2021 6:45:00 PM 1.77 35.186 0.138 7.28 5.95 13.73
1/18/2021 7:00:00 PM 1.76 35.168 0.138 7.27 5.88 13.73
1/18/2021 7:15:00 PM 1.73 35.114 0.138 7.28 5.92 13.75
1/18/2021 7:30:00 PM 1.72 35.096 0.138 7.28 5.99 13.75
1/18/2021 7:45:00 PM 1.72 35.096 0.138 7.27 5.82 13.76
1/18/2021 8:00:00 PM 1.73 35.114 0.138 7.27 6.07 13.75
1/18/2021 8:15:00 PM 1.75 35.15 0.138 7.27 5.93 13.75
1/18/2021 8:30:00 PM 1.75 35.15 0.138 7.27 5.85 13.75
1/18/2021 8:45:00 PM 1.75 35.15 0.138 7.27 5.99 13.75
1/18/2021 9:00:00 PM 1.74 35.132 0.138 7.27 6.1 13.76
1/18/2021 9:15:00 PM 1.73 35.114 0.138 7.27 5.87 13.76
1/18/2021 9:30:00 PM 1.71 35.078 0.138 7.27 5.91 13.77
1/18/2021 9:45:00 PM 1.69 35.042 0.138 7.27 5.88 13.78
1/18/2021 10:00:00 PM 1.67 35.006 0.138 7.27 5.71 13.79
1/18/2021 10:15:00 PM 1.67 35.006 0.138 7.27 5.8 13.79
1/18/2021 10:30:00 PM 1.66 34.988 0.138 7.27 5.79 13.8
1/18/2021 10:45:00 PM 1.65 34.97 0.138 7.27 5.79 13.8
1/18/2021 11:00:00 PM 1.64 34.952 0.138 7.27 5.78 13.8
1/18/2021 11:15:00 PM 1.63 34.934 0.138 7.27 5.72 13.81
1/18/2021 11:30:00 PM 1.63 34.934 0.138 7.26 5.68 13.82
1/18/2021 11:45:00 PM 1.62 34.916 0.138 7.27 5.69 13.83
1/19/2021 12:00:00 AM 1.61 34.898 0.138 7.27 5.66 13.84
1/19/2021 12:15:00 AM 1.59 34.862 0.138 7.27 5.6 13.84
1/19/2021 12:30:00 AM 1.56 34.808 0.138 7.27 5.6 13.86
1/19/2021 12:45:00 AM 1.54 34.772 0.138 7.27 5.65 13.87
1/19/2021 1:00:00 AM 1.52 34.736 0.138 7.27 5.82 13.89
1/19/2021 1:15:00 AM 1.5 34.7 0.138 7.26 5.65 13.9
1/19/2021 1:30:00 AM 1.49 34.682 0.138 7.27 5.71 13.91
1/19/2021 1:45:00 AM 1.48 34.664 0.138 7.27 5.66 13.92
1/19/2021 2:00:00 AM 1.48 34.664 0.138 7.27 5.54 13.92
1/19/2021 2:15:00 AM 1.47 34.646 0.138 7.27 5.76 13.93
1/19/2021 2:30:00 AM 1.46 34.628 0.138 7.27 5.69 13.94
1/19/2021 2:45:00 AM 1.45 34.61 0.138 7.27 5.65 13.95
1/19/2021 3:00:00 AM 1.44 34.592 0.139 7.27 5.7 13.95
1/19/2021 3:15:00 AM 1.43 34.574 0.138 7.27 5.74 13.96
1/19/2021 3:30:00 AM 1.43 34.574 0.139 7.27 5.64 13.97
1/19/2021 3:45:00 AM 1.42 34.556 0.139 7.27 5.47 13.97
1/19/2021 4:00:00 AM 1.4 34.52 0.139 7.27 5.62 13.98
1/19/2021 4:15:00 AM 1.39 34.502 0.139 7.26 5.61 13.98
1/19/2021 4:30:00 AM 1.37 34.466 0.139 7.27 5.46 13.99
1/19/2021 4:45:00 AM 1.34 34.412 0.139 7.27 5.54 14
1/19/2021 5:00:00 AM 1.32 34.376 0.139 7.27 5.55 14.02
1/19/2021 5:15:00 AM 1.3 34.34 0.138 7.27 5.42 14.03
1/19/2021 5:30:00 AM 1.3 34.34 0.139 7.26 5.48 14.03
1/19/2021 5:45:00 AM 1.29 34.322 0.139 7.26 5.51 14.04
1/19/2021 6:00:00 AM 1.28 34.304 0.139 7.26 5.59 14.05
1/19/2021 6:15:00 AM 1.27 34.286 0.139 7.26 5.52 14.06
1/19/2021 6:30:00 AM 1.25 34.25 0.139 7.27 5.4 14.06
1/19/2021 6:45:00 AM 1.22 34.196 0.139 7.26 5.57 14.07
1/19/2021 7:00:00 AM 1.19 34.142 0.139 7.26 5.49 14.08
1/19/2021 7:15:00 AM 1.16 34.088 0.139 7.27 5.64 14.1
1/19/2021 7:30:00 AM 1.14 34.052 0.139 7.26 5.53 14.11
1/19/2021 7:45:00 AM 1.13 34.034 0.139 7.27 5.62 14.12
1/19/2021 8:00:00 AM 1.13 34.034 0.138 7.27 5.6 14.12
1/19/2021 8:15:00 AM 1.13 34.034 0.138 7.27 5.66 14.13
1/19/2021 8:30:00 AM 1.14 34.052 0.138 7.27 5.55 14.12
1/19/2021 8:45:00 AM 1.15 34.07 0.138 7.27 5.52 14.11
1/19/2021 9:00:00 AM 1.17 34.106 0.138 7.27 5.51 14.1
1/19/2021 9:15:00 AM 1.2 34.16 0.138 7.28 5.44 14.1
1/19/2021 9:30:00 AM 1.21 34.178 0.138 7.27 5.43 14.09
1/19/2021 9:45:00 AM 1.26 34.268 0.137 7.28 5.56 14.09
1/19/2021 10:00:00 AM 1.3 34.34 0.138 7.28 5.48 14.05
1/19/2021 10:15:00 AM 1.35 34.43 0.138 7.29 5.46 14.03
1/19/2021 10:30:00 AM 1.41 34.538 0.137 7.29 5.4 14.02
1/19/2021 10:45:00 AM 1.46 34.628 0.138 7.29 5.28 13.98
1/19/2021 11:00:00 AM 1.51 34.718 0.134 7.3 5.36 13.97
1/19/2021 11:15:00 AM 1.55 34.79 0.137 7.31 5.5 13.94
1/19/2021 11:30:00 AM 1.61 34.898 0.136 7.3 5.24 13.92
1/19/2021 11:45:00 AM 1.67 35.006 0.135 7.31 5.34 13.9
1/19/2021 12:00:00 PM 1.7 35.06 0.136 7.3 5.35 13.88
1/19/2021 12:15:00 PM 1.73 35.114 0.132 7.31 5.35 13.84
1/19/2021 12:30:00 PM 1.77 35.186 0.129 7.31 5.34 13.85
1/19/2021 12:45:00 PM 1.8 35.24 0.128 7.31 5.27 13.84
1/19/2021 1:00:00 PM 1.84 35.312 0.133 7.31 5.25 13.78
1/19/2021 1:15:00 PM 1.86 35.348 0.129 7.31 5.1 13.8
1/19/2021 1:30:00 PM 1.88 35.384 0.131 7.31 5.22 13.77
1/19/2021 1:45:00 PM 1.9 35.42 0.132 7.31 5.22 13.78
1/19/2021 2:00:00 PM 1.92 35.456 0.131 7.32 5.15 13.79
1/19/2021 2:15:00 PM 1.95 35.51 0.127 7.31 5.18 13.75
1/19/2021 2:30:00 PM 1.97 35.546 0.125 7.31 5.21 13.76
1/19/2021 2:45:00 PM 2 35.6 0.117 7.32 5.24 13.76
1/19/2021 3:00:00 PM 2.04 35.672 0.128 7.33 5.16 13.73
1/19/2021 3:15:00 PM 2.03 35.654 0.124 7.33 5.11 13.71
1/19/2021 3:30:00 PM 2.01 35.618 0.111 7.33 10.19 13.75
1/19/2021 3:45:00 PM 1.99 35.582 0.117 7.32 5.1 13.76
1/19/2021 4:00:00 PM 1.97 35.546 0.111 7.32 6.93 13.77
1/19/2021 4:15:00 PM 1.95 35.51 0.114 7.32 4.95 13.78
1/19/2021 4:30:00 PM 1.94 35.492 0.097 7.32 5.52 13.78
1/19/2021 4:45:00 PM 1.91 35.438 0.102 7.32 5.11 13.78
1/19/2021 5:00:00 PM 1.89 35.402 0.1 7.31 4.7 13.78
1/19/2021 5:15:00 PM 1.87 35.366 0.089 7.31 6.17 13.78
1/19/2021 5:30:00 PM 1.85 35.33 0.077 7.3 272.07 13.78
1/19/2021 5:45:00 PM 1.83 35.294 0.089 7.3 109.73 13.78
1/19/2021 6:00:00 PM 1.8 35.24 0.089 7.3 740.38 13.78
1/19/2021 6:15:00 PM 1.78 35.204 0.08 7.29 13.68 13.78
1/19/2021 6:30:00 PM 1.76 35.168 0.066 7.29 124.59 13.79
1/19/2021 6:45:00 PM 1.76 35.168 0.063 7.29 511.08 13.79
1/19/2021 7:00:00 PM 1.75 35.15 0.06 7.29 1991.05 13.8
1/19/2021 7:15:00 PM 1.73 35.114 0.064 7.29 214.83 13.8
1/19/2021 7:30:00 PM 1.7 35.06 0.05 7.29 1775.43 13.82
1/19/2021 7:45:00 PM 1.69 35.042 0.053 7.28 1131.81 13.81
1/19/2021 8:00:00 PM 1.66 34.988 0.041 7.28 2799.67 13.8
1/19/2021 8:15:00 PM 1.65 34.97 0.034 7.27 816.53 13.81
1/19/2021 8:30:00 PM 1.66 34.988 0.051 7.27 82.87 13.82
1/19/2021 8:45:00 PM 1.65 34.97 0.041 7.27 2762.18 13.83
1/19/2021 9:00:00 PM 1.62 34.916 0.026 7.29 1227.18 13.84
1/19/2021 9:15:00 PM 1.62 34.916 0.02 7.29 754.5 13.84
1/19/2021 9:30:00 PM 1.61 34.898 0.022 7.27 110.96 13.84
1/19/2021 9:45:00 PM 1.61 34.898 0.021 7.27 62.08 13.85
1/19/2021 10:00:00 PM 1.6 34.88 0.02 7.27 1632.58 13.84
1/19/2021 10:15:00 PM 1.58 34.844 0.016 7.28 334.28 13.85
1/19/2021 10:30:00 PM 1.57 34.826 0.017 7.28 404.04 13.85
1/19/2021 10:45:00 PM 1.57 34.826 0.014 7.26 1910.26 13.83
1/19/2021 11:00:00 PM 1.55 34.79 0.017 7.26 435.94 13.86
1/19/2021 11:15:00 PM 1.48 34.664 0.008 7.27 1440.73 13.88
1/19/2021 11:30:00 PM 1.49 34.682 0.008 7.26 5.41 13.87
1/19/2021 11:45:00 PM 1.48 34.664 0.01 7.28 395.8 13.87
1/20/2021 12:00:00 AM 1.44 34.592 0.009 7.26 2851.61 13.89
1/20/2021 12:15:00 AM 1.43 34.574 0.006 7.31 1260.33 13.89
1/20/2021 12:30:00 AM 1.39 34.502 0.005 7.28 1801.96 13.91
1/20/2021 12:45:00 AM 1.37 34.466 0.004 7.29 1350.05 13.92
1/20/2021 1:00:00 AM 1.35 34.43 0.005 7.31 3699.91 13.93
1/20/2021 1:15:00 AM 1.36 34.448 0.004 7.29 2709.14 13.92
1/20/2021 1:30:00 AM 1.32 34.376 0.004 7.25 1242.89 13.95
1/20/2021 1:45:00 AM 1.32 34.376 0.004 7.28 3356.96 13.95
1/20/2021 2:00:00 AM 1.31 34.358 0.003 7.25 3729.24 13.94
1/20/2021 2:15:00 AM 1.3 34.34 0.004 7.29 580.07 13.94
1/20/2021 2:30:00 AM 1.27 34.286 0.004 7.25 9683.17 13.95
1/20/2021 2:45:00 AM 1.28 34.304 0.005 7.3 3438.03 13.96
1/20/2021 3:00:00 AM 1.25 34.25 0.003 7.22 1053.83 13.96
1/20/2021 3:15:00 AM 1.2 34.16 0.003 7.26 1710.3 13.98
1/20/2021 3:30:00 AM 1.18 34.124 0.003 7.29 2521.61 13.99
1/20/2021 3:45:00 AM 1.18 34.124 0.003 7.31 6133.15 13.98
1/20/2021 4:00:00 AM 1.19 34.142 0.003 7.27 2934.62 13.99
1/20/2021 4:15:00 AM 1.19 34.142 0.002 7.27 4424.09 14
1/20/2021 4:30:00 AM 1.18 34.124 0.003 7.27 4645.36 14.01
1/20/2021 4:45:00 AM 1.17 34.106 0.003 7.3 1285.31 14
1/20/2021 5:00:00 AM 1.15 34.07 0.003 7.26 5177.13 14.02
1/20/2021 5:15:00 AM 1.14 34.052 0.002 7.24 4130.84 14.02
1/20/2021 5:30:00 AM 1.12 34.016 0.003 7.3 3412.34 14.01
1/20/2021 5:45:00 AM 1.08 33.944 0.002 7.29 3588.4 14.02
1/20/2021 6:00:00 AM 1.04 33.872 0.003 7.26 2310.06 14.02
1/20/2021 6:15:00 AM 1 33.8 0.002 7.28 3079.76 14.07
1/20/2021 6:30:00 AM 0.97 33.746 0.002 7.29 6597.63 14.08
1/20/2021 6:45:00 AM 0.93 33.674 0.002 7.29 10996.37 14.1
1/20/2021 7:00:00 AM 0.89 33.602 0.002 7.29 9444.22 14.11
1/20/2021 7:15:00 AM 0.84 33.512 0.003 7.24 6701.41 14.14
1/20/2021 7:30:00 AM 0.8 33.44 0.002 7.32 2349.25 14.15
1/20/2021 7:45:00 AM 0.74 33.332 0.002 7.27 5989.04 14.16
1/20/2021 8:00:00 AM 0.77 33.386 0.002 7.26 1380.4 14.12
1/20/2021 8:15:00 AM 0.79 33.422 0.003 7.28 6.75 14.12
1/20/2021 8:30:00 AM 0.78 33.404 0.002 7.39 2.94 14.16
1/20/2021 8:45:00 AM 0.67 33.206 0.001 7.35 2.68 14.21
1/20/2021 9:00:00 AM 0.81 33.458 0 7.37 2.66 14.14
1/20/2021 9:15:00 AM 0.59 33.062 0 7.3 2.66 14.27
1/20/2021 9:30:00 AM 0.71 33.278 0.001 7.35 3.22 14.22
1/20/2021 9:45:00 AM 0.73 33.314 0.001 7.37 2.78 14.18
1/20/2021 10:00:00 AM 0.67 33.206 0 7.38 2.68 14.22
1/20/2021 10:15:00 AM 0.47 32.846 0 7.36 2.7 14.3
1/20/2021 10:30:00 AM 0.16 32.288 0 6.97 2.78 14.43
1/20/2021 10:45:00 AM 0.34 32.612 0 6.53 2.64 14.39
1/20/2021 11:00:00 AM 0.15 32.27 0.001 7.5 2.7 14.55
1/20/2021 11:15:00 AM 0.21 32.378 0 7.05 4.55 14.51
1/20/2021 11:30:00 AM 0.56 33.008 0.001 7.68 2.73 14.32
1/20/2021 11:45:00 AM 0.55 32.99 0 7.53 2.65 14.32
1/20/2021 12:00:00 PM 0.62 33.116 0 7.37 2.72 14.28
1/20/2021 12:15:00 PM -0.01 31.982 0 6.74 5.45 14.68
1/20/2021 12:30:00 PM 0.27 32.486 0 7.31 5.54 14.37
1/20/2021 12:45:00 PM 0.15 32.27 0 6.61 4.42 14.39
1/20/2021 1:00:00 PM 0.07 32.126 0 6.62 2.66 14.6
1/20/2021 1:15:00 PM -0.06 31.892 0 6.64 3.58 14.68
1/20/2021 1:30:00 PM -0.05 31.91 0 6.51 5.62 14.66
1/20/2021 1:45:00 PM 0 32 0 6.33 5.68 14.65
1/20/2021 2:00:00 PM -0.06 31.892 0 6.34 5.89 14.5
1/20/2021 2:15:00 PM -0.03 31.946 0 6.45 5.91 14.6
1/20/2021 2:30:00 PM -0.14 31.748 0 6.5 6.03 14.71
1/20/2021 2:45:00 PM -0.05 31.91 0 6.9 7.52 14.66
1/20/2021 3:00:00 PM 0.08 32.144 0 6.91 7.61 14.6
1/20/2021 3:15:00 PM -0.14 31.748 0 6.56 5.91 14.67
1/20/2021 3:30:00 PM -0.07 31.874 0 6.38 5.23 14.58
1/20/2021 3:45:00 PM -0.06 31.892 0 6.71 5.08 14.61
1/20/2021 4:00:00 PM -0.06 31.892 0 6.67 4.99 14.45
1/20/2021 4:15:00 PM -0.07 31.874 0 6.63 5.18 14.73
1/20/2021 4:30:00 PM -0.06 31.892 0 6.83 5.23 14.65
1/20/2021 4:45:00 PM -0.07 31.874 0 6.8 5.18 14.63
1/20/2021 5:00:00 PM -0.07 31.874 0 6.41 5.32 14.57
1/20/2021 5:15:00 PM -0.08 31.856 0 6.75 5.23 14.64
1/20/2021 5:30:00 PM -0.1 31.82 0 6.55 5.28 14.47
1/20/2021 5:45:00 PM -0.13 31.766 0 6.49 5.42 14.59
1/20/2021 6:00:00 PM -0.17 31.694 0 6.61 6.62 14.63
1/20/2021 6:15:00 PM -0.2 31.64 0 6.56 6.63 14.58
1/20/2021 6:30:00 PM -0.2 31.64 0 6.78 6.43 14.65
1/20/2021 6:45:00 PM -0.27 31.514 0 6.59 5.71 14.65
1/20/2021 7:00:00 PM -0.19 31.658 0 6.8 6.38 14.62
1/20/2021 7:15:00 PM -0.28 31.496 0 6.74 5.94 14.64
1/20/2021 7:30:00 PM -0.25 31.55 0 6.76 5.86 14.62
1/20/2021 7:45:00 PM -0.24 31.568 0 6.65 5.73 14.63
1/20/2021 8:00:00 PM -0.35 31.37 0 6.61 6.17 14.67
1/20/2021 8:15:00 PM -0.35 31.37 0 6.59 5.96 14.68
1/20/2021 8:30:00 PM -0.45 31.19 0 6.54 5.94 14.7
1/20/2021 8:45:00 PM -0.58 30.956 0 6.48 5.92 14.7
1/20/2021 9:00:00 PM -0.46 31.172 0 6.47 6.24 14.72
1/20/2021 9:15:00 PM -0.58 30.956 0 6.57 6.38 14.76
1/20/2021 9:30:00 PM -0.63 30.866 0 6.5 6.09 14.81
1/20/2021 9:45:00 PM -0.6 30.92 0 6.55 6.4 14.7
1/20/2021 10:00:00 PM -0.59 30.938 0 6.49 6.34 14.79
1/20/2021 10:15:00 PM -0.68 30.776 0 6.53 6.86 14.8
1/20/2021 10:30:00 PM -0.67 30.794 0 6.48 6.88 14.8
1/20/2021 10:45:00 PM -0.72 30.704 0 6.45 6.8 14.8
1/20/2021 11:00:00 PM -0.92 30.344 0 6.3 6.54 14.91
1/20/2021 11:15:00 PM -0.89 30.398 0 6.39 7.29 14.82
1/20/2021 11:30:00 PM -1.03 30.146 0 6.39 7.08 14.93
1/20/2021 11:45:00 PM -1.16 29.912 0 6.22 7.14 14.99
1/21/2021 12:00:00 AM -1.39 29.498 0 6.19 7.04 15.12
1/21/2021 12:15:00 AM -1.35 29.57 0 6.34 8.17 15.03
1/21/2021 12:30:00 AM -1.47 29.354 0 6.33 8.56 15.06
1/21/2021 12:45:00 AM -1.47 29.354 0 6.28 8.94 15.05
1/21/2021 1:00:00 AM -1.64 29.048 0 6.16 8.29 15.16
1/21/2021 1:15:00 AM -1.84 28.688 0 6.14 8.33 15.24
1/21/2021 1:30:00 AM -1.81 28.742 0 6.25 10.22 15.2
1/21/2021 1:45:00 AM -1.89 28.598 0 6.25 10.36 15.21
1/21/2021 2:00:00 AM -1.96 28.472 0 6.14 8.01 15.26
1/21/2021 2:15:00 AM -2.13 28.166 0 6.2 8.41 15.34
1/21/2021 2:30:00 AM -2.3 27.86 0 6.12 8.48 15.44
1/21/2021 2:45:00 AM -2.78 26.996 0 6.07 8.56 15.74
1/21/2021 3:00:00 AM -2.72 27.104 0 6.11 8.53 15.64
1/21/2021 3:15:00 AM -2.73 27.086 0 6.16 8.76 15.65
1/21/2021 3:30:00 AM -2.89 26.798 0 6.2 8.72 15.67
1/21/2021 3:45:00 AM -2.99 26.618 0 6.09 8.59 15.78
1/21/2021 4:00:00 AM -2.99 26.618 0 6.17 8.79 15.69
1/21/2021 4:15:00 AM -3.19 26.258 0 6.08 8.81 15.88
1/21/2021 4:30:00 AM -3.16 26.312 0 6.1 8.98 15.81
1/21/2021 4:45:00 AM -3.29 26.078 0 6.11 9.1 15.88
1/21/2021 5:00:00 AM -3.47 25.754 0 6.05 9.22 15.99
1/21/2021 5:15:00 AM -3.44 25.808 0 6.08 9.45 15.95
1/21/2021 5:30:00 AM -3.52 25.664 0 6.06 9.76 15.97
1/21/2021 5:45:00 AM -3.56 25.592 0 6.08 9.99 15.95
1/21/2021 6:00:00 AM -3.48 25.736 0 6.1 10.22 15.95
1/21/2021 6:15:00 AM -3.37 25.934 0 6.09 10.36 15.85
1/21/2021 6:30:00 AM -3.31 26.042 0 6.04 10.39 15.87
1/21/2021 6:45:00 AM -3.19 26.258 0 6.07 10.52 15.79
1/21/2021 7:00:00 AM -3.08 26.456 0 6.08 10.59 15.71
1/21/2021 7:15:00 AM -2.99 26.618 0 6.01 10.47 15.73
1/21/2021 7:30:00 AM -2.87 26.834 0 6.07 10.69 15.66
1/21/2021 7:45:00 AM -2.69 27.158 0 6.03 10.6 15.59
1/21/2021 8:00:00 AM -2.5 27.5 0 6.05 10.69 15.49
1/21/2021 8:15:00 AM -2.42 27.644 0 6.03 10.64 15.43
1/21/2021 8:30:00 AM -2.34 27.788 0 6.06 10.65 15.42
1/21/2021 8:45:00 AM -2.2 28.04 0 6.06 10.59 15.36
1/21/2021 9:00:00 AM -2.06 28.292 0 6.06 10.64 15.31
1/21/2021 9:15:00 AM -1.95 28.49 0 6.05 10.39 15.24
1/21/2021 9:30:00 AM -1.85 28.67 0 6.05 10.38 15.25
1/21/2021 9:45:00 AM -1.73 28.886 0 6 10.05 15.19
1/21/2021 10:00:00 AM -1.55 29.21 0 6.06 10.11 15.1
1/21/2021 10:15:00 AM -1.41 29.462 0 6.05 9.91 15.03
1/21/2021 10:30:00 AM -1.29 29.678 0 6.04 9.74 14.99
1/21/2021 10:45:00 AM -1.19 29.858 0 6.07 9.83 14.94
1/21/2021 11:00:00 AM -1.1 30.02 0 6.06 9.8 14.9
1/21/2021 11:15:00 AM -0.97 30.254 0 6.08 9.59 14.85
1/21/2021 11:30:00 AM -0.77 30.614 0 6.16 9.98 14.75
1/21/2021 11:45:00 AM -0.58 30.956 0 6.17 9.49 14.68
1/21/2021 12:00:00 PM -0.4 31.28 0 6.26 9.55 14.61
1/21/2021 12:15:00 PM -0.36 31.352 0 6.25 9.37 14.58
1/21/2021 12:30:00 PM -0.21 31.622 0 6.37 10.06 14.54
1/21/2021 12:45:00 PM -0.17 31.694 0 6.33 9.22 14.5
1/21/2021 1:00:00 PM -0.16 31.712 0 6.28 12.92 14.47
1/21/2021 1:15:00 PM -0.13 31.766 0 6.32 32.17 14.38
1/21/2021 1:30:00 PM -0.07 31.874 0 7.3 1652.75 14.21
1/21/2021 1:45:00 PM -0.06 31.892 0.001 7.42 373.61 14.11
1/21/2021 2:00:00 PM -0.05 31.91 0.001 7.4 444.47 14.34
1/21/2021 2:15:00 PM -0.05 31.91 0.001 7.44 323.73 14.38
1/21/2021 2:30:00 PM -0.04 31.928 0.002 7.46 642.86 14.39
1/21/2021 2:45:00 PM -0.04 31.928 0.001 7.44 313.85 14.23
1/21/2021 3:00:00 PM -0.03 31.946 0.002 7.45 193.79 14.47
1/21/2021 3:15:00 PM -0.02 31.964 0.002 7.41 283.24 14.48
1/21/2021 3:30:00 PM 0 32 0.002 7.34 588.91 14.46
1/21/2021 3:45:00 PM 0.03 32.054 0.002 7.35 2489.17 14.42
1/21/2021 4:00:00 PM 0.02 32.036 0 7.22 5.97 14.42
1/21/2021 4:15:00 PM 0.02 32.036 0 7.37 5.53 14.42
1/21/2021 4:30:00 PM 0.01 32.018 0 7.27 7.36 14.41
1/21/2021 4:45:00 PM 0 32 0 7.17 8.24 14.42
1/21/2021 5:00:00 PM -0.02 31.964 0 7.24 8.36 14.42
1/21/2021 5:15:00 PM -0.04 31.928 0 7.19 8.35 14.4
1/21/2021 5:30:00 PM -0.08 31.856 0 6.96 8.22 14.39
1/21/2021 5:45:00 PM -0.07 31.874 0 6.77 8.25 14.4
1/21/2021 6:00:00 PM -0.29 31.478 0 6.73 8.3 14.52
1/21/2021 6:15:00 PM -0.36 31.352 0 6.53 8.29 14.54
1/21/2021 6:30:00 PM -0.83 30.506 0 6.43 8.44 14.84
1/21/2021 6:45:00 PM -1.21 29.822 0 6.49 8.52 15.07
1/21/2021 7:00:00 PM -0.67 30.794 0 6.6 8.6 14.73
1/21/2021 7:15:00 PM -1.07 30.074 0 6.56 8.58 14.94
1/21/2021 7:30:00 PM -0.75 30.65 0 6.67 8.67 14.78
1/21/2021 7:45:00 PM -0.76 30.632 0 6.64 8.69 14.81
1/21/2021 8:00:00 PM -0.62 30.884 0 6.65 8.7 14.69
1/21/2021 8:15:00 PM -0.65 30.83 0 6.63 8.66 14.71
1/21/2021 8:30:00 PM -0.65 30.83 0 6.63 8.63 14.69
1/21/2021 8:45:00 PM -0.67 30.794 0 6.63 8.65 14.71
1/21/2021 9:00:00 PM -0.66 30.812 0 6.7 8.79 14.68
1/21/2021 9:15:00 PM -0.67 30.794 0 6.62 8.62 14.69
1/21/2021 9:30:00 PM -0.66 30.812 0 6.66 8.8 14.68
1/21/2021 9:45:00 PM -0.67 30.794 0 6.68 8.81 14.69
1/21/2021 10:00:00 PM -0.7 30.74 0 6.67 8.73 14.7
1/21/2021 10:15:00 PM -0.82 30.524 0 6.68 8.74 14.78
1/21/2021 10:30:00 PM -0.74 30.668 0 6.72 8.75 14.73
1/21/2021 10:45:00 PM -1.02 30.164 0 6.68 8.75 14.9
1/21/2021 11:00:00 PM -1 30.2 0 6.7 8.81 14.85
1/21/2021 11:15:00 PM -1.22 29.804 0 6.69 8.83 14.94
1/21/2021 11:30:00 PM -1.06 30.092 0 6.73 9.01 14.82
1/21/2021 11:45:00 PM -1.07 30.074 0 6.74 9.07 14.82
1/22/2021 12:00:00 AM -0.96 30.272 0 6.74 10.94 14.75
1/22/2021 12:15:00 AM -0.97 30.254 0 6.74 9.01 14.78
1/22/2021 12:30:00 AM -1.01 30.182 0 6.7 8.86 14.8
1/22/2021 12:45:00 AM -0.97 30.254 0 6.72 8.92 14.79
1/22/2021 1:00:00 AM -0.91 30.362 0 6.72 9.7 14.75
1/22/2021 1:15:00 AM -0.89 30.398 0 6.74 8.86 14.76
1/22/2021 1:30:00 AM -0.92 30.344 0 6.72 9.02 14.78
1/22/2021 1:45:00 AM -0.97 30.254 0 6.73 9.12 14.83
1/22/2021 2:00:00 AM -1.27 29.714 0 6.66 8.78 14.98
1/22/2021 2:15:00 AM -1.16 29.912 0 6.71 8.87 14.94
1/22/2021 2:30:00 AM -0.9 30.38 0 6.77 11.32 14.76
1/22/2021 2:45:00 AM -0.89 30.398 0 6.79 9.18 14.77
1/22/2021 3:00:00 AM -0.87 30.434 0 6.72 9.17 14.76
1/22/2021 3:15:00 AM -0.94 30.308 0 6.74 8.74 14.8
1/22/2021 3:30:00 AM -1.17 29.894 0 6.68 8.64 14.92
1/22/2021 3:45:00 AM -1.17 29.894 0 6.66 8.68 14.86
1/22/2021 4:00:00 AM -1.19 29.858 0 6.7 8.67 14.89
1/22/2021 4:15:00 AM -1.39 29.498 0 6.69 8.76 15.05
1/22/2021 4:30:00 AM -1.51 29.282 0 6.7 8.64 15.06
1/22/2021 4:45:00 AM -1.39 29.498 0 6.72 8.67 14.97
1/22/2021 5:00:00 AM -1.27 29.714 0 6.77 9.74 14.91
1/22/2021 5:15:00 AM -1.29 29.678 0 6.77 8.93 14.93
1/22/2021 5:30:00 AM -1.23 29.786 0 6.73 8.75 14.89
1/22/2021 5:45:00 AM -1.15 29.93 0 6.83 9.89 14.87
1/22/2021 6:00:00 AM -1.08 30.056 0 6.77 9.87 14.83
1/22/2021 6:15:00 AM -1.05 30.11 0 6.75 8.83 14.84
1/22/2021 6:30:00 AM -0.91 30.362 0 6.8 15.93 14.76
1/22/2021 6:45:00 AM -0.88 30.416 0 6.79 19.85 14.77
1/22/2021 7:00:00 AM -0.81 30.542 0 6.71 8.83 14.76
1/22/2021 7:15:00 AM -0.7 30.74 0 6.66 8.68 14.72
1/22/2021 7:30:00 AM -0.57 30.974 0 6.66 8.75 14.68
1/22/2021 7:45:00 AM -0.48 31.136 0 6.83 9 14.65
1/22/2021 8:00:00 AM -0.4 31.28 0 6.76 8.73 14.62
1/22/2021 8:15:00 AM -0.34 31.388 0 6.81 8.83 14.6
1/22/2021 8:30:00 AM -0.27 31.514 0 6.82 8.82 14.59
1/22/2021 8:45:00 AM -0.23 31.586 0 6.87 8.76 14.57
1/22/2021 9:00:00 AM -0.15 31.73 0 6.96 9.05 14.55
1/22/2021 9:15:00 AM -0.16 31.712 0 6.86 8.69 14.61
1/22/2021 9:30:00 AM -0.09 31.838 0 7.01 8.83 14.54
1/22/2021 9:45:00 AM -0.07 31.874 0 7.02 8.75 14.53
1/22/2021 10:00:00 AM -0.06 31.892 0 7.01 8.63 14.53
1/22/2021 10:15:00 AM -0.06 31.892 0 6.99 8.73 14.56
1/22/2021 10:30:00 AM -0.03 31.946 0 6.96 8.74 14.58
1/22/2021 10:45:00 AM 0.03 32.054 0 6.95 8.74 14.51
1/22/2021 11:00:00 AM 0.1 32.18 0 7.11 8.74 14.53
1/22/2021 11:15:00 AM 0.29 32.522 0 7.12 8.86 14.47
1/22/2021 11:30:00 AM 0.38 32.684 0 7.08 9.39 14.45
1/22/2021 11:45:00 AM 0.56 33.008 0 6.91 9.36 14.38
1/22/2021 12:00:00 PM 0.67 33.206 0 6.87 9.34 14.35
1/22/2021 12:15:00 PM 0.38 32.684 0 6.73 6.55 14.46
1/22/2021 12:30:00 PM 1 33.8 0 6.71 6.61 14.05
1/22/2021 12:45:00 PM 1.07 33.926 0 6.54 6.62 14.05
1/22/2021 1:00:00 PM 1.24 34.232 0 6.5 6.64 13.96
1/22/2021 1:15:00 PM 1.26 34.268 0 6.55 6.6 13.97
1/22/2021 1:30:00 PM 1.28 34.304 0 6.33 6.62 13.96
1/22/2021 1:45:00 PM 1.24 34.232 0 6.35 6.6 13.97
1/22/2021 2:00:00 PM 1.3 34.34 0 6.12 6.63 13.96
1/22/2021 2:15:00 PM 1.27 34.286 0 6.05 6.59 14.01
1/22/2021 2:30:00 PM 1.26 34.268 0 6.11 6.59 13.96
1/22/2021 2:45:00 PM 1.2 34.16 0 6.18 6.59 13.97
1/22/2021 3:00:00 PM 1.19 34.142 0 6.22 6.6 13.96
1/22/2021 3:15:00 PM 1.16 34.088 0 5.98 6.59 13.94
1/22/2021 3:30:00 PM 0.92 33.656 0 6.14 6.61 14.12
1/22/2021 3:45:00 PM 0.97 33.746 0 6.24 6.63 14.06
1/22/2021 4:00:00 PM 0.94 33.692 0 6.23 6.6 14.09
1/22/2021 4:15:00 PM 0.86 33.548 0 6.23 6.63 14.13
1/22/2021 4:30:00 PM 0.83 33.494 0 6.05 6.61 14.08
1/22/2021 4:45:00 PM 0.75 33.35 0 5.83 6.57 14.13
1/22/2021 5:00:00 PM 0.61 33.098 0 5.88 6.59 14.2
1/22/2021 5:15:00 PM 0.49 32.882 0 5.92 6.61 14.35
1/22/2021 5:30:00 PM 0.34 32.612 0 5.78 6.62 14.41
1/22/2021 5:45:00 PM 0.29 32.522 0 5.71 6.62 14.38
1/22/2021 6:00:00 PM 0.16 32.288 0 5.71 6.62 14.5
1/22/2021 6:15:00 PM 0.12 32.216 0 5.65 6.61 14.54
1/22/2021 6:30:00 PM 0.07 32.126 0 5.61 6.61 14.5
1/22/2021 6:45:00 PM -0.02 31.964 0 5.58 6.65 14.61
1/22/2021 7:00:00 PM -0.04 31.928 0 5.47 6.61 14.61
1/22/2021 7:15:00 PM -0.13 31.766 0 5.36 6.64 14.47
1/22/2021 7:30:00 PM -0.15 31.73 0 5.44 6.67 14.5
1/22/2021 7:45:00 PM -0.31 31.442 0 5.42 6.7 14.64
1/22/2021 8:00:00 PM -0.36 31.352 0 5.41 6.67 14.59
1/22/2021 8:15:00 PM -0.57 30.974 0 5.41 6.68 14.75
1/22/2021 8:30:00 PM -0.56 30.992 0 5.43 6.68 14.75
1/22/2021 8:45:00 PM -0.56 30.992 0 5.39 6.71 14.7
1/22/2021 9:00:00 PM -0.77 30.614 0 5.39 6.71 14.88
1/22/2021 9:15:00 PM -0.92 30.344 0 5.43 6.73 15.01
1/22/2021 9:30:00 PM -0.83 30.506 0 5.46 6.77 14.95
1/22/2021 9:45:00 PM -1.09 30.038 0 5.36 6.74 15.09
1/22/2021 10:00:00 PM -1.06 30.092 0 5.34 6.75 14.96
1/22/2021 10:15:00 PM -1.22 29.804 0 5.27 6.76 15.14
1/22/2021 10:30:00 PM -1.23 29.786 0 5.3 6.79 15.2
1/22/2021 10:45:00 PM -1.46 29.372 0 5.23 6.8 15.18
1/22/2021 11:00:00 PM -1.53 29.246 0 5.25 6.81 15.18
1/22/2021 11:15:00 PM -1.81 28.742 0 5.32 6.86 15.31
1/22/2021 11:30:00 PM -1.67 28.994 0 5.39 6.87 15.32
1/22/2021 11:45:00 PM -1.96 28.472 0 5.28 6.89 15.36
1/23/2021 12:00:00 AM -1.75 28.85 0 5.36 6.9 15.38
1/23/2021 12:15:00 AM -2 28.4 0 5.26 6.93 15.39
1/23/2021 12:30:00 AM -2.28 27.896 0 5.25 6.99 15.64
1/23/2021 12:45:00 AM -2.28 27.896 0 5.23 6.95 15.52
1/23/2021 1:00:00 AM -2.43 27.626 0 5.17 7.14 15.5
1/23/2021 1:15:00 AM -2.46 27.572 0 5.22 7.1 15.57
1/23/2021 1:30:00 AM -2.62 27.284 0 5.25 7.29 15.75
1/23/2021 1:45:00 AM -2.84 26.888 0 5.19 7.33 15.79
1/23/2021 2:00:00 AM -3.06 26.492 0 5.18 7.46 15.83
1/23/2021 2:15:00 AM -3.08 26.456 0 5.19 7.42 15.79
1/23/2021 2:30:00 AM -3.16 26.312 0 5.19 7.44 15.85
1/23/2021 2:45:00 AM -3.38 25.916 0 5.19 7.53 15.99
1/23/2021 3:00:00 AM -3.38 25.916 0 5.18 7.48 15.97
1/23/2021 3:15:00 AM -3.45 25.79 0 5.18 7.47 15.87
1/23/2021 3:30:00 AM -3.65 25.43 0 5.19 7.49 16.05
1/23/2021 3:45:00 AM -3.73 25.286 0 5.19 7.54 16.18
1/23/2021 4:00:00 AM -3.88 25.016 0 5.19 7.5 16.17
1/23/2021 4:15:00 AM -3.81 25.142 0 5.19 7.52 16.13
1/23/2021 4:30:00 AM -3.99 24.818 0 5.18 7.51 16.14
1/23/2021 4:45:00 AM -4.27 24.314 0 5.17 7.51 16.34
1/23/2021 5:00:00 AM -4.34 24.188 0 5.18 7.61 16.41
1/23/2021 5:15:00 AM -4.45 23.99 0 5.18 7.62 16.5
1/23/2021 5:30:00 AM -4.62 23.684 0 5.21 7.63 16.53
1/23/2021 5:45:00 AM -4.58 23.756 0 5.25 7.66 16.51
1/23/2021 6:00:00 AM -4.64 23.648 0 5.27 7.73 16.63
1/23/2021 6:15:00 AM -4.81 23.342 0 5.23 7.66 16.67
1/23/2021 6:30:00 AM -4.81 23.342 0 5.26 7.68 16.71
1/23/2021 6:45:00 AM -5.03 22.946 0 5.22 7.68 16.73
1/23/2021 7:00:00 AM -5.11 22.802 0 5.22 7.71 16.83
1/23/2021 7:15:00 AM -5.02 22.964 0 5.25 7.72 16.78
1/23/2021 7:30:00 AM -5.13 22.766 0 5.26 7.75 16.84
1/23/2021 7:45:00 AM -5.24 22.568 0 5.24 7.72 16.97
1/23/2021 8:00:00 AM -5.26 22.532 0 5.23 7.73 16.99
1/23/2021 8:15:00 AM -5.17 22.694 0 5.21 7.73 16.84
1/23/2021 8:30:00 AM -4.98 23.036 0 5.21 7.76 16.82
1/23/2021 8:45:00 AM -4.83 23.306 0 5.13 7.74 16.74
1/23/2021 9:00:00 AM -4.85 23.27 0 5.16 7.72 16.76
1/23/2021 9:15:00 AM -4.63 23.666 0 5.14 7.75 16.69
1/23/2021 9:30:00 AM -4.09 24.638 0 5.13 7.74 16.47
1/23/2021 9:45:00 AM -3.49 25.718 0 5.13 7.71 16.19
1/23/2021 10:00:00 AM -3.58 25.556 0 5.09 7.69 16.16
1/23/2021 10:15:00 AM -3.74 25.268 0 5.08 7.7 16.23
1/23/2021 10:30:00 AM -3.81 25.142 0 5.06 7.74 16.33
1/23/2021 10:45:00 AM -4.12 24.584 0 5.05 7.78 16.36
1/23/2021 11:00:00 AM -4.31 24.242 0 5.04 8.1 16.55
1/23/2021 11:15:00 AM -4.34 24.188 0 5.02 8.02 16.49
1/23/2021 11:30:00 AM -4.3 24.26 0 5.03 8.02 16.48
1/23/2021 11:45:00 AM -4.09 24.638 0 5.09 8.13 16.34
1/23/2021 12:00:00 PM -3.91 24.962 0 5.02 8.06 16.29
1/23/2021 12:15:00 PM -3.88 25.016 0 4.98 7.98 16.23
1/23/2021 12:30:00 PM -3.7 25.34 0 4.96 7.94 16.15
1/23/2021 12:45:00 PM -3.57 25.574 0 4.96 7.87 16
1/23/2021 1:00:00 PM -3.71 25.322 0 4.96 7.82 16.12
1/23/2021 1:15:00 PM -3.62 25.484 0 4.95 7.74 16.08
1/23/2021 1:30:00 PM -3.41 25.862 0 4.94 7.08 15.97
1/23/2021 1:45:00 PM -3.19 26.258 0 4.93 7.06 15.8
1/23/2021 2:00:00 PM -3.13 26.366 0 4.93 7.03 15.8
1/23/2021 2:15:00 PM -2.9 26.78 0 4.92 7.18 15.67
1/23/2021 2:30:00 PM -2.71 27.122 0 4.92 7.3 15.62
1/23/2021 2:45:00 PM -2.78 26.996 0 4.92 7.09 15.67
1/23/2021 3:00:00 PM -2.71 27.122 0 4.94 7.02 15.58
1/23/2021 3:15:00 PM -2.63 27.266 0 4.94 7.03 15.53
1/23/2021 3:30:00 PM -2.7 27.14 0 4.92 7.16 15.56
1/23/2021 3:45:00 PM -2.94 26.708 0 4.91 7.38 15.72
1/23/2021 4:00:00 PM -2.98 26.636 0 4.92 7.52 15.84
1/23/2021 4:15:00 PM -3.16 26.312 0 4.92 7.69 15.92
1/23/2021 4:30:00 PM -3.39 25.898 0 4.92 7.78 15.98
1/23/2021 4:45:00 PM -3.56 25.592 0 4.92 7.8 16.02
1/23/2021 5:00:00 PM -3.59 25.538 0 4.93 7.88 16.06
1/23/2021 5:15:00 PM -3.77 25.214 0 4.92 7.89 16.09
1/23/2021 5:30:00 PM -4.03 24.746 0 4.91 7.96 16.26
1/23/2021 5:45:00 PM -4.11 24.602 0 4.91 7.94 16.24
1/23/2021 6:00:00 PM -4.37 24.134 0 4.92 7.98 16.42
1/23/2021 6:15:00 PM -4.5 23.9 0 4.9 7.98 16.49
1/23/2021 6:30:00 PM -4.49 23.918 0 4.91 8.03 16.45
1/23/2021 6:45:00 PM -4.63 23.666 0 4.89 8.04 16.61
1/23/2021 7:00:00 PM -4.67 23.594 0 4.9 8.05 16.62
1/23/2021 7:15:00 PM -4.61 23.702 0 4.9 8.03 16.54
1/23/2021 7:30:00 PM -4.69 23.558 0 4.89 8.04 16.58
1/23/2021 7:45:00 PM -4.61 23.702 0 4.89 8.03 16.54
1/23/2021 8:00:00 PM -4.57 23.774 0 4.9 8.03 16.54
1/23/2021 8:15:00 PM -4.56 23.792 0 4.87 8.04 16.5
1/23/2021 8:30:00 PM -4.57 23.774 0 4.87 8.1 16.57
1/23/2021 8:45:00 PM -4.58 23.756 0 4.88 8.1 16.55
1/23/2021 9:00:00 PM -4.65 23.63 0 4.86 8.1 16.55
1/23/2021 9:15:00 PM -4.67 23.594 0 4.86 8.18 16.58
1/23/2021 9:30:00 PM -4.83 23.306 0 4.84 8.18 16.61
1/23/2021 9:45:00 PM -4.82 23.324 0 4.85 8.19 16.58
1/23/2021 10:00:00 PM -4.79 23.378 0 4.84 8.21 16.63
1/23/2021 10:15:00 PM -4.78 23.396 0 4.86 8.21 16.68
1/23/2021 10:30:00 PM -4.95 23.09 0 4.83 8.23 16.7
1/23/2021 10:45:00 PM -5.01 22.982 0 4.82 8.27 16.73
1/23/2021 11:00:00 PM -5.02 22.964 0 4.83 8.28 16.8
1/23/2021 11:15:00 PM -5.01 22.982 0 4.82 8.29 16.74
1/23/2021 11:30:00 PM -5.09 22.838 0 4.83 8.29 16.75
1/23/2021 11:45:00 PM -5.04 22.928 0 4.84 8.32 16.78
1/24/2021 12:00:00 AM -5.09 22.838 0 4.83 8.35 16.73
1/24/2021 12:15:00 AM -5.21 22.622 0 4.82 8.35 16.88
1/24/2021 12:30:00 AM -5.2 22.64 0 4.83 8.37 16.81
1/24/2021 12:45:00 AM -5.27 22.514 0 4.84 8.38 16.95
1/24/2021 1:00:00 AM -5.31 22.442 0 4.85 8.39 16.94
1/24/2021 1:15:00 AM -5.5 22.1 0 4.82 8.38 17.07
1/24/2021 1:30:00 AM -5.61 21.902 0 4.82 8.4 17.08
1/24/2021 1:45:00 AM -5.58 21.956 0 4.82 8.45 17.05
1/24/2021 2:00:00 AM -5.64 21.848 0 4.81 8.46 17.12
1/24/2021 2:15:00 AM -5.63 21.866 0 4.82 8.45 17.01
1/24/2021 2:30:00 AM -5.51 22.082 0 4.83 8.48 17.05
1/24/2021 2:45:00 AM -5.53 22.046 0 4.83 8.44 17.01
1/24/2021 3:00:00 AM -5.53 22.046 0 4.83 8.49 17.08
1/24/2021 3:15:00 AM -5.66 21.812 0 4.82 8.5 17.14
1/24/2021 3:30:00 AM -5.72 21.704 0 4.83 8.66 17.14
1/24/2021 3:45:00 AM -5.7 21.74 0 4.84 8.65 17.09
1/24/2021 4:00:00 AM -5.83 21.506 0 4.84 8.72 17.22
1/24/2021 4:15:00 AM -5.88 21.416 0 4.83 8.69 17.22
1/24/2021 4:30:00 AM -5.8 21.56 0 4.84 8.67 17.15
1/24/2021 4:45:00 AM -6.02 21.164 0 4.82 8.62 17.32
1/24/2021 5:00:00 AM -6.1 21.02 0 4.82 8.61 17.36
1/24/2021 5:15:00 AM -6.07 21.074 0 4.83 8.59 17.37
1/24/2021 5:30:00 AM -6.16 20.912 0 4.82 8.59 17.37
1/24/2021 5:45:00 AM -6.3 20.66 0 4.82 8.6 17.45
1/24/2021 6:00:00 AM -6.34 20.588 0 4.81 8.6 17.45
1/24/2021 6:15:00 AM -6.38 20.516 0 4.82 8.63 17.45
1/24/2021 6:30:00 AM -6.36 20.552 0 4.8 8.63 17.52
1/24/2021 6:45:00 AM -6.51 20.282 0 4.8 8.64 17.57
1/24/2021 7:00:00 AM -6.5 20.3 0 4.81 8.67 17.54
1/24/2021 7:15:00 AM -6.7 19.94 0 4.8 8.67 17.71
1/24/2021 7:30:00 AM -6.87 19.634 0 4.8 8.67 17.82
1/24/2021 7:45:00 AM -6.91 19.562 0 4.8 8.7 17.83
1/24/2021 8:00:00 AM -7.1 19.22 0 4.8 8.7 17.91
1/24/2021 8:15:00 AM -6.9 19.58 0 4.81 8.73 17.8
1/24/2021 8:30:00 AM -6.82 19.724 0 4.8 8.71 17.78
1/24/2021 8:45:00 AM -6.63 20.066 0 4.8 8.74 17.62
1/24/2021 9:00:00 AM -6.46 20.372 0 4.8 8.73 17.55
1/24/2021 9:15:00 AM -6.05 21.11 0 4.81 8.74 17.28
1/24/2021 9:30:00 AM -5.57 21.974 0 4.8 8.72 17.14
1/24/2021 9:45:00 AM -5.16 22.712 0 4.8 8.71 16.94
1/24/2021 10:00:00 AM -5.08 22.856 0 4.8 8.72 16.95
1/24/2021 10:15:00 AM -5.02 22.964 0 4.79 8.73 16.85
1/24/2021 10:30:00 AM -4.76 23.432 0 4.8 8.75 16.68
1/24/2021 10:45:00 AM -4.31 24.242 0 4.81 8.73 16.38
1/24/2021 11:00:00 AM -4.45 23.99 0 4.8 8.78 16.5
1/24/2021 11:15:00 AM -4.77 23.414 0 4.8 8.79 16.7
1/24/2021 11:30:00 AM -4.79 23.378 0 4.79 8.79 16.65
1/24/2021 11:45:00 AM -4.75 23.45 0 4.8 8.78 16.61
1/24/2021 12:00:00 PM -4.43 24.026 0 4.8 8.8 16.44
1/24/2021 12:15:00 PM -4.31 24.242 0 4.79 8.81 16.42
1/24/2021 12:30:00 PM -4.21 24.422 0 4.8 8.83 16.31
1/24/2021 12:45:00 PM -4.09 24.638 0 4.8 8.82 16.22
1/24/2021 1:00:00 PM -4.03 24.746 0 4.79 8.82 16.18
1/24/2021 1:15:00 PM -3.74 25.268 0 4.8 8.82 15.99
1/24/2021 1:30:00 PM -3.13 26.366 0 4.79 8.81 15.82
1/24/2021 1:45:00 PM -3.08 26.456 0 4.77 8.8 15.85
1/24/2021 2:00:00 PM -2.92 26.744 0 4.78 8.84 15.71
1/24/2021 2:15:00 PM -2.9 26.78 0 4.77 8.84 15.72
1/24/2021 2:30:00 PM -2.79 26.978 0 4.75 8.87 15.54
1/24/2021 2:45:00 PM -2.57 27.374 0 4.83 8.46 15.59
1/24/2021 3:00:00 PM -2.4 27.68 0 4.81 7.28 15.32
1/24/2021 3:15:00 PM -2.16 28.112 0 4.8 6.57 15.28
1/24/2021 3:30:00 PM -1.96 28.472 0 4.8 6.47 15.12
1/24/2021 3:45:00 PM -0.63 30.866 0.001 5.23 8.15 14.31
1/24/2021 4:00:00 PM -0.07 31.874 0.012 7.3 5.08 13.97
1/24/2021 4:15:00 PM -0.06 31.892 0.004 7.41 5.82 14.07
1/24/2021 4:30:00 PM -0.06 31.892 0.002 7.43 5.39 14.31
1/24/2021 4:45:00 PM -0.06 31.892 0.002 7.4 5.36 14.25
1/24/2021 5:00:00 PM -0.06 31.892 0.002 7.4 5.25 14.04
1/24/2021 5:15:00 PM -0.08 31.856 0.001 7.4 5.24 14.03
1/24/2021 5:30:00 PM -0.09 31.838 0.001 7.41 5.5 14.19
1/24/2021 5:45:00 PM -0.11 31.802 0 7.41 5.3 14.1
1/24/2021 6:00:00 PM -0.13 31.766 0 7.41 5.56 14.23
1/24/2021 6:15:00 PM -0.14 31.748 0 7.41 6.13 13.93
1/24/2021 6:30:00 PM -0.16 31.712 0 7.41 6.81 14.12
1/24/2021 6:45:00 PM -0.18 31.676 0 7.39 7.17 14.06
1/24/2021 7:00:00 PM -0.18 31.676 0 7.38 6.62 14.24
1/24/2021 7:15:00 PM -0.21 31.622 0 7.38 6.64 13.91
1/24/2021 7:30:00 PM -0.22 31.604 0 7.38 6.48 14.24
1/24/2021 7:45:00 PM -0.24 31.568 0 7.37 658.65 14.25
1/24/2021 8:00:00 PM -0.27 31.514 0 7.41 9.58 14.26
1/24/2021 8:15:00 PM -0.3 31.46 0 7.4 2319.42 14.23
1/24/2021 8:30:00 PM -0.34 31.388 0 7.39 11.2 13.91
1/24/2021 8:45:00 PM -0.35 31.37 0 7.4 8.14 14.08
1/24/2021 9:00:00 PM -0.41 31.262 0 7.66 108.95 14.11
1/24/2021 9:15:00 PM -0.56 30.992 0 7.81 108.6 14.34
1/24/2021 9:30:00 PM -0.67 30.794 0 7.32 98.27 14.34
1/24/2021 9:45:00 PM -0.76 30.632 0 7.25 94.53 14.25
1/24/2021 10:00:00 PM -0.86 30.452 0 7.23 99.07 14.42
1/24/2021 10:15:00 PM -0.88 30.416 0 7.22 112.59 14.35
1/24/2021 10:30:00 PM -1.06 30.092 0 7.17 102.49 14.5
1/24/2021 10:45:00 PM -1.19 29.858 0 7.15 105.08 14.45
1/24/2021 11:00:00 PM -1.29 29.678 0 7.14 110.98 14.56
1/24/2021 11:15:00 PM -1.39 29.498 0 7.11 117.6 14.77
1/24/2021 11:30:00 PM -1.55 29.21 0 7.09 124.75 14.73
1/24/2021 11:45:00 PM -1.78 28.796 0 7.05 134.66 14.87
1/25/2021 12:00:00 AM -1.94 28.508 0 6.95 136.97 15.08
1/25/2021 12:15:00 AM -2.12 28.184 0 6.93 137.01 15
1/25/2021 12:30:00 AM -2.33 27.806 0 6.89 139.83 15.11
1/25/2021 12:45:00 AM -2.44 27.608 0 6.87 140.73 15.13
1/25/2021 1:00:00 AM -2.38 27.716 0 6.87 141.48 15.21
1/25/2021 1:15:00 AM -2.45 27.59 0 6.86 142.23 15.15
1/25/2021 1:30:00 AM -2.51 27.482 0 6.85 143.38 15.26
1/25/2021 1:45:00 AM -2.5 27.5 0 6.84 143.58 15.25
1/25/2021 2:00:00 AM -2.58 27.356 0 6.83 144.47 15.32
1/25/2021 2:15:00 AM -2.71 27.122 0 6.81 145.66 15.4
1/25/2021 2:30:00 AM -2.88 26.816 0 6.8 146.58 15.49
1/25/2021 2:45:00 AM -3.17 26.294 0 6.78 147.3 15.4
1/25/2021 3:00:00 AM -3.26 26.132 0 6.77 148.55 15.64
1/25/2021 3:15:00 AM -3.45 25.79 0 6.75 149.94 15.52
1/25/2021 3:30:00 AM -3.51 25.682 0 6.75 150.87 15.71
1/25/2021 3:45:00 AM -3.65 25.43 0 6.74 152.22 15.64
1/25/2021 4:00:00 AM -3.76 25.232 0 6.72 153.53 15.73
1/25/2021 4:15:00 AM -3.88 25.016 0 6.73 153.7 15.79
1/25/2021 4:30:00 AM -4.07 24.674 0 6.71 154.35 15.85
1/25/2021 4:45:00 AM -4.18 24.476 0 6.7 155.43 15.92
1/25/2021 5:00:00 AM -4.32 24.224 0 6.69 156.82 16.06
1/25/2021 5:15:00 AM -4.49 23.918 0 6.68 157.14 16.04
1/25/2021 5:30:00 AM -4.36 24.152 0 6.68 158.89 16.05
1/25/2021 5:45:00 AM -4.38 24.116 0 6.68 159.44 16
1/25/2021 6:00:00 AM -4.29 24.278 0 6.67 160.55 16.12
1/25/2021 6:15:00 AM -4.24 24.368 0 6.67 161.16 15.93
1/25/2021 6:30:00 AM -4.35 24.17 0 6.67 161.23 15.91
1/25/2021 6:45:00 AM -4.49 23.918 0 6.64 161.48 16.07
1/25/2021 7:00:00 AM -4.6 23.72 0 6.64 161.11 16.24
1/25/2021 7:15:00 AM -4.6 23.72 0 6.64 161.4 16
1/25/2021 7:30:00 AM -4.54 23.828 0 6.63 161.59 16.17
1/25/2021 7:45:00 AM -4.57 23.774 0 6.62 161.88 16.14
1/25/2021 8:00:00 AM -4.57 23.774 0 6.6 162.02 15.99
1/25/2021 8:15:00 AM -4.37 24.134 0 6.61 162.56 16.11
1/25/2021 8:30:00 AM -4.34 24.188 0 6.61 162.67 16.08
1/25/2021 8:45:00 AM -4.19 24.458 0 6.58 163.23 16.05
1/25/2021 9:00:00 AM -3.99 24.818 0 6.58 164.15 15.9
1/25/2021 9:15:00 AM -3.77 25.214 0 6.57 165.14 15.93
1/25/2021 9:30:00 AM -3.22 26.204 0 6.57 166.83 15.86
1/25/2021 9:45:00 AM -2.53 27.446 0 6.56 167.65 15.58
1/25/2021 10:00:00 AM -2.13 28.166 0 6.56 166.79 15.25
1/25/2021 10:15:00 AM -1.75 28.85 0 6.58 165.25 15.29
1/25/2021 10:30:00 AM -1.39 29.498 0 6.59 161.58 15.11
1/25/2021 10:45:00 AM -1.21 29.822 0 6.63 159.33 15.03
1/25/2021 11:00:00 AM -0.37 31.334 0 6.85 159.85 14.52
1/25/2021 11:15:00 AM -0.18 31.676 0 7.62 25.42 14.49
1/25/2021 11:30:00 AM -0.09 31.838 0 7.72 25.56 14.38
1/25/2021 11:45:00 AM -0.06 31.892 0 7.78 26.85 14.57
1/25/2021 12:00:00 PM -0.05 31.91 0 7.81 27.64 14.48
1/25/2021 12:15:00 PM -0.05 31.91 0.001 7.87 18.58 14.47
1/25/2021 12:30:00 PM -0.05 31.91 0.001 7.92 18.25 14.47
1/25/2021 12:45:00 PM -0.05 31.91 0.001 7.92 17.77 14.47
1/25/2021 1:00:00 PM -0.05 31.91 0.001 7.87 17.55 14.47
1/25/2021 1:15:00 PM -0.05 31.91 0.001 7.83 15.51 14.46
1/25/2021 1:30:00 PM -0.05 31.91 0.001 7.79 12.35 14.47
1/25/2021 1:45:00 PM -0.05 31.91 0.001 7.77 12.65 14.48
1/25/2021 2:00:00 PM -0.05 31.91 0.001 7.74 12.65 14.49
1/25/2021 2:15:00 PM -0.05 31.91 0.001 7.72 12.86 14.5
1/25/2021 2:30:00 PM -0.05 31.91 0.001 7.69 12.84 14.5
1/25/2021 2:45:00 PM -0.05 31.91 0.001 7.68 14.69 14.51
1/25/2021 3:00:00 PM -0.05 31.91 0.001 7.66 12.14 14.5
1/25/2021 3:15:00 PM -0.05 31.91 0.001 7.64 12.06 14.51
1/25/2021 3:30:00 PM -0.05 31.91 0.001 7.62 13.35 14.51
1/25/2021 3:45:00 PM -0.05 31.91 0.001 7.6 16.19 14.52
1/25/2021 4:00:00 PM -0.05 31.91 0.001 7.59 15.74 14.51
1/25/2021 4:15:00 PM -0.05 31.91 0.001 7.58 15 14.51
1/25/2021 4:30:00 PM -0.05 31.91 0.001 7.57 14.6 14.5
1/25/2021 4:45:00 PM -0.05 31.91 0.001 7.55 14.84 14.49
1/25/2021 5:00:00 PM -0.05 31.91 0.001 7.54 13.83 14.47
1/25/2021 5:15:00 PM -0.05 31.91 0.001 7.53 13.56 14.47
1/25/2021 5:30:00 PM -0.05 31.91 0.001 7.52 13.4 14.46
1/25/2021 5:45:00 PM -0.05 31.91 0.001 7.51 13.28 14.44
1/25/2021 6:00:00 PM -0.05 31.91 0.001 7.5 13.1 14.44
1/25/2021 6:15:00 PM -0.05 31.91 0.001 7.49 13.04 14.43
1/25/2021 6:30:00 PM -0.05 31.91 0.001 7.48 12.96 14.42
1/25/2021 6:45:00 PM -0.05 31.91 0.001 7.47 12.82 14.41
1/25/2021 7:00:00 PM -0.05 31.91 0.001 7.47 12.71 14.4
1/25/2021 7:15:00 PM -0.05 31.91 0.001 7.46 12.56 14.41
1/25/2021 7:30:00 PM -0.05 31.91 0.001 7.45 12.5 14.39
1/25/2021 7:45:00 PM -0.05 31.91 0.001 7.44 12.39 14.39
1/25/2021 8:00:00 PM -0.05 31.91 0.001 7.44 12.28 14.39
1/25/2021 8:15:00 PM -0.05 31.91 0.001 7.43 12.18 14.39
1/25/2021 8:30:00 PM -0.05 31.91 0.001 7.42 12.08 14.38
1/25/2021 8:45:00 PM -0.05 31.91 0.001 7.42 11.43 14.38
1/25/2021 9:00:00 PM -0.05 31.91 0.001 7.42 11.34 14.37
1/25/2021 9:15:00 PM -0.05 31.91 0.001 7.41 11.21 14.38
1/25/2021 9:30:00 PM -0.05 31.91 0.001 7.41 11.22 14.37
1/25/2021 9:45:00 PM -0.05 31.91 0.001 7.4 11.16 14.36
1/25/2021 10:00:00 PM -0.05 31.91 0.001 7.4 11.04 14.37
1/25/2021 10:15:00 PM -0.05 31.91 0.001 7.39 11.24 14.36
1/25/2021 10:30:00 PM -0.05 31.91 0.001 7.39 10.95 14.37
1/25/2021 10:45:00 PM -0.05 31.91 0.001 7.39 10.82 14.36
1/25/2021 11:00:00 PM -0.05 31.91 0.001 7.39 10.82 14.36
1/25/2021 11:15:00 PM -0.05 31.91 0.001 7.38 10.77 14.36
1/25/2021 11:30:00 PM -0.05 31.91 0.001 7.38 10.61 14.36
1/25/2021 11:45:00 PM -0.05 31.91 0.001 7.38 10.65 14.36
1/26/2021 12:00:00 AM -0.05 31.91 0.001 7.38 10.62 14.36
1/26/2021 12:15:00 AM -0.05 31.91 0.001 7.38 10.61 14.36
1/26/2021 12:30:00 AM -0.05 31.91 0.001 7.37 10.58 14.36
1/26/2021 12:45:00 AM -0.05 31.91 0.001 7.38 10.6 14.36
1/26/2021 1:00:00 AM -0.05 31.91 0.001 7.38 10.56 14.35
1/26/2021 1:15:00 AM -0.05 31.91 0.001 7.38 10.56 14.35
1/26/2021 1:30:00 AM -0.05 31.91 0.001 7.38 10.64 14.34
1/26/2021 1:45:00 AM -0.05 31.91 0.001 7.38 10.97 14.34
1/26/2021 2:00:00 AM -0.05 31.91 0.001 7.38 10.59 14.34
1/26/2021 2:15:00 AM -0.05 31.91 0.001 7.38 14.1 14.34
1/26/2021 2:30:00 AM -0.05 31.91 0.001 7.38 12.1 14.33
1/26/2021 2:45:00 AM -0.05 31.91 0.001 7.38 11.25 14.33
1/26/2021 3:00:00 AM -0.05 31.91 0.001 7.38 11.21 14.33
1/26/2021 3:15:00 AM -0.05 31.91 0.001 7.38 10.56 14.33
1/26/2021 3:30:00 AM -0.05 31.91 0.001 7.38 10.48 14.33
1/26/2021 3:45:00 AM -0.05 31.91 0.001 7.38 10.4 14.33
1/26/2021 4:00:00 AM -0.05 31.91 0.001 7.38 10.4 14.33
1/26/2021 4:15:00 AM -0.05 31.91 0.001 7.38 10.35 14.33
1/26/2021 4:30:00 AM -0.05 31.91 0.001 7.38 10.41 14.32
1/26/2021 4:45:00 AM -0.05 31.91 0.001 7.38 10.33 14.32
1/26/2021 5:00:00 AM -0.05 31.91 0.001 7.38 10.32 14.32
1/26/2021 5:15:00 AM -0.05 31.91 0.001 7.38 10.32 14.32
1/26/2021 5:30:00 AM -0.05 31.91 0.001 7.38 10.3 14.32
1/26/2021 5:45:00 AM -0.05 31.91 0.001 7.38 10.29 14.32
1/26/2021 6:00:00 AM -0.05 31.91 0.001 7.38 10.35 14.32
1/26/2021 6:15:00 AM -0.05 31.91 0.001 7.38 10.44 14.31
1/26/2021 6:30:00 AM -0.05 31.91 0.001 7.39 10.4 14.31
1/26/2021 6:45:00 AM -0.05 31.91 0.001 7.37 10.28 14.31
1/26/2021 7:00:00 AM -0.05 31.91 0.001 7.39 10.25 14.31
1/26/2021 7:15:00 AM -0.05 31.91 0.001 7.38 10.24 14.32
1/26/2021 7:30:00 AM -0.05 31.91 0.001 7.36 10.21 14.32
1/26/2021 7:45:00 AM -0.05 31.91 0.001 7.37 10.18 14.32
1/26/2021 8:00:00 AM -0.05 31.91 0.001 7.37 10.14 14.32
1/26/2021 8:15:00 AM -0.05 31.91 0.001 7.37 10.07 14.33
1/26/2021 8:30:00 AM -0.05 31.91 0.001 7.36 10.13 14.34
1/26/2021 8:45:00 AM -0.05 31.91 0.001 7.36 10.27 14.35
1/26/2021 9:00:00 AM -0.05 31.91 0.001 7.38 10.33 14.35
1/26/2021 9:15:00 AM -0.05 31.91 0.001 7.41 10.11 14.37
1/26/2021 9:30:00 AM -0.05 31.91 0.001 7.34 10.11 14.36
1/26/2021 9:45:00 AM -0.05 31.91 0.001 7.36 10.07 14.36
1/26/2021 10:00:00 AM -0.05 31.91 0.001 7.34 10.02 14.37
1/26/2021 10:15:00 AM -0.05 31.91 0.001 7.33 10.03 14.4
1/26/2021 10:30:00 AM -0.05 31.91 0.001 7.32 9.96 14.41
1/26/2021 10:45:00 AM -0.05 31.91 0.001 7.33 9.95 14.42
1/26/2021 11:00:00 AM -0.05 31.91 0.001 7.33 9.95 14.42
1/26/2021 11:15:00 AM -0.05 31.91 0.001 7.34 9.97 14.43
1/26/2021 11:30:00 AM -0.05 31.91 0.001 7.35 9.97 14.43
1/26/2021 11:45:00 AM -0.05 31.91 0.001 7.35 10.02 14.43
1/26/2021 12:00:00 PM -0.05 31.91 0.001 7.35 10.03 14.43
1/26/2021 12:15:00 PM -0.05 31.91 0.001 7.34 10.03 14.43
1/26/2021 12:30:00 PM -0.05 31.91 0.001 7.35 10.04 14.44
1/26/2021 12:45:00 PM -0.05 31.91 0.001 7.36 10.05 14.44
1/26/2021 1:00:00 PM -0.05 31.91 0.001 7.34 10.09 14.43
1/26/2021 1:15:00 PM -0.05 31.91 0.001 7.35 10.09 14.43
1/26/2021 1:30:00 PM -0.05 31.91 0.001 7.36 10.04 14.44
1/26/2021 1:45:00 PM -0.05 31.91 0.001 7.36 9.96 14.45
1/26/2021 2:00:00 PM -0.05 31.91 0.001 7.36 9.94 14.45
1/26/2021 2:15:00 PM -0.05 31.91 0.001 7.38 10 14.44
1/26/2021 2:30:00 PM -0.05 31.91 0.001 7.38 9.96 14.45
1/26/2021 2:45:00 PM -0.05 31.91 0.001 7.38 9.91 14.4
1/26/2021 3:00:00 PM -0.05 31.91 0.001 7.37 9.82 14.39
1/26/2021 3:15:00 PM -0.05 31.91 0.001 7.35 9.83 14.39
1/26/2021 3:30:00 PM -0.05 31.91 0 7.37 9.83 14.39
1/26/2021 3:45:00 PM -0.05 31.91 0 7.37 9.81 14.39
1/26/2021 4:00:00 PM -0.05 31.91 0 7.38 9.75 14.39
1/26/2021 4:15:00 PM -0.05 31.91 0 7.38 9.76 14.4
1/26/2021 4:30:00 PM -0.05 31.91 0 7.39 9.76 14.41
1/26/2021 4:45:00 PM -0.05 31.91 0 7.39 9.84 14.42
1/26/2021 5:00:00 PM -0.05 31.91 0 7.38 9.82 14.42
1/26/2021 5:15:00 PM -0.05 31.91 0 7.38 9.83 14.41
1/26/2021 5:30:00 PM -0.05 31.91 0 7.39 10.06 14.4
1/26/2021 5:45:00 PM -0.06 31.892 0 7.39 10.14 14.41
1/26/2021 6:00:00 PM -0.06 31.892 0 7.39 10.09 14.4
1/26/2021 6:15:00 PM -0.06 31.892 0 7.41 10.01 14.4
1/26/2021 6:30:00 PM -0.06 31.892 0 7.41 9.81 14.4
1/26/2021 6:45:00 PM -0.06 31.892 0 7.42 9.82 14.4
1/26/2021 7:00:00 PM -0.06 31.892 0 7.42 9.87 14.4
1/26/2021 7:15:00 PM -0.06 31.892 0 7.43 10 14.39
1/26/2021 7:30:00 PM -0.06 31.892 0 7.43 10.1 14.4
1/26/2021 7:45:00 PM -0.06 31.892 0 7.44 10.24 14.4
1/26/2021 8:00:00 PM -0.06 31.892 0 7.45 14.66 14.4
1/26/2021 8:15:00 PM -0.07 31.874 0 7.44 43.25 14.4
1/26/2021 8:30:00 PM -0.07 31.874 0 7.44 257.39 14.41
1/26/2021 8:45:00 PM -0.07 31.874 0 7.44 245.82 14.41
1/26/2021 9:00:00 PM -0.07 31.874 0 7.44 234.5 14.4
1/26/2021 9:15:00 PM -0.08 31.856 0 7.44 235.8 14.4
1/26/2021 9:30:00 PM -0.08 31.856 0 7.44 235.27 14.41
1/26/2021 9:45:00 PM -0.08 31.856 0 7.44 236.69 14.41
1/26/2021 10:00:00 PM -0.08 31.856 0 7.43 239.61 14.41
1/26/2021 10:15:00 PM -0.08 31.856 0 7.43 241.09 14.41
1/26/2021 10:30:00 PM -0.08 31.856 0 7.43 249.5 14.41
1/26/2021 10:45:00 PM -0.08 31.856 0 7.42 251.09 14.41
1/26/2021 11:00:00 PM -0.08 31.856 0 7.42 252.51 14.41
1/26/2021 11:15:00 PM -0.08 31.856 0 7.42 253.87 14.41
1/26/2021 11:30:00 PM -0.08 31.856 0 7.42 254.23 14.41
1/26/2021 11:45:00 PM -0.08 31.856 0 7.42 254.47 14.41
1/27/2021 12:00:00 AM -0.08 31.856 0 7.42 254.67 14.4
1/27/2021 12:15:00 AM -0.08 31.856 0 7.42 254.58 14.41
1/27/2021 12:30:00 AM -0.08 31.856 0 7.42 250.45 14.4
1/27/2021 12:45:00 AM -0.08 31.856 0 7.43 248.68 14.4
1/27/2021 1:00:00 AM -0.08 31.856 0 7.43 247 14.4
1/27/2021 1:15:00 AM -0.07 31.874 0 7.45 246.35 14.4
1/27/2021 1:30:00 AM -0.07 31.874 0 7.45 245.22 14.4
1/27/2021 1:45:00 AM -0.07 31.874 0 7.41 244.41 14.41
1/27/2021 2:00:00 AM -0.07 31.874 0 7.4 243.17 14.42
1/27/2021 2:15:00 AM -0.07 31.874 0 7.4 241.92 14.41
1/27/2021 2:30:00 AM -0.07 31.874 0 7.41 240.66 14.42
1/27/2021 2:45:00 AM -0.07 31.874 0 7.41 240.53 14.43
1/27/2021 3:00:00 AM -0.07 31.874 0 7.41 240.09 14.43
1/27/2021 3:15:00 AM -0.07 31.874 0 7.41 240 14.43
1/27/2021 3:30:00 AM -0.07 31.874 0 7.42 239.39 14.44
1/27/2021 3:45:00 AM -0.07 31.874 0 7.42 238.43 14.44
1/27/2021 4:00:00 AM -0.07 31.874 0 7.43 237.41 14.44
1/27/2021 4:15:00 AM -0.07 31.874 0 7.42 235.92 14.45
1/27/2021 4:30:00 AM -0.07 31.874 0 7.41 234.86 14.46
1/27/2021 4:45:00 AM -0.07 31.874 0 7.42 234.65 14.46
1/27/2021 5:00:00 AM -0.08 31.856 0 7.41 235.17 14.46
1/27/2021 5:15:00 AM -0.08 31.856 0 7.41 235.37 14.47
1/27/2021 5:30:00 AM -0.09 31.838 0 7.4 237.49 14.47
1/27/2021 5:45:00 AM -0.11 31.802 0 7.37 243.06 14.48
1/27/2021 6:00:00 AM -0.13 31.766 0 7.34 250.2 14.49
1/27/2021 6:15:00 AM -0.16 31.712 0 7.3 258.3 14.5
1/27/2021 6:30:00 AM -0.2 31.64 0 7.25 264.36 14.52
1/27/2021 6:45:00 AM -0.25 31.55 0 7.17 265.9 14.53
1/27/2021 7:00:00 AM -0.28 31.496 0 7.15 265.59 14.54
1/27/2021 7:15:00 AM -0.32 31.424 0 7.14 265.59 14.57
1/27/2021 7:30:00 AM -0.35 31.37 0 7.13 265.69 14.58
1/27/2021 7:45:00 AM -0.4 31.28 0 7.1 264.41 14.58
1/27/2021 8:00:00 AM -0.44 31.208 0 7.1 263.71 14.64
1/27/2021 8:15:00 AM -0.46 31.172 0 7.1 263.33 14.63
1/27/2021 8:30:00 AM -0.47 31.154 0 7.1 262.04 14.65
1/27/2021 8:45:00 AM -0.47 31.154 0 7.12 260.69 14.66
1/27/2021 9:00:00 AM -0.51 31.082 0 7.11 258.92 14.68
1/27/2021 9:15:00 AM -0.57 30.974 0 7.09 256.86 14.68
1/27/2021 9:30:00 AM -0.64 30.848 0 7.07 254.92 14.72
1/27/2021 9:45:00 AM -0.69 30.758 0 7.06 253.15 14.73
1/27/2021 10:00:00 AM -0.66 30.812 0 7.1 251.72 14.76
1/27/2021 10:15:00 AM -0.63 30.866 0 7.12 250.56 14.74
1/27/2021 10:30:00 AM -0.59 30.938 0 7.14 249.26 14.73
1/27/2021 10:45:00 AM -0.56 30.992 0 7.17 248.18 14.71
1/27/2021 11:00:00 AM -0.62 30.884 0 7.14 246.39 14.76
1/27/2021 11:15:00 AM -0.67 30.794 0 7.12 244.54 14.74
1/27/2021 11:30:00 AM -0.69 30.758 0 7.13 242.94 14.8
1/27/2021 11:45:00 AM -0.73 30.686 0 7.11 241.38 14.81
1/27/2021 12:00:00 PM -0.78 30.596 0 7.11 239.96 14.83
1/27/2021 12:15:00 PM -0.78 30.596 0 7.11 238.67 14.82
1/27/2021 12:30:00 PM -0.83 30.506 0 7.11 237.36 14.85
1/27/2021 12:45:00 PM -0.84 30.488 0 7.11 236.07 14.87
1/27/2021 1:00:00 PM -0.87 30.434 0 7.1 234.88 14.88
1/27/2021 1:15:00 PM -0.88 30.416 0 7.11 233.72 14.89
1/27/2021 1:30:00 PM -0.85 30.47 0 7.13 232.76 14.86
1/27/2021 1:45:00 PM -0.87 30.434 0 7.12 231.76 14.88
1/27/2021 2:00:00 PM -0.88 30.416 0 7.13 230.86 14.88
1/27/2021 2:15:00 PM -0.83 30.506 0 7.15 230.09 14.85
1/27/2021 2:30:00 PM -0.83 30.506 0 7.15 229.31 14.86
1/27/2021 2:45:00 PM -0.84 30.488 0 7.15 228.45 14.87
1/27/2021 3:00:00 PM -0.88 30.416 0 7.14 227.62 14.89
1/27/2021 3:15:00 PM -0.92 30.344 0 7.13 226.75 14.91
1/27/2021 3:30:00 PM -0.93 30.326 0 7.13 225.94 14.92
1/27/2021 3:45:00 PM -0.96 30.272 0 7.13 225.14 14.93
1/27/2021 4:00:00 PM -1 30.2 0 7.12 224.28 14.96
1/27/2021 4:15:00 PM -1.02 30.164 0 7.12 223.38 14.96
1/27/2021 4:30:00 PM -1.07 30.074 0 7.11 222.53 14.95
1/27/2021 4:45:00 PM -1.17 29.894 0 7.1 221.56 15.03
1/27/2021 5:00:00 PM -1.2 29.84 0 7.1 220.79 15.05
1/27/2021 5:15:00 PM -1.24 29.768 0 7.1 220.06 15.06
1/27/2021 5:30:00 PM -1.24 29.768 0 7.11 219.33 15.05
1/27/2021 5:45:00 PM -1.29 29.678 0 7.1 218.7 15.09
1/27/2021 6:00:00 PM -1.33 29.606 0 7.1 218.29 15.1
1/27/2021 6:15:00 PM -1.35 29.57 0 7.1 217.73 15.11
1/27/2021 6:30:00 PM -1.38 29.516 0 7.1 217.24 15.14
1/27/2021 6:45:00 PM -1.4 29.48 0 7.1 216.54 15.15
1/27/2021 7:00:00 PM -1.43 29.426 0 7.1 215.85 15.17
1/27/2021 7:15:00 PM -1.45 29.39 0 7.1 215.29 15.18
1/27/2021 7:30:00 PM -1.47 29.354 0 7.1 214.66 15.19
1/27/2021 7:45:00 PM -1.48 29.336 0 7.11 213.9 15.19
1/27/2021 8:00:00 PM -1.49 29.318 0 7.11 213.32 15.2
1/27/2021 8:15:00 PM -1.54 29.228 0 7.11 212.58 15.21
1/27/2021 8:30:00 PM -1.58 29.156 0 7.1 211.98 15.22
1/27/2021 8:45:00 PM -1.64 29.048 0 7.1 211.43 15.25
1/27/2021 9:00:00 PM -1.68 28.976 0 7.09 210.79 15.27
1/27/2021 9:15:00 PM -1.72 28.904 0 7.09 210.22 15.29
1/27/2021 9:30:00 PM -1.74 28.868 0 7.09 209.67 15.29
1/27/2021 9:45:00 PM -1.78 28.796 0 7.09 209.18 15.31
1/27/2021 10:00:00 PM -1.8 28.76 0 7.09 208.58 15.32
1/27/2021 10:15:00 PM -1.81 28.742 0 7.09 208 15.33
1/27/2021 10:30:00 PM -1.84 28.688 0 7.09 207.41 15.34
1/27/2021 10:45:00 PM -1.88 28.616 0 7.09 206.73 15.36
1/27/2021 11:00:00 PM -1.92 28.544 0 7.09 206.02 15.36
1/27/2021 11:15:00 PM -1.99 28.418 0 7.08 205.32 15.41
1/27/2021 11:30:00 PM -2.04 28.328 0 7.08 204.62 15.43
1/27/2021 11:45:00 PM -2.1 28.22 0 7.07 203.95 15.46
1/28/2021 12:00:00 AM -2.19 28.058 0 7.06 203.27 15.48
1/28/2021 12:15:00 AM -2.33 27.806 0 7.05 202.65 15.54
1/28/2021 12:30:00 AM -2.5 27.5 0 7.04 202.09 15.62
1/28/2021 12:45:00 AM -2.59 27.338 0 7.03 201.57 15.66
1/28/2021 1:00:00 AM -2.69 27.158 0 7.03 201.39 15.7
1/28/2021 1:15:00 AM -2.85 26.87 0 7.01 201.26 15.78
1/28/2021 1:30:00 AM -3.01 26.582 0 7 201.38 15.86
1/28/2021 1:45:00 AM -3.19 26.258 0 6.99 202.06 15.93
1/28/2021 2:00:00 AM -3.38 25.916 0 6.98 202.69 16.05
1/28/2021 2:15:00 AM -3.58 25.556 0 6.97 202.39 16.15
1/28/2021 2:30:00 AM -3.76 25.232 0 6.96 201.49 16.26
1/28/2021 2:45:00 AM -3.92 24.944 0 6.96 200.5 16.36
1/28/2021 3:00:00 AM -4.08 24.656 0 6.95 199.61 16.43
1/28/2021 3:15:00 AM -4.23 24.386 0 6.94 198.69 16.53
1/28/2021 3:30:00 AM -4.27 24.314 0 6.94 197.79 16.57
1/28/2021 3:45:00 AM -4.28 24.296 0 6.95 196.71 16.57
1/28/2021 4:00:00 AM -4.27 24.314 0 6.95 195.4 16.57
1/28/2021 4:15:00 AM -4.26 24.332 0 6.95 193.69 16.56
1/28/2021 4:30:00 AM -4.24 24.368 0 6.95 192 16.54
1/28/2021 4:45:00 AM -4.2 24.44 0 6.96 190.2 16.53
1/28/2021 5:00:00 AM -4.15 24.53 0 6.96 188.48 16.5
1/28/2021 5:15:00 AM -4.11 24.602 0 6.96 186.83 16.48
1/28/2021 5:30:00 AM -4.07 24.674 0 6.97 185.24 16.45
1/28/2021 5:45:00 AM -4.03 24.746 0 6.97 183.7 16.42
1/28/2021 6:00:00 AM -3.99 24.818 0 6.97 182.24 16.41
1/28/2021 6:15:00 AM -3.98 24.836 0 6.97 180.64 16.4
1/28/2021 6:30:00 AM -3.97 24.854 0 6.97 179.28 16.39
1/28/2021 6:45:00 AM -3.95 24.89 0 6.98 177.88 16.38
1/28/2021 7:00:00 AM -3.92 24.944 0 6.98 176.51 16.37
1/28/2021 7:15:00 AM -3.96 24.872 0 6.98 175.24 16.39
1/28/2021 7:30:00 AM -4 24.8 0 6.97 174 16.41
1/28/2021 7:45:00 AM -4.04 24.728 0 6.97 172.74 16.44
1/28/2021 8:00:00 AM -4.03 24.746 0 6.97 171.42 16.43
1/28/2021 8:15:00 AM -4 24.8 0 6.97 170.18 16.42
1/28/2021 8:30:00 AM -3.9 24.98 0 6.98 169.2 16.37
1/28/2021 8:45:00 AM -3.8 25.16 0 6.99 168.41 16.31
1/28/2021 9:00:00 AM -3.74 25.268 0 6.99 167.6 16.27
1/28/2021 9:15:00 AM -3.7 25.34 0 6.99 166.97 16.26
1/28/2021 9:30:00 AM -3.57 25.574 0 7 166.23 16.17
1/28/2021 9:45:00 AM -3.55 25.61 0 7 165.39 16.17
1/28/2021 10:00:00 AM -3.47 25.754 0 7.01 164.59 16.09
1/28/2021 10:15:00 AM -3.39 25.898 0 7.02 164.07 16.08
1/28/2021 10:30:00 AM -3.22 26.204 0 7.04 163.48 15.93
1/28/2021 10:45:00 AM -3.12 26.384 0 7.06 163.04 15.91
1/28/2021 11:00:00 AM -3.06 26.492 0 7.06 162.35 15.92
1/28/2021 11:15:00 AM -3 26.6 0 7.07 161.57 15.86
1/28/2021 11:30:00 AM -2.97 26.654 0 7.07 160.78 15.85
1/28/2021 11:45:00 AM -3 26.6 0 7.07 159.92 15.86
1/28/2021 12:00:00 PM -3.01 26.582 0 7.07 159.09 15.86
1/28/2021 12:15:00 PM -3.11 26.402 0 7.05 158.39 15.89
1/28/2021 12:30:00 PM -3.24 26.168 0 7.04 157.61 15.98
1/28/2021 12:45:00 PM -3.33 26.006 0 7.04 157.04 16.02
1/28/2021 1:00:00 PM -3.38 25.916 0 7.03 156.41 16.03
1/28/2021 1:15:00 PM -3.46 25.772 0 7.04 155.8 16.07
1/28/2021 1:30:00 PM -3.32 26.024 0 7.1 155.51 16.03
1/28/2021 1:45:00 PM -3.26 26.132 0 7.09 155.7 16
1/28/2021 2:00:00 PM -3.39 25.898 0 7.08 155.49 15.98
1/28/2021 2:15:00 PM -3.64 25.448 0 7.07 154.88 16.19
1/28/2021 2:30:00 PM -3.78 25.196 0 7.07 153.85 16.28
1/28/2021 2:45:00 PM -3.79 25.178 0 7.08 153.13 16.29
1/28/2021 3:00:00 PM -3.93 24.926 0 7.07 152.51 16.27
1/28/2021 3:15:00 PM -4.14 24.548 0 7.06 151.86 16.5
1/28/2021 3:30:00 PM -4.21 24.422 0 7.06 151.09 16.51
1/28/2021 3:45:00 PM -4.41 24.062 0 7.05 150.66 16.66
1/28/2021 4:00:00 PM -4.55 23.81 0 7.05 150.14 16.72
1/28/2021 4:15:00 PM -4.79 23.378 0 7.04 149.72 16.84
1/28/2021 4:30:00 PM -4.83 23.306 0 7.04 149.59 16.89
1/28/2021 4:45:00 PM -4.9 23.18 0 7.04 149.41 16.93
1/28/2021 5:00:00 PM -5.02 22.964 0 7.03 149.36 16.98
1/28/2021 5:15:00 PM -5.13 22.766 0 7.03 149.3 17.05
1/28/2021 5:30:00 PM -5.22 22.604 0 7.03 149.25 17.12
1/28/2021 5:45:00 PM -5.34 22.388 0 7.02 149.38 17.18
1/28/2021 6:00:00 PM -5.46 22.172 0 7.02 149.27 17.16
1/28/2021 6:15:00 PM -5.54 22.028 0 7.02 149.21 17.29
1/28/2021 6:30:00 PM -5.57 21.974 0 7.02 149.38 17.31
1/28/2021 6:45:00 PM -5.58 21.956 0 7.02 149.43 17.29
1/28/2021 7:00:00 PM -5.6 21.92 0 7.02 149.58 17.3
1/28/2021 7:15:00 PM -5.68 21.776 0 7.01 149.78 17.36
1/28/2021 7:30:00 PM -5.73 21.686 0 7.01 149.87 17.39
1/28/2021 7:45:00 PM -5.75 21.65 0 7.01 150.02 17.37
1/28/2021 8:00:00 PM -5.77 21.614 0 7.01 150.18 17.4
1/28/2021 8:15:00 PM -5.77 21.614 0 7.01 150.73 17.41
1/28/2021 8:30:00 PM -5.76 21.632 0 7.01 151.1 17.4
1/28/2021 8:45:00 PM -5.71 21.722 0 7.01 151.63 17.36
1/28/2021 9:00:00 PM -5.7 21.74 0 7.01 152.06 17.33
1/28/2021 9:15:00 PM -5.69 21.758 0 7.01 152.61 17.32
1/28/2021 9:30:00 PM -5.64 21.848 0 7.02 153.16 17.31
1/28/2021 9:45:00 PM -5.62 21.884 0 7.02 153.44 17.25
1/28/2021 10:00:00 PM -5.6 21.92 0 7.02 153.74 17.28
1/28/2021 10:15:00 PM -5.61 21.902 0 7.02 154.2 17.29
1/28/2021 10:30:00 PM -5.61 21.902 0 7.02 154.46 17.26
1/28/2021 10:45:00 PM -5.6 21.92 0 7.02 154.81 17.28
1/28/2021 11:00:00 PM -5.55 22.01 0 7.02 155.33 17.24
1/28/2021 11:15:00 PM -5.52 22.064 0 7.02 155.77 17.19
1/28/2021 11:30:00 PM -5.43 22.226 0 7.03 156.32 17.15
1/28/2021 11:45:00 PM -5.38 22.316 0 7.03 156.82 17.12
1/29/2021 12:00:00 AM -5.29 22.478 0 7.03 157.21 17.07
1/29/2021 12:15:00 AM -5.2 22.64 0 7.04 157.46 17.01
1/29/2021 12:30:00 AM -5.12 22.784 0 7.04 157.61 16.97
1/29/2021 12:45:00 AM -5.06 22.892 0 7.04 157.69 16.92
1/29/2021 1:00:00 AM -5.07 22.874 0 7.04 157.67 16.92
1/29/2021 1:15:00 AM -5.1 22.82 0 7.04 157.95 16.93
1/29/2021 1:30:00 AM -5.14 22.748 0 7.04 158.34 16.94
1/29/2021 1:45:00 AM -5.15 22.73 0 7.04 158.82 16.95
1/29/2021 2:00:00 AM -5.27 22.514 0 7.03 159.01 16.98
1/29/2021 2:15:00 AM -5.36 22.352 0 7.02 159.19 17.06
1/29/2021 2:30:00 AM -5.35 22.37 0 7.03 159.39 17.04
1/29/2021 2:45:00 AM -5.43 22.226 0 7.02 159.56 17.09
1/29/2021 3:00:00 AM -5.48 22.136 0 7.02 159.72 17.11
1/29/2021 3:15:00 AM -5.57 21.974 0 7.02 159.74 17.2
1/29/2021 3:30:00 AM -5.57 21.974 0 7.02 160.1 17.13
1/29/2021 3:45:00 AM -5.58 21.956 0 7.02 160.18 17.2
1/29/2021 4:00:00 AM -5.57 21.974 0 7.02 160.6 17.18
1/29/2021 4:15:00 AM -5.69 21.758 0 7.01 160.91 17.17
1/29/2021 4:30:00 AM -5.83 21.506 0 7 161.28 17.27
1/29/2021 4:45:00 AM -5.99 21.218 0 7 161.84 17.41
1/29/2021 5:00:00 AM -6.08 21.056 0 6.99 162.5 17.45
1/29/2021 5:15:00 AM -6.26 20.732 0 6.99 162.8 17.51
1/29/2021 5:30:00 AM -6.42 20.444 0 6.98 163.39 17.66
1/29/2021 5:45:00 AM -6.47 20.354 0 6.98 164.27 17.68
1/29/2021 6:00:00 AM -6.57 20.174 0 6.98 165.26 17.73
1/29/2021 6:15:00 AM -6.6 20.12 0 6.97 166.65 17.77
1/29/2021 6:30:00 AM -6.64 20.048 0 6.97 168.49 17.81
1/29/2021 6:45:00 AM -6.56 20.192 0 6.97 170.54 17.75
1/29/2021 7:00:00 AM -6.52 20.264 0 6.98 172.75 17.7
1/29/2021 7:15:00 AM -6.56 20.192 0 6.97 174.81 17.74
1/29/2021 7:30:00 AM -6.54 20.228 0 6.97 177.09 17.69
1/29/2021 7:45:00 AM -6.49 20.318 0 6.97 179.68 17.69
1/29/2021 8:00:00 AM -6.41 20.462 0 6.98 181.65 17.62
1/29/2021 8:15:00 AM -6.5 20.3 0 6.98 183.43 17.7
1/29/2021 8:30:00 AM -6.53 20.246 0 6.97 184.98 17.72
1/29/2021 8:45:00 AM -6.44 20.408 0 6.98 185.78 17.67
1/29/2021 9:00:00 AM -6.38 20.516 0 6.98 186.74 17.61
1/29/2021 9:15:00 AM -6.27 20.714 0 6.99 188.1 17.58
1/29/2021 9:30:00 AM -6.03 21.146 0 7 189.88 17.45
1/29/2021 9:45:00 AM -5.6 21.92 0 7.02 192.65 17.21
1/29/2021 10:00:00 AM -5.17 22.694 0 7.04 196.65 16.99
1/29/2021 10:15:00 AM -4.92 23.144 0 7.05 200.62 16.82
1/29/2021 10:30:00 AM -4.78 23.396 0 7.06 200.09 16.75
1/29/2021 10:45:00 AM -4.54 23.828 0 7.07 198.36 16.6
1/29/2021 11:00:00 AM -4.38 24.116 0 7.08 195.41 16.49
1/29/2021 11:15:00 AM -4.24 24.368 0 7.09 193.99 16.48
1/29/2021 11:30:00 AM -4.14 24.548 0 7.1 192.88 16.37
1/29/2021 11:45:00 AM -4.03 24.746 0 7.11 191.95 16.33
1/29/2021 12:00:00 PM -3.86 25.052 0 7.12 192.06 16.27
1/29/2021 12:15:00 PM -3.58 25.556 0 7.15 192.94 16.06
1/29/2021 12:30:00 PM -3.55 25.61 0 7.15 193.63 16.09
1/29/2021 12:45:00 PM -3.37 25.934 0 7.16 194.57 16.02
1/29/2021 1:00:00 PM -3.3 26.06 0 7.17 194.76 15.99
1/29/2021 1:15:00 PM -3.21 26.222 0 7.17 194.36 15.92
1/29/2021 1:30:00 PM -3.13 26.366 0 7.18 194.1 15.84
1/29/2021 1:45:00 PM -3.14 26.348 0 7.17 192.94 15.84
1/29/2021 2:00:00 PM -3.03 26.546 0 7.19 191.45 15.8
1/29/2021 2:15:00 PM -2.89 26.798 0 7.19 187.81 15.73
1/29/2021 2:30:00 PM -2.72 27.104 0 7.2 180.03 15.63
1/29/2021 2:45:00 PM -2.57 27.374 0 7.2 181.9 15.55
1/29/2021 3:00:00 PM -2.46 27.572 0 7.2 175.02 15.51
1/29/2021 3:15:00 PM -2.47 27.554 0 7.18 163 15.53
1/29/2021 3:30:00 PM -2.46 27.572 0 7.17 156.68 15.52
1/29/2021 3:45:00 PM -2.37 27.734 0 7.19 148.48 15.43
1/29/2021 4:00:00 PM -1.84 28.688 0 7.21 128.73 15.14
1/29/2021 4:15:00 PM -1.79 28.778 0 7.21 126.62 15.13
1/29/2021 4:30:00 PM -1.32 29.624 0 7.21 126.17 14.83
1/29/2021 4:45:00 PM -0.52 31.064 0 7.65 11.16 14.4
1/29/2021 5:00:00 PM -0.51 31.082 0 7.68 11.19 14.44
1/29/2021 5:15:00 PM -0.62 30.884 0 7.64 10.86 14.48
1/29/2021 5:30:00 PM -0.68 30.776 0 7.59 11.16 14.54
1/29/2021 5:45:00 PM -0.76 30.632 0 7.55 11.04 14.51
1/29/2021 6:00:00 PM -0.86 30.452 0 7.5 11.1 14.61
1/29/2021 6:15:00 PM -0.93 30.326 0 7.47 11.23 14.66
1/29/2021 6:30:00 PM -0.99 30.218 0 7.46 11.41 14.69
1/29/2021 6:45:00 PM -1.04 30.128 0 7.44 11.61 14.69
1/29/2021 7:00:00 PM -1.11 30.002 0 7.42 11.9 14.74
1/29/2021 7:15:00 PM -1.17 29.894 0 7.44 12.24 14.77
1/29/2021 7:30:00 PM -1.26 29.732 0 7.41 12.68 14.81
1/29/2021 7:45:00 PM -1.37 29.534 0 7.38 13.02 14.86
1/29/2021 8:00:00 PM -1.46 29.372 0 7.37 13.33 14.9
1/29/2021 8:15:00 PM -1.53 29.246 0 7.37 13.71 14.93
1/29/2021 8:30:00 PM -1.56 29.192 0 7.38 14.1 14.96
1/29/2021 8:45:00 PM -1.5 29.3 0 7.42 14.52 14.96
1/29/2021 9:00:00 PM -1.47 29.354 0 7.43 14.82 14.95
1/29/2021 9:15:00 PM -1.45 29.39 0 7.44 15 14.95
1/29/2021 9:30:00 PM -1.44 29.408 0 7.44 15.19 14.96
1/29/2021 9:45:00 PM -1.45 29.39 0 7.45 15.4 14.95
1/29/2021 10:00:00 PM -1.46 29.372 0 7.45 15.65 14.96
1/29/2021 10:15:00 PM -1.45 29.39 0 7.46 15.79 14.97
1/29/2021 10:30:00 PM -1.44 29.408 0 7.46 15.84 14.97
1/29/2021 10:45:00 PM -1.44 29.408 0 7.47 15.84 14.97
1/29/2021 11:00:00 PM -1.45 29.39 0 7.47 15.85 14.96
1/29/2021 11:15:00 PM -1.45 29.39 0 7.47 15.89 14.98
1/29/2021 11:30:00 PM -1.46 29.372 0 7.47 15.96 14.98
1/29/2021 11:45:00 PM -1.49 29.318 0 7.47 16.06 15
1/30/2021 12:00:00 AM -1.52 29.264 0 7.47 16.07 15.02
1/30/2021 12:15:00 AM -1.54 29.228 0 7.47 16.14 15.04
1/30/2021 12:30:00 AM -1.58 29.156 0 7.46 16.24 15.05
1/30/2021 12:45:00 AM -1.58 29.156 0 7.46 16.28 15.06
1/30/2021 1:00:00 AM -1.62 29.084 0 7.46 16.29 14.96
1/30/2021 1:15:00 AM -1.67 28.994 0 7.45 16.37 15.09
1/30/2021 1:30:00 AM -1.72 28.904 0 7.45 16.48 15.09
1/30/2021 1:45:00 AM -1.83 28.706 0 7.43 16.6 15.15
1/30/2021 2:00:00 AM -1.87 28.634 0 7.43 16.69 15.19
1/30/2021 2:15:00 AM -1.91 28.562 0 7.42 16.75 15.16
1/30/2021 2:30:00 AM -1.95 28.49 0 7.42 16.9 15.22
1/30/2021 2:45:00 AM -1.96 28.472 0 7.43 17.02 15.2
1/30/2021 3:00:00 AM -2 28.4 0 7.43 17.02 15.24
1/30/2021 3:15:00 AM -1.98 28.436 0 7.43 17 15.21
1/30/2021 3:30:00 AM -2 28.4 0 7.43 17.12 15.22
1/30/2021 3:45:00 AM -2.1 28.22 0 7.42 17.19 15.27
1/30/2021 4:00:00 AM -2.16 28.112 0 7.41 17.16 15.3
1/30/2021 4:15:00 AM -2.28 27.896 0 7.4 17.15 15.35
1/30/2021 4:30:00 AM -2.31 27.842 0 7.4 17.16 15.4
1/30/2021 4:45:00 AM -2.36 27.752 0 7.4 17.19 15.38
1/30/2021 5:00:00 AM -2.48 27.536 0 7.39 17.28 15.39
1/30/2021 5:15:00 AM -2.51 27.482 0 7.38 17.24 15.49
1/30/2021 5:30:00 AM -2.61 27.302 0 7.38 17.23 15.51
1/30/2021 5:45:00 AM -2.62 27.284 0 7.38 17.24 15.56
1/30/2021 6:00:00 AM -2.55 27.41 0 7.38 17.38 15.5
1/30/2021 6:15:00 AM -2.72 27.104 0 7.37 17.52 15.62
1/30/2021 6:30:00 AM -2.85 26.87 0 7.36 17.59 15.7
1/30/2021 6:45:00 AM -2.92 26.744 0 7.35 17.7 15.73
1/30/2021 7:00:00 AM -2.9 26.78 0 7.36 17.77 15.74
1/30/2021 7:15:00 AM -2.93 26.726 0 7.37 17.82 15.74
1/30/2021 7:30:00 AM -2.97 26.654 0 7.37 17.89 15.75
1/30/2021 7:45:00 AM -3.05 26.51 0 7.36 17.95 15.81
1/30/2021 8:00:00 AM -3.16 26.312 0 7.35 18.07 15.86
1/30/2021 8:15:00 AM -3.27 26.114 0 7.34 18.28 15.94
1/30/2021 8:30:00 AM -3.3 26.06 0 7.35 18.6 15.96
1/30/2021 8:45:00 AM -3.41 25.862 0 7.34 18.81 15.98
1/30/2021 9:00:00 AM -3.44 25.808 0 7.34 18.86 16.02
1/30/2021 9:15:00 AM -3.47 25.754 0 7.33 18.94 16.07
1/30/2021 9:30:00 AM -3.34 25.988 0 7.34 18.96 15.99
1/30/2021 9:45:00 AM -3.07 26.474 0 7.44 18.97 15.9
1/30/2021 10:00:00 AM -2.77 27.014 0 7.46 18.85 15.73
1/30/2021 10:15:00 AM -0.45 31.19 0 7.88 18.05 15.63
1/30/2021 10:30:00 AM -0.16 31.712 0 8.08 17.03 15.45
1/30/2021 10:45:00 AM -0.11 31.802 0 8.08 16.7 15.14
1/30/2021 11:00:00 AM -0.1 31.82 0 7.97 16.37 15.27
1/30/2021 11:15:00 AM -0.09 31.838 0 7.94 16.21 15.44
1/30/2021 11:30:00 AM -0.09 31.838 0 7.87 15.69 15.73
1/30/2021 11:45:00 AM -0.09 31.838 0 7.83 15.44 16.13
1/30/2021 12:00:00 PM -0.09 31.838 0 7.78 15.12 16.46
1/30/2021 12:15:00 PM -0.08 31.856 0 7.75 15.1 16.38
1/30/2021 12:30:00 PM -0.08 31.856 0 7.75 15.15 16.18
1/30/2021 12:45:00 PM -0.08 31.856 0 7.75 14.96 16.17
1/30/2021 1:00:00 PM -0.08 31.856 0 7.73 14.75 16.17
1/30/2021 1:15:00 PM -0.08 31.856 0 7.69 14.52 16.53
1/30/2021 1:30:00 PM -0.07 31.874 0 7.63 14.46 15.56
1/30/2021 1:45:00 PM -0.07 31.874 0 7.62 14.43 15.21
1/30/2021 2:00:00 PM -0.07 31.874 0 7.62 14.51 14.99
1/30/2021 2:15:00 PM -0.07 31.874 0 7.61 14.47 15.09
1/30/2021 2:30:00 PM -0.07 31.874 0.001 7.6 14.41 15.01
1/30/2021 2:45:00 PM -0.07 31.874 0.001 7.58 14.36 15.01
1/30/2021 3:00:00 PM -0.07 31.874 0 7.57 14.21 15.06
1/30/2021 3:15:00 PM -0.07 31.874 0 7.55 14.13 15.04
1/30/2021 3:30:00 PM -0.06 31.892 0 7.53 13.98 15
1/30/2021 3:45:00 PM -0.06 31.892 0 7.51 13.89 14.97
1/30/2021 4:00:00 PM -0.06 31.892 0 7.49 13.82 14.97
1/30/2021 4:15:00 PM -0.06 31.892 0 7.49 13.74 14.96
1/30/2021 4:30:00 PM -0.06 31.892 0 7.48 13.71 14.95
1/30/2021 4:45:00 PM -0.06 31.892 0 7.45 13.67 14.94
1/30/2021 5:00:00 PM -0.06 31.892 0 7.43 13.6 14.92
1/30/2021 5:15:00 PM -0.06 31.892 0 7.4 13.56 14.9
1/30/2021 5:30:00 PM -0.06 31.892 0 7.44 13.54 14.87
1/30/2021 5:45:00 PM -0.06 31.892 0 7.52 13.46 14.84
1/30/2021 6:00:00 PM -0.06 31.892 0 7.54 13.46 14.82
1/30/2021 6:15:00 PM -0.06 31.892 0 7.54 13.45 14.81
1/30/2021 6:30:00 PM -0.06 31.892 0 7.53 13.4 14.83
1/30/2021 6:45:00 PM -0.06 31.892 0 7.52 13.39 14.94
1/30/2021 7:00:00 PM -0.06 31.892 0 7.51 13.39 14.92
1/30/2021 7:15:00 PM -0.06 31.892 0 7.51 13.37 14.88
1/30/2021 7:30:00 PM -0.06 31.892 0 7.5 13.41 14.87
1/30/2021 7:45:00 PM -0.06 31.892 0 7.49 13.4 14.88
1/30/2021 8:00:00 PM -0.06 31.892 0 7.49 13.38 14.92
1/30/2021 8:15:00 PM -0.06 31.892 0 7.48 13.38 14.96
1/30/2021 8:30:00 PM -0.06 31.892 0 7.48 13.35 15
1/30/2021 8:45:00 PM -0.06 31.892 0 7.47 13.38 15.04
1/30/2021 9:00:00 PM -0.06 31.892 0 7.47 13.38 15.07
1/30/2021 9:15:00 PM -0.07 31.874 0 7.47 13.41 15.11
1/30/2021 9:30:00 PM -0.07 31.874 0 7.46 13.36 15.11
1/30/2021 9:45:00 PM -0.07 31.874 0 7.46 13.32 15.11
1/30/2021 10:00:00 PM -0.07 31.874 0 7.45 13.25 15.12
1/30/2021 10:15:00 PM -0.08 31.856 0 7.45 13.21 15.18
1/30/2021 10:30:00 PM -0.08 31.856 0 7.45 13.18 15.26
1/30/2021 10:45:00 PM -0.09 31.838 0 7.44 13.14 15.35
1/30/2021 11:00:00 PM -0.09 31.838 0 7.44 13.09 15.46
1/30/2021 11:15:00 PM -0.1 31.82 0 7.44 13.05 15.63
1/30/2021 11:30:00 PM -0.11 31.802 0 7.44 13.05 15.76
1/30/2021 11:45:00 PM -0.11 31.802 0 7.43 13.03 15.89
1/31/2021 12:00:00 AM -0.12 31.784 0 7.43 13 16
1/31/2021 12:15:00 AM -0.13 31.766 0 7.43 12.97 16.14
1/31/2021 12:30:00 AM -0.13 31.766 0 7.43 12.96 16.32
1/31/2021 12:45:00 AM -0.14 31.748 0 7.43 12.98 16.54
1/31/2021 1:00:00 AM -0.15 31.73 0 7.42 12.97 16.68
1/31/2021 1:15:00 AM -0.16 31.712 0 7.42 12.96 16.82
1/31/2021 1:30:00 AM -0.16 31.712 0 7.42 12.96 17.02
1/31/2021 1:45:00 AM -0.17 31.694 0 7.43 12.99 17.23
1/31/2021 2:00:00 AM -0.17 31.694 0 7.43 12.97 17.46
1/31/2021 2:15:00 AM -0.17 31.694 0 7.44 12.98 17.52
1/31/2021 2:30:00 AM -0.16 31.712 0 7.45 12.98 17.58
1/31/2021 2:45:00 AM -0.17 31.694 0 7.47 13.01 17.66
1/31/2021 3:00:00 AM -0.17 31.694 0 7.47 13 17.75
1/31/2021 3:15:00 AM -0.16 31.712 0 7.48 13.03 17.79
1/31/2021 3:30:00 AM -0.17 31.694 0 7.49 13.02 17.82
1/31/2021 3:45:00 AM -0.17 31.694 0 7.49 13.03 17.81
1/31/2021 4:00:00 AM -0.17 31.694 0 7.5 13.02 17.74
1/31/2021 4:15:00 AM -0.17 31.694 0 7.51 12.99 17.81
1/31/2021 4:30:00 AM -0.17 31.694 0 7.51 12.97 17.71
1/31/2021 4:45:00 AM -0.17 31.694 0 7.51 12.98 17.67
1/31/2021 5:00:00 AM -0.18 31.676 0 7.51 12.99 17.62
1/31/2021 5:15:00 AM -0.19 31.658 0 7.51 12.99 17.57
1/31/2021 5:30:00 AM -0.19 31.658 0 7.52 12.97 17.49
1/31/2021 5:45:00 AM -0.19 31.658 0 7.53 12.97 17.41
1/31/2021 6:00:00 AM -0.19 31.658 0 7.53 12.98 17.31
1/31/2021 6:15:00 AM -0.2 31.64 0 7.52 12.99 17.24
1/31/2021 6:30:00 AM -0.21 31.622 0 7.52 13.01 17.16
1/31/2021 6:45:00 AM -0.23 31.586 0 7.51 13 17.1
1/31/2021 7:00:00 AM -0.23 31.586 0 7.51 12.98 17.04
1/31/2021 7:15:00 AM -0.24 31.568 0 7.52 13.01 16.97
1/31/2021 7:30:00 AM -0.25 31.55 0 7.52 12.98 16.94
1/31/2021 7:45:00 AM -0.27 31.514 0 7.51 12.97 16.9
1/31/2021 8:00:00 AM -0.26 31.532 0 7.52 13 16.87
1/31/2021 8:15:00 AM -0.26 31.532 0 7.52 12.97 16.83
1/31/2021 8:30:00 AM -0.25 31.55 0 7.53 13.01 16.8
1/31/2021 8:45:00 AM -0.25 31.55 0 7.53 13 16.76
1/31/2021 9:00:00 AM -0.23 31.586 0 7.54 13 16.72
1/31/2021 9:15:00 AM -0.22 31.604 0 7.55 13.02 16.68
1/31/2021 9:30:00 AM -0.22 31.604 0 7.56 13.06 16.64
1/31/2021 9:45:00 AM -0.18 31.676 0 7.57 13.06 16.59
1/31/2021 10:00:00 AM -0.14 31.748 0 7.61 13.1 16.56
1/31/2021 10:15:00 AM -0.13 31.766 0 7.63 13.16 16.51
1/31/2021 10:30:00 AM -0.12 31.784 0 7.65 13.15 16.49
1/31/2021 10:45:00 AM -0.11 31.802 0 7.66 13.16 16.48
1/31/2021 11:00:00 AM -0.11 31.802 0 7.67 13.14 16.47
1/31/2021 11:15:00 AM -0.1 31.82 0 7.68 13.14 16.45
1/31/2021 11:30:00 AM -0.1 31.82 0 7.68 13.12 16.4
1/31/2021 11:45:00 AM -0.1 31.82 0.001 7.68 13.15 16.39
1/31/2021 12:00:00 PM -0.1 31.82 0.001 7.69 13.15 16.38
1/31/2021 12:15:00 PM -0.09 31.838 0.001 7.69 13.12 16.35
1/31/2021 12:30:00 PM -0.09 31.838 0.001 7.69 13.13 16.35
1/31/2021 12:45:00 PM -0.09 31.838 0.001 7.69 13.13 16.33
1/31/2021 1:00:00 PM -0.09 31.838 0.001 7.69 13.14 16.3
1/31/2021 1:15:00 PM -0.09 31.838 0.001 7.69 13.11 16.26
1/31/2021 1:30:00 PM -0.09 31.838 0.001 7.69 13.1 16.25
1/31/2021 1:45:00 PM -0.09 31.838 0.001 7.68 13.09 16.21
1/31/2021 2:00:00 PM -0.08 31.856 0.001 7.68 13.08 16.18
1/31/2021 2:15:00 PM -0.08 31.856 0.001 7.68 13.06 16.15
1/31/2021 2:30:00 PM -0.08 31.856 0.001 7.67 13.05 16.14
1/31/2021 2:45:00 PM -0.08 31.856 0.001 7.67 13.06 16.13
1/31/2021 3:00:00 PM -0.08 31.856 0 7.66 13.05 16.1
1/31/2021 3:15:00 PM -0.08 31.856 0 7.66 13.04 16.07
1/31/2021 3:30:00 PM -0.08 31.856 0 7.65 13 16.05
1/31/2021 3:45:00 PM -0.08 31.856 0 7.65 12.99 16.04
1/31/2021 4:00:00 PM -0.08 31.856 0 7.64 12.99 16.03
1/31/2021 4:15:00 PM -0.08 31.856 0 7.64 12.98 16.03
1/31/2021 4:30:00 PM -0.08 31.856 0 7.63 12.98 16.02
1/31/2021 4:45:00 PM -0.08 31.856 0 7.62 12.98 16.04
1/31/2021 5:00:00 PM -0.08 31.856 0 7.62 12.98 16.04
1/31/2021 5:15:00 PM -0.08 31.856 0 7.61 12.97 16.03
1/31/2021 5:30:00 PM -0.08 31.856 0 7.6 12.95 16.03
1/31/2021 5:45:00 PM -0.08 31.856 0 7.6 12.95 16.01
1/31/2021 6:00:00 PM -0.08 31.856 0 7.59 12.94 16
1/31/2021 6:15:00 PM -0.08 31.856 0 7.59 12.95 15.99
1/31/2021 6:30:00 PM -0.08 31.856 0 7.58 12.93 15.98
1/31/2021 6:45:00 PM -0.08 31.856 0 7.57 12.95 15.98
1/31/2021 7:00:00 PM -0.08 31.856 0 7.57 12.94 15.98
1/31/2021 7:15:00 PM -0.08 31.856 0 7.56 12.94 15.98
1/31/2021 7:30:00 PM -0.08 31.856 0 7.56 12.94 15.97
1/31/2021 7:45:00 PM -0.08 31.856 0 7.55 12.92 15.97
1/31/2021 8:00:00 PM -0.08 31.856 0 7.54 12.93 15.96
1/31/2021 8:15:00 PM -0.08 31.856 0 7.54 12.95 15.96
1/31/2021 8:30:00 PM -0.08 31.856 0 7.53 12.91 15.96
1/31/2021 8:45:00 PM -0.08 31.856 0 7.53 12.92 15.95
1/31/2021 9:00:00 PM -0.08 31.856 0 7.52 12.91 15.95
1/31/2021 9:15:00 PM -0.08 31.856 0 7.51 12.94 15.96
1/31/2021 9:30:00 PM -0.08 31.856 0 7.5 12.89 15.95
1/31/2021 9:45:00 PM -0.08 31.856 0 7.49 12.86 15.95
1/31/2021 10:00:00 PM -0.08 31.856 0 7.48 12.91 15.95
1/31/2021 10:15:00 PM -0.08 31.856 0 7.47 12.86 15.95
1/31/2021 10:30:00 PM -0.08 31.856 0 7.47 12.89 15.95
1/31/2021 10:45:00 PM -0.08 31.856 0 7.46 12.89 15.95
1/31/2021 11:00:00 PM -0.08 31.856 0 7.45 12.89 15.95
1/31/2021 11:15:00 PM -0.08 31.856 0 7.45 12.9 15.94
1/31/2021 11:30:00 PM -0.08 31.856 0 7.44 12.89 15.95
1/31/2021 11:45:00 PM -0.08 31.856 0 7.43 12.89 15.93
2/1/2021 12:00:00 AM -0.08 31.856 0 7.42 12.88 15.93
2/1/2021 12:15:00 AM -0.08 31.856 0 7.42 12.88 15.93
2/1/2021 12:30:00 AM -0.08 31.856 0 7.41 12.88 15.92
2/1/2021 12:45:00 AM -0.08 31.856 0 7.4 12.89 15.91
2/1/2021 1:00:00 AM -0.08 31.856 0 7.4 12.87 15.91
2/1/2021 1:15:00 AM -0.08 31.856 0 7.39 12.85 15.91
2/1/2021 1:30:00 AM -0.08 31.856 0 7.39 12.86 15.9
2/1/2021 1:45:00 AM -0.08 31.856 0 7.38 12.83 15.9
2/1/2021 2:00:00 AM -0.08 31.856 0 7.38 12.85 15.89
2/1/2021 2:15:00 AM -0.08 31.856 0 7.37 12.84 15.88
2/1/2021 2:30:00 AM -0.08 31.856 0 7.37 12.85 15.87
2/1/2021 2:45:00 AM -0.08 31.856 0 7.37 12.84 15.88
2/1/2021 3:00:00 AM -0.08 31.856 0 7.36 12.86 15.86
2/1/2021 3:15:00 AM -0.08 31.856 0 7.36 12.81 15.86
2/1/2021 3:30:00 AM -0.08 31.856 0 7.36 12.83 15.85
2/1/2021 3:45:00 AM -0.08 31.856 0 7.35 12.82 15.84
2/1/2021 4:00:00 AM -0.08 31.856 0 7.35 12.86 15.84
2/1/2021 4:15:00 AM -0.08 31.856 0 7.34 12.83 15.83
2/1/2021 4:30:00 AM -0.08 31.856 0 7.34 12.87 15.83
2/1/2021 4:45:00 AM -0.08 31.856 0 7.33 12.84 15.82
2/1/2021 5:00:00 AM -0.08 31.856 0 7.33 12.85 15.81
2/1/2021 5:15:00 AM -0.08 31.856 0 7.32 12.84 15.81
2/1/2021 5:30:00 AM -0.08 31.856 0 7.31 12.84 15.81
2/1/2021 5:45:00 AM -0.08 31.856 0 7.31 12.86 15.8
2/1/2021 6:00:00 AM -0.08 31.856 0 7.3 12.83 15.8
2/1/2021 6:15:00 AM -0.08 31.856 0 7.29 12.84 15.81
2/1/2021 6:30:00 AM -0.08 31.856 0 7.29 12.85 15.8
2/1/2021 6:45:00 AM -0.08 31.856 0 7.28 12.81 15.8
2/1/2021 7:00:00 AM -0.08 31.856 0 7.28 12.84 15.81
2/1/2021 7:15:00 AM -0.08 31.856 0 7.28 12.85 15.81
2/1/2021 7:30:00 AM -0.08 31.856 0 7.28 12.85 15.79
2/1/2021 7:45:00 AM -0.08 31.856 0 7.28 12.85 15.79
2/1/2021 8:00:00 AM -0.08 31.856 0 7.28 12.85 15.8
2/1/2021 8:15:00 AM -0.08 31.856 0 7.28 12.86 15.8
2/1/2021 8:30:00 AM -0.08 31.856 0 7.28 12.84 15.8
2/1/2021 8:45:00 AM -0.08 31.856 0 7.28 12.85 15.79
2/1/2021 9:00:00 AM -0.08 31.856 0 7.28 12.86 15.79
2/1/2021 9:15:00 AM -0.08 31.856 0 7.28 12.85 15.78
2/1/2021 9:30:00 AM -0.08 31.856 0 7.28 12.83 15.79
2/1/2021 9:45:00 AM -0.08 31.856 0 7.28 12.85 15.78
2/1/2021 10:00:00 AM -0.07 31.874 0 7.28 12.85 15.77
2/1/2021 10:15:00 AM -0.07 31.874 0 7.28 12.86 15.77
2/1/2021 10:30:00 AM -0.07 31.874 0 7.28 12.87 15.77
2/1/2021 10:45:00 AM -0.07 31.874 0 7.28 12.89 15.77
2/1/2021 11:00:00 AM -0.07 31.874 0 7.28 12.88 15.77
2/1/2021 11:15:00 AM -0.07 31.874 0 7.27 12.86 15.76
2/1/2021 11:30:00 AM -0.07 31.874 0 7.27 12.88 15.77
2/1/2021 11:45:00 AM -0.07 31.874 0 7.27 12.91 15.76
2/1/2021 12:00:00 PM -0.07 31.874 0 7.27 12.89 15.75
2/1/2021 12:15:00 PM -0.07 31.874 0 7.27 12.89 15.76
2/1/2021 12:30:00 PM -0.07 31.874 0 7.27 12.88 15.78
2/1/2021 12:45:00 PM -0.07 31.874 0 7.26 12.88 15.78
2/1/2021 1:00:00 PM -0.07 31.874 0 7.26 12.88 15.78
2/1/2021 1:15:00 PM -0.07 31.874 0 7.26 12.89 15.79
2/1/2021 1:30:00 PM -0.07 31.874 0 7.26 12.89 15.77
2/1/2021 1:45:00 PM -0.07 31.874 0 7.26 12.9 15.78
2/1/2021 2:00:00 PM -0.07 31.874 0 7.26 12.9 15.79
2/1/2021 2:15:00 PM -0.07 31.874 0 7.26 12.9 15.79
2/1/2021 2:30:00 PM -0.07 31.874 0 7.26 12.88 15.79
2/1/2021 2:45:00 PM -0.07 31.874 0 7.26 12.89 15.79
2/1/2021 3:00:00 PM -0.07 31.874 0 7.26 12.93 15.79
2/1/2021 3:15:00 PM -0.07 31.874 0 7.27 12.92 15.8
2/1/2021 3:30:00 PM -0.07 31.874 0 7.27 12.89 15.79
2/1/2021 3:45:00 PM -0.07 31.874 0 7.27 12.9 15.79
2/1/2021 4:00:00 PM -0.07 31.874 0 7.28 12.91 15.78
2/1/2021 4:15:00 PM -0.07 31.874 0 7.28 12.93 15.77
2/1/2021 4:30:00 PM -0.07 31.874 0 7.29 12.91 15.78
2/1/2021 4:45:00 PM -0.07 31.874 0 7.29 12.86 15.79
2/1/2021 5:00:00 PM -0.07 31.874 0 7.3 12.85 15.79
2/1/2021 5:15:00 PM -0.07 31.874 0 7.3 12.83 15.79
2/1/2021 5:30:00 PM -0.07 31.874 0 7.31 12.88 15.79
2/1/2021 5:45:00 PM -0.07 31.874 0 7.31 12.86 15.78
2/1/2021 6:00:00 PM -0.07 31.874 0 7.32 12.88 15.78
2/1/2021 6:15:00 PM -0.07 31.874 0 7.32 12.88 15.78
2/1/2021 6:30:00 PM -0.07 31.874 0 7.33 12.89 15.78
2/1/2021 6:45:00 PM -0.07 31.874 0 7.34 12.89 15.77
2/1/2021 7:00:00 PM -0.07 31.874 0 7.35 12.9 15.77
2/1/2021 7:15:00 PM -0.07 31.874 0 7.36 12.88 15.76
2/1/2021 7:30:00 PM -0.07 31.874 0 7.36 12.89 15.75
2/1/2021 7:45:00 PM -0.07 31.874 0 7.38 12.9 15.75
2/1/2021 8:00:00 PM -0.07 31.874 0 7.39 12.85 15.74
2/1/2021 8:15:00 PM -0.07 31.874 0 7.39 12.9 15.74
2/1/2021 8:30:00 PM -0.07 31.874 0 7.4 12.9 15.72
2/1/2021 8:45:00 PM -0.07 31.874 0 7.41 12.89 15.72
2/1/2021 9:00:00 PM -0.07 31.874 0 7.41 12.89 15.71
2/1/2021 9:15:00 PM -0.07 31.874 0 7.42 12.88 15.7
2/1/2021 9:30:00 PM -0.07 31.874 0 7.42 12.89 15.71
2/1/2021 9:45:00 PM -0.07 31.874 0 7.43 12.89 15.71
2/1/2021 10:00:00 PM -0.07 31.874 0 7.43 12.89 15.71
2/1/2021 10:15:00 PM -0.07 31.874 0 7.43 12.88 15.7
2/1/2021 10:30:00 PM -0.07 31.874 0 7.44 12.9 15.7
2/1/2021 10:45:00 PM -0.07 31.874 0 7.44 12.87 15.7
2/1/2021 11:00:00 PM -0.07 31.874 0 7.44 12.89 15.7
2/1/2021 11:15:00 PM -0.07 31.874 0 7.44 12.86 15.7
2/1/2021 11:30:00 PM -0.07 31.874 0 7.45 12.91 15.69
2/1/2021 11:45:00 PM -0.07 31.874 0 7.45 12.87 15.69
2/2/2021 12:00:00 AM -0.07 31.874 0 7.45 12.87 15.67
2/2/2021 12:15:00 AM -0.07 31.874 0 7.45 12.87 15.67
2/2/2021 12:30:00 AM -0.07 31.874 0 7.46 12.86 15.67
2/2/2021 12:45:00 AM -0.06 31.892 0 7.46 12.88 15.65
2/2/2021 1:00:00 AM -0.07 31.874 0 7.46 12.85 15.65
2/2/2021 1:15:00 AM -0.06 31.892 0 7.46 12.9 15.65
2/2/2021 1:30:00 AM -0.07 31.874 0 7.46 12.91 15.63
2/2/2021 1:45:00 AM -0.06 31.892 0 7.46 12.86 15.63
2/2/2021 2:00:00 AM -0.06 31.892 0 7.46 12.9 15.61
2/2/2021 2:15:00 AM -0.06 31.892 0 7.46 12.87 15.59
2/2/2021 2:30:00 AM -0.06 31.892 0 7.47 12.88 15.58
2/2/2021 2:45:00 AM -0.06 31.892 0 7.46 12.89 15.57
2/2/2021 3:00:00 AM -0.06 31.892 0 7.47 12.85 15.56
2/2/2021 3:15:00 AM -0.06 31.892 0 7.47 12.84 15.54
2/2/2021 3:30:00 AM -0.06 31.892 0 7.46 12.85 15.53
2/2/2021 3:45:00 AM -0.06 31.892 0 7.47 12.85 15.54
2/2/2021 4:00:00 AM -0.06 31.892 0 7.46 12.82 15.53
2/2/2021 4:15:00 AM -0.06 31.892 0 7.46 12.83 15.53
2/2/2021 4:30:00 AM -0.06 31.892 0 7.46 12.84 15.52
2/2/2021 4:45:00 AM -0.06 31.892 0 7.46 12.85 15.51
2/2/2021 5:00:00 AM -0.06 31.892 0 7.46 12.84 15.51
2/2/2021 5:15:00 AM -0.06 31.892 0 7.46 12.83 15.5
2/2/2021 5:30:00 AM -0.06 31.892 0 7.46 12.83 15.5
2/2/2021 5:45:00 AM -0.06 31.892 0 7.46 12.85 15.5
2/2/2021 6:00:00 AM -0.06 31.892 0 7.46 12.85 15.5
2/2/2021 6:15:00 AM -0.06 31.892 0 7.45 12.84 15.5
2/2/2021 6:30:00 AM -0.06 31.892 0 7.45 12.85 15.5
2/2/2021 6:45:00 AM -0.06 31.892 0 7.45 12.84 15.51
2/2/2021 7:00:00 AM -0.06 31.892 0 7.45 12.85 15.51
2/2/2021 7:15:00 AM -0.06 31.892 0 7.45 12.83 15.5
2/2/2021 7:30:00 AM -0.06 31.892 0 7.44 12.87 15.51
2/2/2021 7:45:00 AM -0.06 31.892 0 7.44 12.86 15.51
2/2/2021 8:00:00 AM -0.06 31.892 0 7.44 12.88 15.51
2/2/2021 8:15:00 AM -0.06 31.892 0 7.44 12.87 15.5
2/2/2021 8:30:00 AM -0.06 31.892 0 7.43 12.91 15.5
2/2/2021 8:45:00 AM -0.06 31.892 0 7.43 12.88 15.47
2/2/2021 9:00:00 AM -0.06 31.892 0 7.43 12.91 15.46
2/2/2021 9:15:00 AM -0.06 31.892 0 7.43 12.87 15.43
2/2/2021 9:30:00 AM -0.06 31.892 0 7.42 12.9 15.43
2/2/2021 9:45:00 AM -0.06 31.892 0 7.42 12.91 15.42
2/2/2021 10:00:00 AM -0.06 31.892 0 7.42 12.91 15.42
2/2/2021 10:15:00 AM -0.06 31.892 0 7.42 12.92 15.41
2/2/2021 10:30:00 AM -0.06 31.892 0 7.42 12.91 15.42
2/2/2021 10:45:00 AM -0.06 31.892 0 7.42 12.92 15.46
2/2/2021 11:00:00 AM -0.06 31.892 0 7.42 12.93 15.47
2/2/2021 11:15:00 AM -0.06 31.892 0 7.41 12.93 15.51
2/2/2021 11:30:00 AM -0.06 31.892 0 7.41 12.89 15.56
2/2/2021 11:45:00 AM -0.06 31.892 0 7.41 12.9 15.57
2/2/2021 12:00:00 PM -0.06 31.892 0 7.41 12.87 15.56
2/2/2021 12:15:00 PM -0.06 31.892 0 7.4 12.9 15.55
2/2/2021 12:30:00 PM -0.06 31.892 0 7.4 12.87 15.59
2/2/2021 12:45:00 PM -0.06 31.892 0 7.4 12.88 15.63
2/2/2021 1:00:00 PM -0.06 31.892 0 7.39 12.88 15.64
2/2/2021 1:15:00 PM -0.06 31.892 0 7.39 12.86 15.65
2/2/2021 1:30:00 PM -0.06 31.892 0 7.38 12.85 15.68
2/2/2021 1:45:00 PM -0.06 31.892 0 7.38 12.83 15.69
2/2/2021 2:00:00 PM -0.06 31.892 0 7.38 12.87 15.68
2/2/2021 2:15:00 PM -0.06 31.892 0 7.37 12.85 15.69
2/2/2021 2:30:00 PM -0.06 31.892 0 7.37 12.85 15.67
2/2/2021 2:45:00 PM -0.06 31.892 0 7.36 12.85 15.67
2/2/2021 3:00:00 PM -0.06 31.892 0 7.36 12.85 15.65
2/2/2021 3:15:00 PM -0.06 31.892 0 7.35 12.84 15.66
2/2/2021 3:30:00 PM -0.06 31.892 0 7.35 12.85 15.66
2/2/2021 3:45:00 PM -0.06 31.892 0 7.34 12.83 15.63
2/2/2021 4:00:00 PM -0.06 31.892 0 7.34 12.83 15.63
2/2/2021 4:15:00 PM -0.06 31.892 0 7.33 12.86 15.63
2/2/2021 4:30:00 PM -0.06 31.892 0 7.33 12.85 15.58
2/2/2021 4:45:00 PM -0.06 31.892 0 7.32 12.84 15.55
2/2/2021 5:00:00 PM -0.06 31.892 0 7.31 12.84 15.56
2/2/2021 5:15:00 PM -0.06 31.892 0 7.3 12.86 15.58
2/2/2021 5:30:00 PM -0.06 31.892 0 7.3 12.86 15.58
2/2/2021 5:45:00 PM -0.06 31.892 0 7.29 12.87 15.6
2/2/2021 6:00:00 PM -0.06 31.892 0 7.27 12.87 15.6
2/2/2021 6:15:00 PM -0.06 31.892 0 7.26 12.9 15.61
2/2/2021 6:30:00 PM -0.06 31.892 0 7.24 12.86 15.59
2/2/2021 6:45:00 PM -0.06 31.892 0 7.22 12.89 15.59
2/2/2021 7:00:00 PM -0.06 31.892 0 7.19 12.89 15.59
2/2/2021 7:15:00 PM -0.06 31.892 0 7.17 12.89 15.59
2/2/2021 7:30:00 PM -0.06 31.892 0 7.14 12.89 15.6
2/2/2021 7:45:00 PM -0.06 31.892 0 7.11 12.86 15.59
2/2/2021 8:00:00 PM -0.06 31.892 0 7.09 12.88 15.63
2/2/2021 8:15:00 PM -0.06 31.892 0 7.07 12.93 15.65
2/2/2021 8:30:00 PM -0.06 31.892 0 7.06 12.91 15.67
2/2/2021 8:45:00 PM -0.06 31.892 0 7.05 12.91 15.67
2/2/2021 9:00:00 PM -0.06 31.892 0 7.04 12.92 15.67
2/2/2021 9:15:00 PM -0.06 31.892 0 7.03 12.92 15.67
2/2/2021 9:30:00 PM -0.06 31.892 0 7.03 12.92 15.68
2/2/2021 9:45:00 PM -0.06 31.892 0 7.02 12.93 15.68
2/2/2021 10:00:00 PM -0.06 31.892 0 7.01 12.92 15.67
2/2/2021 10:15:00 PM -0.06 31.892 0 7.01 12.95 15.68
2/2/2021 10:30:00 PM -0.06 31.892 0 7 12.96 15.68
2/2/2021 10:45:00 PM -0.06 31.892 0 6.99 12.95 15.69
2/2/2021 11:00:00 PM -0.06 31.892 0 6.98 12.96 15.69
2/2/2021 11:15:00 PM -0.06 31.892 0 6.98 13 15.7
2/2/2021 11:30:00 PM -0.06 31.892 0 6.97 12.96 15.7
2/2/2021 11:45:00 PM -0.06 31.892 0 6.96 13 15.7
2/3/2021 12:00:00 AM -0.06 31.892 0 6.96 13 15.71
2/3/2021 12:15:00 AM -0.06 31.892 0 6.95 12.99 15.71
2/3/2021 12:30:00 AM -0.06 31.892 0 6.95 13.04 15.71
2/3/2021 12:45:00 AM -0.06 31.892 0 6.95 13.02 15.71
2/3/2021 1:00:00 AM -0.06 31.892 0 6.95 13.02 15.72
2/3/2021 1:15:00 AM -0.06 31.892 0 6.95 13.03 15.72
2/3/2021 1:30:00 AM -0.06 31.892 0 6.95 13.06 15.72
2/3/2021 1:45:00 AM -0.06 31.892 0 6.95 13.05 15.73
2/3/2021 2:00:00 AM -0.06 31.892 0 6.95 13.05 15.72
2/3/2021 2:15:00 AM -0.06 31.892 0 6.95 13.07 15.72
2/3/2021 2:30:00 AM -0.06 31.892 0 6.95 13.03 15.73
2/3/2021 2:45:00 AM -0.06 31.892 0 6.95 13.05 15.73
2/3/2021 3:00:00 AM -0.06 31.892 0 6.96 13.04 15.73
2/3/2021 3:15:00 AM -0.06 31.892 0 6.96 13.06 15.74
2/3/2021 3:30:00 AM -0.06 31.892 0 6.96 13.08 15.74
2/3/2021 3:45:00 AM -0.06 31.892 0 6.96 13.1 15.74
2/3/2021 4:00:00 AM -0.06 31.892 0 6.97 13.09 15.74
2/3/2021 4:15:00 AM -0.06 31.892 0 6.97 13.05 15.74
2/3/2021 4:30:00 AM -0.06 31.892 0 6.97 13.07 15.74
2/3/2021 4:45:00 AM -0.06 31.892 0 6.97 13.06 15.75
2/3/2021 5:00:00 AM -0.06 31.892 0 6.97 13.09 15.74
2/3/2021 5:15:00 AM -0.06 31.892 0 6.98 13.08 15.75
2/3/2021 5:30:00 AM -0.06 31.892 0 6.98 13.09 15.74
2/3/2021 5:45:00 AM -0.06 31.892 0 6.98 13.13 15.73
2/3/2021 6:00:00 AM -0.06 31.892 0 6.98 13.12 15.74
2/3/2021 6:15:00 AM -0.06 31.892 0 6.98 13.1 15.75
2/3/2021 6:30:00 AM -0.06 31.892 0 6.99 13.11 15.74
2/3/2021 6:45:00 AM -0.06 31.892 0 6.99 13.1 15.74
2/3/2021 7:00:00 AM -0.06 31.892 0 6.99 13.09 15.73
2/3/2021 7:15:00 AM -0.06 31.892 0 6.99 13.1 15.73
2/3/2021 7:30:00 AM -0.06 31.892 0 6.99 13.1 15.72
2/3/2021 7:45:00 AM -0.06 31.892 0 6.99 13.11 15.73
2/3/2021 8:00:00 AM -0.06 31.892 0 7 13.11 15.73
2/3/2021 8:15:00 AM -0.06 31.892 0 7 13.13 15.74
2/3/2021 8:30:00 AM -0.06 31.892 0 7 13.13 15.74
2/3/2021 8:45:00 AM -0.06 31.892 0 7 13.13 15.75
2/3/2021 9:00:00 AM -0.06 31.892 0 7 13.11 15.76
2/3/2021 9:15:00 AM -0.06 31.892 0 7 13.13 15.76
2/3/2021 9:30:00 AM -0.06 31.892 0 7 13.14 15.77
2/3/2021 9:45:00 AM -0.06 31.892 0 7 13.11 15.78
2/3/2021 10:00:00 AM -0.06 31.892 0 7 13.13 15.77
2/3/2021 10:15:00 AM -0.06 31.892 0 7 13.09 15.8
2/3/2021 10:30:00 AM -0.06 31.892 0 7 13.06 15.81
2/3/2021 10:45:00 AM -0.06 31.892 0 6.99 13.06 15.86
2/3/2021 11:00:00 AM -0.06 31.892 0 6.99 13.06 15.89
2/3/2021 11:15:00 AM -0.06 31.892 0 6.99 13.09 15.96
2/3/2021 11:30:00 AM -0.06 31.892 0 6.99 13.07 16.01
2/3/2021 11:45:00 AM -0.06 31.892 0 6.99 13.05 16.03
2/3/2021 12:00:00 PM -0.06 31.892 0 6.99 13.04 16.04
2/3/2021 12:15:00 PM -0.06 31.892 0 6.99 13.05 15.91
2/3/2021 12:30:00 PM -0.06 31.892 0 6.99 13.07 15.58
2/3/2021 12:45:00 PM -0.06 31.892 0 6.99 13.03 15.44
2/3/2021 1:00:00 PM -0.06 31.892 0 6.98 13.06 15.38
2/3/2021 1:15:00 PM -0.05 31.91 0 6.98 13.07 15.3
2/3/2021 1:30:00 PM -0.05 31.91 0 6.98 13.04 15.09
2/3/2021 1:45:00 PM -0.05 31.91 0 6.98 13.08 14.88
2/3/2021 2:00:00 PM -0.05 31.91 0 6.98 13.04 14.68
2/3/2021 2:15:00 PM -0.05 31.91 0 6.97 13.01 14.57
2/3/2021 2:30:00 PM -0.05 31.91 0 6.98 13.01 14.58
2/3/2021 2:45:00 PM -0.05 31.91 0 6.98 13.01 14.68
2/3/2021 3:00:00 PM -0.05 31.91 0 6.99 13.01 14.77
2/3/2021 3:15:00 PM -0.05 31.91 0 6.99 12.97 14.83
2/3/2021 3:30:00 PM -0.05 31.91 0 7 12.98 14.83
2/3/2021 3:45:00 PM -0.05 31.91 0 7 12.96 14.88
2/3/2021 4:00:00 PM -0.05 31.91 0 7 12.95 14.92
2/3/2021 4:15:00 PM -0.05 31.91 0 7 12.94 14.95
2/3/2021 4:30:00 PM -0.05 31.91 0 7 12.94 14.99
2/3/2021 4:45:00 PM -0.05 31.91 0 7 12.94 15.02
2/3/2021 5:00:00 PM -0.05 31.91 0 7 12.89 14.99
2/3/2021 5:15:00 PM -0.05 31.91 0 7.01 12.95 14.99
2/3/2021 5:30:00 PM -0.05 31.91 0 7 12.93 14.97
2/3/2021 5:45:00 PM -0.05 31.91 0 7 12.95 15.01
2/3/2021 6:00:00 PM -0.05 31.91 0 7 12.95 15.13
2/3/2021 6:15:00 PM -0.05 31.91 0 7 12.95 15.22
2/3/2021 6:30:00 PM -0.05 31.91 0 7.01 12.95 15.27
2/3/2021 6:45:00 PM -0.05 31.91 0 7.01 12.93 15.34
2/3/2021 7:00:00 PM -0.05 31.91 0 7.01 12.94 15.43
2/3/2021 7:15:00 PM -0.05 31.91 0 7.02 12.93 15.53
2/3/2021 7:30:00 PM -0.05 31.91 0 7.02 12.94 15.59
2/3/2021 7:45:00 PM -0.05 31.91 0 7.02 12.95 15.53
2/3/2021 8:00:00 PM -0.05 31.91 0 7.01 12.93 15.43
2/3/2021 8:15:00 PM -0.05 31.91 0 7.01 12.92 15.4
2/3/2021 8:30:00 PM -0.05 31.91 0 7.01 12.91 15.39
2/3/2021 8:45:00 PM -0.05 31.91 0 7.01 12.92 15.39
2/3/2021 9:00:00 PM -0.05 31.91 0 7 12.92 15.39
2/3/2021 9:15:00 PM -0.05 31.91 0 7 12.93 15.35
2/3/2021 9:30:00 PM -0.05 31.91 0 7 12.95 15.29
2/3/2021 9:45:00 PM -0.05 31.91 0 7 12.98 15.26
2/3/2021 10:00:00 PM -0.05 31.91 0 7 12.92 15.15
2/3/2021 10:15:00 PM -0.05 31.91 0 6.96 12.92 15.27
2/3/2021 10:30:00 PM -0.05 31.91 0 6.96 12.97 15.32
2/3/2021 10:45:00 PM -0.05 31.91 0 6.96 12.96 15.41
2/3/2021 11:00:00 PM -0.05 31.91 0 6.96 12.99 15.47
2/3/2021 11:15:00 PM -0.05 31.91 0 6.96 13.02 15.49
2/3/2021 11:30:00 PM -0.05 31.91 0 6.96 13.02 15.49
2/3/2021 11:45:00 PM -0.05 31.91 0 6.96 13.02 15.49
2/4/2021 12:00:00 AM -0.05 31.91 0 6.96 12.98 15.51
2/4/2021 12:15:00 AM -0.05 31.91 0 6.96 12.98 15.5
2/4/2021 12:30:00 AM -0.05 31.91 0 6.96 12.98 15.5
2/4/2021 12:45:00 AM -0.05 31.91 0 6.96 13 15.5
2/4/2021 1:00:00 AM -0.05 31.91 0 6.96 12.98 15.48
2/4/2021 1:15:00 AM -0.05 31.91 0 6.96 13 15.44
2/4/2021 1:30:00 AM -0.05 31.91 0 6.97 13.01 15.45
2/4/2021 1:45:00 AM -0.05 31.91 0 6.97 13.03 15.44
2/4/2021 2:00:00 AM -0.05 31.91 0 6.97 13.01 15.38
2/4/2021 2:15:00 AM -0.05 31.91 0 6.98 13.03 15.37
2/4/2021 2:30:00 AM -0.05 31.91 0 6.98 13.02 15.34
2/4/2021 2:45:00 AM -0.05 31.91 0 6.98 13.03 15.32
2/4/2021 3:00:00 AM -0.05 31.91 0 6.99 13.09 15.27
2/4/2021 3:15:00 AM -0.05 31.91 0 6.99 13.08 15.2
2/4/2021 3:30:00 AM -0.05 31.91 0 6.99 13.12 15.14
2/4/2021 3:45:00 AM -0.05 31.91 0 6.99 13.1 15.03
2/4/2021 4:00:00 AM -0.05 31.91 0 7 13.07 14.95
2/4/2021 4:15:00 AM -0.05 31.91 0 7 13.11 14.92
2/4/2021 4:30:00 AM -0.05 31.91 0 7 13.12 14.81
2/4/2021 4:45:00 AM -0.05 31.91 0 7 13.11 14.91
2/4/2021 5:00:00 AM -0.05 31.91 0 7 13.12 14.93
2/4/2021 5:15:00 AM -0.05 31.91 0 7 13.13 14.85
2/4/2021 5:30:00 AM -0.05 31.91 0 7 13.14 14.85
2/4/2021 5:45:00 AM -0.05 31.91 0 7 13.16 14.9
2/4/2021 6:00:00 AM -0.05 31.91 0 7 13.16 14.9
2/4/2021 6:15:00 AM -0.05 31.91 0 7 13.18 14.84
2/4/2021 6:30:00 AM -0.05 31.91 0 7 13.17 14.91
2/4/2021 6:45:00 AM -0.05 31.91 0 7 13.18 14.84
2/4/2021 7:00:00 AM -0.05 31.91 0 7 13.19 14.66
2/4/2021 7:15:00 AM -0.05 31.91 0 6.99 13.17 14.75
2/4/2021 7:30:00 AM -0.05 31.91 0 6.99 13.15 14.71
2/4/2021 7:45:00 AM -0.05 31.91 0 6.99 13.13 14.33
2/4/2021 8:00:00 AM -0.05 31.91 0 6.99 13.18 14.34
2/4/2021 8:15:00 AM -0.05 31.91 0 6.99 13.17 14.36
2/4/2021 8:30:00 AM -0.05 31.91 0 6.99 13.2 14.21
2/4/2021 8:45:00 AM -0.05 31.91 0 6.99 13.19 14.12
2/4/2021 9:00:00 AM -0.05 31.91 0 6.99 13.23 14.13
2/4/2021 9:15:00 AM -0.05 31.91 0 6.99 13.24 14.07
2/4/2021 9:30:00 AM -0.05 31.91 0 6.99 13.21 14.01
2/4/2021 9:45:00 AM -0.05 31.91 0 6.99 13.27 14.04
2/4/2021 10:00:00 AM -0.05 31.91 0 6.99 13.29 13.97
2/4/2021 10:15:00 AM -0.05 31.91 0 6.98 13.29 13.9
2/4/2021 10:30:00 AM -0.05 31.91 0 6.98 13.31 13.94
2/4/2021 10:45:00 AM -0.05 31.91 0 6.98 13.34 14.01
2/4/2021 11:00:00 AM -0.05 31.91 0 7 13.38 13.98
2/4/2021 11:15:00 AM -0.05 31.91 0 7 13.36 14.02
2/4/2021 11:30:00 AM -0.05 31.91 0 7 13.38 14.03
2/4/2021 11:45:00 AM -0.05 31.91 0 7.01 13.43 14.03
2/4/2021 12:00:00 PM -0.05 31.91 0 6.96 13.42 14.09
2/4/2021 12:15:00 PM -0.05 31.91 0 6.96 13.44 14.05
2/4/2021 12:30:00 PM -0.05 31.91 0 6.99 13.6 14.16
2/4/2021 12:45:00 PM -0.05 31.91 0 7.01 14.49 14.23
2/4/2021 1:00:00 PM -0.05 31.91 0 7.03 18.51 14.29
2/4/2021 1:15:00 PM -0.05 31.91 0 7.04 37.19 14.35
2/4/2021 1:30:00 PM -0.05 31.91 0 7.04 93.82 14.38
2/4/2021 1:45:00 PM -0.05 31.91 0 7.04 77.22 14.41
2/4/2021 2:00:00 PM -0.05 31.91 0 7.05 68.67 14.37
2/4/2021 2:15:00 PM -0.05 31.91 0 7.05 20.03 14.21
2/4/2021 2:30:00 PM -0.05 31.91 0 7.06 47.37 14.27
2/4/2021 2:45:00 PM -0.05 31.91 0 7.08 50.52 14.35
2/4/2021 3:00:00 PM -0.05 31.91 0 7.07 51.49 14.42
2/4/2021 3:15:00 PM -0.05 31.91 0 7.07 52.27 14.41
2/4/2021 3:30:00 PM -0.05 31.91 0 7.08 52.71 14.39
2/4/2021 3:45:00 PM -0.05 31.91 0 7.09 53.21 14.4
2/4/2021 4:00:00 PM -0.05 31.91 0 7.1 53.74 14.46
2/4/2021 4:15:00 PM -0.05 31.91 0 7.1 54.52 14.44
2/4/2021 4:30:00 PM -0.05 31.91 0 7.09 55.11 14.45
2/4/2021 4:45:00 PM -0.05 31.91 0 7.08 55.13 14.45
2/4/2021 5:00:00 PM -0.05 31.91 0 7.07 54.8 14.49
2/4/2021 5:15:00 PM -0.05 31.91 0 7.07 55.02 14.51
2/4/2021 5:30:00 PM -0.05 31.91 0 7.07 55.16 14.5
2/4/2021 5:45:00 PM -0.05 31.91 0 7.06 55.43 14.5
2/4/2021 6:00:00 PM -0.05 31.91 0 7.06 55.42 14.52
2/4/2021 6:15:00 PM -0.05 31.91 0 7.06 55.42 14.53
2/4/2021 6:30:00 PM -0.05 31.91 0 7.06 55.37 14.56
2/4/2021 6:45:00 PM -0.05 31.91 0 7.05 55.5 14.6
2/4/2021 7:00:00 PM -0.05 31.91 0 7.05 55.58 14.63
2/4/2021 7:15:00 PM -0.05 31.91 0 7.04 55.87 14.64
2/4/2021 7:30:00 PM -0.05 31.91 0 7.03 56.29 14.65
2/4/2021 7:45:00 PM -0.05 31.91 0 7.03 56.47 14.65
2/4/2021 8:00:00 PM -0.05 31.91 0 7.02 56.81 14.66
2/4/2021 8:15:00 PM -0.05 31.91 0 7.02 57.12 14.65
2/4/2021 8:30:00 PM -0.05 31.91 0 7.01 57.28 14.64
2/4/2021 8:45:00 PM -0.05 31.91 0 7.01 57.3 14.63
2/4/2021 9:00:00 PM -0.05 31.91 0 6.99 57.39 14.57
2/4/2021 9:15:00 PM -0.05 31.91 0 6.99 57.41 14.58
2/4/2021 9:30:00 PM -0.05 31.91 0 6.98 57.56 14.6
2/4/2021 9:45:00 PM -0.05 31.91 0 6.98 57.51 14.61
2/4/2021 10:00:00 PM -0.05 31.91 0 6.98 57.6 14.59
2/4/2021 10:15:00 PM -0.05 31.91 0 6.96 57.88 14.59
2/4/2021 10:30:00 PM -0.05 31.91 0 6.95 58.17 14.59
2/4/2021 10:45:00 PM -0.05 31.91 0 6.94 58.46 14.56
2/4/2021 11:00:00 PM -0.05 31.91 0 6.94 58.78 14.57
2/4/2021 11:15:00 PM -0.05 31.91 0 6.95 58.96 14.57
2/4/2021 11:30:00 PM -0.05 31.91 0 6.95 59.33 14.56
2/4/2021 11:45:00 PM -0.05 31.91 0 6.95 59.61 14.56
2/5/2021 12:00:00 AM -0.05 31.91 0 6.95 59.76 14.56
2/5/2021 12:15:00 AM -0.05 31.91 0 6.95 59.95 14.54
2/5/2021 12:30:00 AM -0.05 31.91 0 6.95 60.19 14.52
2/5/2021 12:45:00 AM -0.05 31.91 0 6.95 60.19 14.52
2/5/2021 1:00:00 AM -0.05 31.91 0 6.95 60.86 14.52
2/5/2021 1:15:00 AM -0.05 31.91 0 6.94 60.75 14.52
2/5/2021 1:30:00 AM -0.05 31.91 0 6.94 60.83 14.51
2/5/2021 1:45:00 AM -0.05 31.91 0 6.92 61.01 14.51
2/5/2021 2:00:00 AM -0.05 31.91 0 6.92 61.11 14.52
2/5/2021 2:15:00 AM -0.05 31.91 0 6.92 61.23 14.5
2/5/2021 2:30:00 AM -0.05 31.91 0 6.93 61.33 14.5
2/5/2021 2:45:00 AM -0.05 31.91 0 6.94 61.43 14.49
2/5/2021 3:00:00 AM -0.05 31.91 0 6.94 61.62 14.48
2/5/2021 3:15:00 AM -0.05 31.91 0 6.93 61.61 14.47
2/5/2021 3:30:00 AM -0.05 31.91 0 6.93 61.66 14.46
2/5/2021 3:45:00 AM -0.05 31.91 0 6.94 61.61 14.45
2/5/2021 4:00:00 AM -0.05 31.91 0 6.94 61.61 14.45
2/5/2021 4:15:00 AM -0.05 31.91 0 6.93 61.68 14.44
2/5/2021 4:30:00 AM -0.05 31.91 0 6.92 61.9 14.43
2/5/2021 4:45:00 AM -0.05 31.91 0 6.92 61.92 14.42
2/5/2021 5:00:00 AM -0.05 31.91 0 6.92 61.98 14.43
2/5/2021 5:15:00 AM -0.05 31.91 0 6.93 62.01 14.42
2/5/2021 5:30:00 AM -0.05 31.91 0 6.91 62.29 14.43
2/5/2021 5:45:00 AM -0.05 31.91 0 6.9 62.23 14.42
2/5/2021 6:00:00 AM -0.05 31.91 0 6.91 62.27 14.43
2/5/2021 6:15:00 AM -0.05 31.91 0 6.91 62.41 14.43
2/5/2021 6:30:00 AM -0.05 31.91 0 6.91 62.59 14.43
2/5/2021 6:45:00 AM -0.05 31.91 0 6.91 62.71 14.42
2/5/2021 7:00:00 AM -0.05 31.91 0 6.9 63.01 14.42
2/5/2021 7:15:00 AM -0.05 31.91 0 6.86 63.11 14.42
2/5/2021 7:30:00 AM -0.05 31.91 0 6.86 63.14 14.42
2/5/2021 7:45:00 AM -0.05 31.91 0 6.86 63.34 14.42
2/5/2021 8:00:00 AM -0.05 31.91 0 6.86 63.7 14.42
2/5/2021 8:15:00 AM -0.05 31.91 0 6.86 64.03 14.42
2/5/2021 8:30:00 AM -0.05 31.91 0 6.86 64.3 14.42
2/5/2021 8:45:00 AM -0.05 31.91 0 6.86 64.79 14.42
2/5/2021 9:00:00 AM -0.05 31.91 0 6.86 65.51 14.41
2/5/2021 9:15:00 AM -0.05 31.91 0 6.86 65.71 14.41
2/5/2021 9:30:00 AM -0.05 31.91 0 6.87 66.61 14.41
2/5/2021 9:45:00 AM -0.05 31.91 0 6.87 67.67 14.4
2/5/2021 10:00:00 AM -0.05 31.91 0 6.87 68.31 14.4
2/5/2021 10:15:00 AM -0.05 31.91 0 6.87 69.2 14.41
2/5/2021 10:30:00 AM -0.05 31.91 0 6.87 69.93 14.4
2/5/2021 10:45:00 AM -0.05 31.91 0 6.87 70.32 14.4
2/5/2021 11:00:00 AM -0.04 31.928 0 6.88 70.81 14.4
2/5/2021 11:15:00 AM -0.04 31.928 0 6.88 71.51 14.4
2/5/2021 11:30:00 AM -0.04 31.928 0 6.88 72.08 14.4
2/5/2021 11:45:00 AM -0.05 31.91 0 6.88 72.69 14.39
2/5/2021 12:00:00 PM -0.04 31.928 0 6.88 73.52 14.39
2/5/2021 12:15:00 PM -0.04 31.928 0 6.88 74.47 14.39
2/5/2021 12:30:00 PM -0.04